Darstellungsparameter: Aktuell verwendete Einstellungen:
Skalierung der Graphiken ... ?
xyx+y,   Skalierungsfaktor:      Skalierung: Modus: x, Faktor: 1
Darstellungszeitraum ... ?
Vom - - bis: - -   Zeitraum: 24.05.2008 - 23.11.2008
Min/Max/Avg-Anzeige ... ?
Zeige MMA aktuell
Zeige MMA Monat
Zeige MMA alles
Zeige --A aktuell
Zeige --A Monat
Zeige --A alles
Keine MMA-Anzeige
MMA:
Average (ber die Originaldaten)
MMA-Basis: 17.04.2019 - 19.05.2019
Quicknavigation für Darstellung... ?
Tage:      1T, 2T, 3T, 5T -1T -2T -3T -5T +1T +2T +3T +5T
Wochen: 1W, 2W, 3W -1W -2W -3W +1W +2W +3W
Monate: 1M, 3M, 6M -1M -3M -6M +1M +3M +6M
Jahre:    1J, 3J, 5J, 10J -1J -3J -5J -10J +1J +3J +5J +10J
Nutze für die Darstellung ... ?
Originaldaten oder Mittelwerte auf ...
Stundenbasis Tagesbasis Wochenbasis
Monatsbasis Jahresbasis      Datenbasis: Original-Daten
Darstellen als:
Statistik (Auto) Statistik J:M      Darstellung:
Zur Graphik,    zurück zur Übersicht aller Sensoren.
 
Tabellarische Datenbersicht: ?
 
Sensor: Nr:Datum:Temp:Abs-Feuchte:Windchill:Wind:
Aussen-T/F 1 24-05-2008 00:10:03 15.2 C 7.14 g/m*3 15.2 C 0 km/h
2 24-05-2008 00:22:03 14.8 C 7.09 g/m*3 14.8 C 0 km/h
3 24-05-2008 00:34:03 14.5 C 7.09 g/m*3 14.5 C 0 km/h
4 24-05-2008 00:46:03 14.2 C 7.2 g/m*3 14.2 C 0 km/h
5 24-05-2008 00:58:03 13.9 C 7.31 g/m*3 13.9 C 0 km/h
6 24-05-2008 01:10:03 13.7 C 7.34 g/m*3 13.7 C 0 km/h
7 24-05-2008 01:22:03 13.8 C 7.39 g/m*3 13.8 C 0 km/h
8 24-05-2008 01:34:03 13.8 C 7.51 g/m*3 13.8 C 0 km/h
9 24-05-2008 01:46:03 13.5 C 7.49 g/m*3 13.5 C 0 km/h
10 24-05-2008 01:58:03 13.4 C 7.44 g/m*3 13.4 C 0 km/h
11 24-05-2008 02:10:03 13.2 C 7.58 g/m*3 13.2 C 0 km/h
12 24-05-2008 02:22:03 13.1 C 7.65 g/m*3 13.1 C 0 km/h
13 24-05-2008 02:34:03 13.1 C 7.65 g/m*3 13.1 C 0 km/h
14 24-05-2008 02:46:04 12.9 C 7.66 g/m*3 12.9 C 0 km/h
15 24-05-2008 02:58:04 12.5 C 7.48 g/m*3 12.5 C 0 km/h
16 24-05-2008 03:10:04 12.5 C 7.59 g/m*3 12.5 C 0 km/h
17 24-05-2008 03:22:04 12.2 C 7.45 g/m*3 12.2 C 0 km/h
18 24-05-2008 03:34:04 12.2 C 7.55 g/m*3 12.2 C 0 km/h
19 24-05-2008 03:46:04 12.1 C 7.61 g/m*3 12.1 C 0 km/h
20 24-05-2008 03:58:04 12 C 7.57 g/m*3 12 C 0 km/h
21 24-05-2008 04:10:04 12.1 C 7.72 g/m*3 12.1 C 0 km/h
22 24-05-2008 04:22:04 11.8 C 7.68 g/m*3 11.8 C 0 km/h
23 24-05-2008 04:34:04 11.6 C 7.59 g/m*3 11.6 C 0 km/h
24 24-05-2008 04:46:04 11.5 C 7.64 g/m*3 11.5 C 0 km/h
25 24-05-2008 04:58:04 11.4 C 7.6 g/m*3 11.4 C 0 km/h
Sensor: Nr:Datum:Temp:Abs-Feuchte:Windchill:Wind:
Aussen-T/F 26 24-05-2008 05:10:04 11.2 C 7.5 g/m*3 11.2 C 0 km/h
27 24-05-2008 05:22:04 11.1 C 7.45 g/m*3 11.1 C 0 km/h
28 24-05-2008 05:34:04 10.8 C 7.51 g/m*3 10.8 C 0 km/h
29 24-05-2008 05:46:04 10.8 C 7.61 g/m*3 10.8 C 0 km/h
30 24-05-2008 05:58:04 10.6 C 7.71 g/m*3 10.6 C 0 km/h
31 24-05-2008 06:10:04 10.8 C 7.81 g/m*3 10.8 C 0 km/h
32 24-05-2008 06:22:04 10.9 C 7.86 g/m*3 10.9 C 0 km/h
33 24-05-2008 06:34:05 11.1 C 7.86 g/m*3 11.1 C 0 km/h
34 24-05-2008 06:46:05 11.4 C 8.01 g/m*3 11.4 C 0 km/h
35 24-05-2008 06:58:05 11.7 C 8.05 g/m*3 11.7 C 0 km/h
36 24-05-2008 07:10:05 11.9 C 8.05 g/m*3 11.9 C 0 km/h
37 24-05-2008 07:22:05 12.1 C 8.04 g/m*3 12.1 C 0 km/h
38 24-05-2008 07:34:05 12.5 C 8.25 g/m*3 12.5 C 0 km/h
39 24-05-2008 07:46:01 13.3 C 8.32 g/m*3 13.3 C 0 km/h
40 24-05-2008 07:58:01 14.1 C 8.25 g/m*3 14.1 C 0 km/h
41 24-05-2008 08:10:02 14.2 C 8.18 g/m*3 14.2 C 0 km/h
42 24-05-2008 08:22:02 14.7 C 8.18 g/m*3 14.7 C 0 km/h
43 24-05-2008 08:34:02 14.8 C 7.98 g/m*3 14.8 C 0 km/h
44 24-05-2008 08:46:02 14.9 C 7.77 g/m*3 14.9 C 0 km/h
45 24-05-2008 08:58:02 15.2 C 7.66 g/m*3 15.2 C 0 km/h
46 24-05-2008 09:10:02 15.8 C 7.54 g/m*3 15.8 C 0 km/h
47 24-05-2008 09:22:02 16.9 C 7.48 g/m*3 16.9 C 0 km/h
48 24-05-2008 09:34:02 17.2 C 7.32 g/m*3 17.2 C 0 km/h
49 24-05-2008 09:46:02 17.3 C 7.22 g/m*3 17.3 C 0 km/h
50 24-05-2008 09:58:02 17.5 C 7.31 g/m*3 17.5 C 0 km/h
Sensor: Nr:Datum:Temp:Abs-Feuchte:Windchill:Wind:
Aussen-T/F 51 24-05-2008 10:10:02 18.1 C 7.42 g/m*3 18.1 C 0 km/h
52 24-05-2008 10:22:03 19 C 7.5 g/m*3 19 C 0 km/h
53 24-05-2008 10:34:02 19.4 C 7.34 g/m*3 19.4 C 0 km/h
54 24-05-2008 10:46:02 19.6 C 7.26 g/m*3 19.6 C 0 km/h
55 24-05-2008 10:58:02 20 C 7.26 g/m*3 20 C 0 km/h
56 24-05-2008 11:10:01 20.5 C 7.3 g/m*3 20.5 C 0 km/h
57 24-05-2008 11:22:02 20.9 C 7.47 g/m*3 20.9 C 0 km/h
58 24-05-2008 11:34:01 21.7 C 7.44 g/m*3 21.7 C 0 km/h
59 24-05-2008 11:46:01 22 C 7.18 g/m*3 22 C 0 km/h
60 24-05-2008 11:58:01 21.6 C 7.21 g/m*3 21.6 C 0 km/h
61 24-05-2008 12:10:02 21.7 C 7.44 g/m*3 21.7 C 0 km/h
62 24-05-2008 12:22:02 21.7 C 7.44 g/m*3 21.7 C 0 km/h
63 24-05-2008 12:34:01 21.9 C 7.53 g/m*3 21.9 C 0 km/h
64 24-05-2008 12:46:01 22.4 C 7.15 g/m*3 22.4 C 0 km/h
65 24-05-2008 12:58:01 22.6 C 7.03 g/m*3 22.6 C 0 km/h
66 24-05-2008 13:10:02 22.6 C 7.03 g/m*3 22.6 C 0 km/h
67 24-05-2008 13:22:01 23.3 C 7.11 g/m*3 23.3 C 0 km/h
68 24-05-2008 13:34:02 24.2 C 6.6 g/m*3 24.2 C 0 km/h
69 24-05-2008 13:46:03 24.7 C 6.79 g/m*3 24.7 C 0 km/h
70 24-05-2008 13:58:03 26.1 C 6.12 g/m*3 26.1 C 0 km/h
71 24-05-2008 14:10:02 25.2 C 6.05 g/m*3 25.2 C 0 km/h
72 24-05-2008 14:22:02 25 C 5.99 g/m*3 25 C 0 km/h
73 24-05-2008 14:34:03 24.5 C 6.27 g/m*3 24.5 C 0 km/h
74 24-05-2008 14:46:02 25.4 C 6.12 g/m*3 25.4 C 0 km/h
75 24-05-2008 14:58:02 26.1 C 5.63 g/m*3 26.1 C 0 km/h
Sensor: Nr:Datum:Temp:Abs-Feuchte:Windchill:Wind:
Aussen-T/F 76 24-05-2008 15:10:02 25.2 C 5.82 g/m*3 25.2 C 0 km/h
77 24-05-2008 15:22:01 24.9 C 6.18 g/m*3 24.9 C 0 km/h
78 24-05-2008 15:34:02 24.5 C 6.04 g/m*3 24.5 C 0 km/h
79 24-05-2008 15:46:02 24 C 6.31 g/m*3 24 C 0 km/h
80 24-05-2008 15:58:02 23.9 C 6.49 g/m*3 23.9 C 0 km/h
81 24-05-2008 16:10:01 22.7 C 7.27 g/m*3 22.7 C 0 km/h
82 24-05-2008 16:22:01 24.2 C 7.04 g/m*3 24.2 C 0 km/h
83 24-05-2008 16:34:02 25.6 C 6.43 g/m*3 25.6 C 0 km/h
84 24-05-2008 16:46:02 25.9 C 6.05 g/m*3 25.9 C 0 km/h
85 24-05-2008 16:58:03 26.2 C 6.15 g/m*3 26.2 C 0 km/h
86 24-05-2008 17:10:02 25.1 C 6.02 g/m*3 25.1 C 0 km/h
87 24-05-2008 17:22:02 24.5 C 6.27 g/m*3 24.5 C 0 km/h
88 24-05-2008 17:34:02 24.5 C 6.27 g/m*3 24.5 C 0 km/h
89 24-05-2008 17:46:02 24.5 C 6.27 g/m*3 24.5 C 0 km/h
90 24-05-2008 17:58:02 24.6 C 6.3 g/m*3 24.6 C 0 km/h
91 24-05-2008 18:10:02 24.2 C 6.16 g/m*3 24.2 C 0 km/h
92 24-05-2008 18:22:02 23.6 C 7.23 g/m*3 23.6 C 0 km/h
93 24-05-2008 18:34:02 22.9 C 7.36 g/m*3 22.9 C 0 km/h
94 24-05-2008 18:46:02 22.4 C 7.15 g/m*3 22.4 C 0 km/h
95 24-05-2008 18:58:02 22.1 C 7.03 g/m*3 22.1 C 0 km/h
96 24-05-2008 19:10:03 21.8 C 7.1 g/m*3 21.8 C 0 km/h
97 24-05-2008 19:22:02 21.6 C 7.02 g/m*3 21.6 C 0 km/h
98 24-05-2008 19:34:02 21.3 C 7.08 g/m*3 21.3 C 0 km/h
99 24-05-2008 19:46:01 21.1 C 7 g/m*3 21.1 C 0 km/h
100 24-05-2008 19:58:01 20.9 C 7.29 g/m*3 20.9 C 0 km/h
Sensor: Nr:Datum:Temp:Abs-Feuchte:Windchill:Wind:
Aussen-T/F 101 24-05-2008 20:10:01 20.7 C 7.2 g/m*3 20.7 C 0 km/h
102 24-05-2008 20:22:02 20.5 C 7.3 g/m*3 20.5 C 0 km/h
103 24-05-2008 20:34:01 20.3 C 7.03 g/m*3 20.3 C 0 km/h
104 24-05-2008 20:46:01 20.2 C 6.99 g/m*3 20.2 C 0 km/h
105 24-05-2008 20:58:01 20.1 C 7.13 g/m*3 20.1 C 0 km/h
106 24-05-2008 21:10:02 19.9 C 7.39 g/m*3 19.9 C 0 km/h
107 24-05-2008 21:22:02 18.1 C 8.81 g/m*3 18.1 C 0 km/h
108 24-05-2008 21:34:01 17.7 C 9.2 g/m*3 17.7 C 0 km/h
109 24-05-2008 21:46:01 18.3 C 9.22 g/m*3 18.3 C 0 km/h
110 24-05-2008 21:58:01 18.5 C 8.86 g/m*3 18.5 C 0 km/h
111 24-05-2008 22:10:02 18.5 C 8.39 g/m*3 18.5 C 0 km/h
112 24-05-2008 22:22:01 18.8 C 8.05 g/m*3 18.8 C 0 km/h
113 24-05-2008 22:34:01 18.9 C 7.94 g/m*3 18.9 C 0 km/h
114 24-05-2008 22:47:04 18.9 C 7.78 g/m*3 18.9 C 0 km/h
115 24-05-2008 22:59:04 18.8 C 8.05 g/m*3 18.8 C 0 km/h
116 24-05-2008 23:11:04 18.4 C 7.86 g/m*3 18.4 C 0 km/h
117 24-05-2008 23:23:04 18.1 C 7.88 g/m*3 18.1 C 0 km/h
118 24-05-2008 23:35:04 17.7 C 8.3 g/m*3 17.7 C 0 km/h
119 24-05-2008 23:47:04 18.2 C 7.77 g/m*3 18.2 C 0 km/h
120 24-05-2008 23:59:04 16.8 C 8.86 g/m*3 16.8 C 0 km/h
121 25-05-2008 00:11:04 16.8 C 9.29 g/m*3 16.8 C 0 km/h
122 25-05-2008 00:23:04 17.1 C 9.03 g/m*3 17.1 C 0 km/h
123 25-05-2008 00:35:04 17.3 C 8.69 g/m*3 17.3 C 0 km/h
124 25-05-2008 00:47:04 17.3 C 8.54 g/m*3 17.3 C 0 km/h
125 25-05-2008 00:59:04 17.4 C 8.45 g/m*3 17.4 C 0 km/h
Sensor: Nr:Datum:Temp:Abs-Feuchte:Windchill:Wind:
Aussen-T/F 126 25-05-2008 01:11:04 17.3 C 8.4 g/m*3 17.3 C 0 km/h
127 25-05-2008 01:23:04 17.2 C 8.35 g/m*3 17.2 C 0 km/h
128 25-05-2008 01:35:04 17.1 C 8.3 g/m*3 17.1 C 0 km/h
129 25-05-2008 01:47:04 16.6 C 8.33 g/m*3 16.6 C 0 km/h
130 25-05-2008 01:59:05 16.5 C 8.28 g/m*3 16.5 C 0 km/h
131 25-05-2008 02:11:05 16.4 C 8.23 g/m*3 16.4 C 0 km/h
132 25-05-2008 02:23:05 16.4 C 8.37 g/m*3 16.4 C 0 km/h
133 25-05-2008 02:35:05 16.6 C 8.48 g/m*3 16.6 C 0 km/h
134 25-05-2008 02:47:05 16.8 C 8.29 g/m*3 16.8 C 0 km/h
135 25-05-2008 02:59:05 17 C 8.25 g/m*3 17 C 0 km/h
136 25-05-2008 03:11:05 17 C 8.25 g/m*3 17 C 0 km/h
137 25-05-2008 03:23:05 17 C 8.25 g/m*3 17 C 0 km/h
138 25-05-2008 03:35:05 16.7 C 8.95 g/m*3 16.7 C 0 km/h
139 25-05-2008 03:47:05 16.6 C 9.32 g/m*3 16.6 C 0 km/h
140 25-05-2008 03:59:05 16.5 C 8.71 g/m*3 16.5 C 0 km/h
141 25-05-2008 04:11:05 16.5 C 8.85 g/m*3 16.5 C 0 km/h
142 25-05-2008 04:23:05 16.5 C 8.85 g/m*3 16.5 C 0 km/h
143 25-05-2008 04:35:05 16.4 C 8.79 g/m*3 16.4 C 0 km/h
144 25-05-2008 04:47:05 16.4 C 8.79 g/m*3 16.4 C 0 km/h
145 25-05-2008 04:59:05 16.1 C 8.91 g/m*3 16.1 C 0 km/h
146 25-05-2008 05:11:05 16.2 C 9.24 g/m*3 16.2 C 0 km/h
147 25-05-2008 05:23:05 16.2 C 8.96 g/m*3 16.2 C 0 km/h
148 25-05-2008 05:35:05 16.2 C 8.83 g/m*3 16.2 C 0 km/h
149 25-05-2008 05:47:06 16.1 C 8.77 g/m*3 16.1 C 0 km/h
150 25-05-2008 05:59:06 16 C 8.86 g/m*3 16 C 0 km/h
Sensor: Nr:Datum:Temp:Abs-Feuchte:Windchill:Wind:
Aussen-T/F 151 25-05-2008 06:11:06 15.8 C 9.02 g/m*3 15.8 C 0 km/h
152 25-05-2008 06:23:06 15.6 C 8.91 g/m*3 15.6 C 0 km/h
153 25-05-2008 06:35:06 15.8 C 9.02 g/m*3 15.8 C 0 km/h
154 25-05-2008 06:47:06 16 C 8.99 g/m*3 16 C 0 km/h
155 25-05-2008 06:59:06 16.5 C 9.13 g/m*3 16.5 C 0 km/h
156 25-05-2008 07:11:06 16.8 C 9.15 g/m*3 16.8 C 0 km/h
157 25-05-2008 07:23:06 16.8 C 9.15 g/m*3 16.8 C 0 km/h
158 25-05-2008 07:35:06 16.6 C 9.18 g/m*3 16.6 C 0 km/h
159 25-05-2008 07:47:06 16.9 C 9.35 g/m*3 16.9 C 0 km/h
160 25-05-2008 07:59:06 17.4 C 9.34 g/m*3 17.4 C 0 km/h
161 25-05-2008 08:11:06 17.6 C 9.15 g/m*3 17.6 C 0 km/h
162 25-05-2008 08:23:06 18 C 9.22 g/m*3 18 C 0 km/h
163 25-05-2008 08:35:03 18.5 C 9.18 g/m*3 18.5 C 0 km/h
164 25-05-2008 08:47:02 18.7 C 9.45 g/m*3 18.7 C 0 km/h
165 25-05-2008 08:59:02 18.7 C 9.13 g/m*3 18.7 C 0 km/h
166 25-05-2008 09:11:02 19.1 C 9.02 g/m*3 19.1 C 0 km/h
167 25-05-2008 09:23:02 19.5 C 9.23 g/m*3 19.5 C 0 km/h
168 25-05-2008 09:35:02 19.9 C 9.45 g/m*3 19.9 C 0 km/h
169 25-05-2008 09:47:02 20.4 C 9.2 g/m*3 20.4 C 0 km/h
170 25-05-2008 09:59:02 20.1 C 9.04 g/m*3 20.1 C 0 km/h
171 25-05-2008 10:11:02 20.8 C 9.05 g/m*3 20.8 C 0 km/h
172 25-05-2008 10:23:02 21.1 C 9.03 g/m*3 21.1 C 0 km/h
173 25-05-2008 10:35:02 21.8 C 9.21 g/m*3 21.8 C 0 km/h
174 25-05-2008 10:47:02 22.1 C 8.98 g/m*3 22.1 C 0 km/h
175 25-05-2008 10:59:02 22.4 C 9.14 g/m*3 22.4 C 0 km/h
Sensor: Nr:Datum:Temp:Abs-Feuchte:Windchill:Wind:
Aussen-T/F 176 25-05-2008 11:11:02 22.7 C 8.89 g/m*3 22.7 C 0 km/h
177 25-05-2008 11:23:02 23.4 C 8.83 g/m*3 23.4 C 0 km/h
178 25-05-2008 11:35:02 24 C 8.49 g/m*3 24 C 0 km/h
179 25-05-2008 11:47:02 24 C 8.27 g/m*3 24 C 0 km/h
180 25-05-2008 11:59:02 24.1 C 8.31 g/m*3 24.1 C 0 km/h
181 25-05-2008 12:11:02 24.2 C 8.14 g/m*3 24.2 C 0 km/h
182 25-05-2008 12:23:03 25.2 C 8.15 g/m*3 25.2 C 0 km/h
183 25-05-2008 12:35:02 26.2 C 7.88 g/m*3 26.2 C 0 km/h
184 25-05-2008 12:47:01 27 C 7.98 g/m*3 27 C 0 km/h
185 25-05-2008 12:59:01 28.7 C 7.63 g/m*3 28.7 C 0 km/h
186 25-05-2008 13:11:01 26.8 C 7.64 g/m*3 26.8 C 0 km/h
187 25-05-2008 13:23:02 26 C 7.55 g/m*3 26 C 0 km/h
188 25-05-2008 13:35:01 27.1 C 6.99 g/m*3 27.1 C 0 km/h
189 25-05-2008 13:47:01 27 C 7.46 g/m*3 27 C 0 km/h
190 25-05-2008 13:59:01 26.6 C 7.8 g/m*3 26.6 C 0 km/h
191 25-05-2008 14:11:02 27.2 C 7.55 g/m*3 27.2 C 0 km/h
192 25-05-2008 14:23:02 27.9 C 7.84 g/m*3 27.9 C 0 km/h
193 25-05-2008 14:35:01 27.5 C 7.41 g/m*3 27.5 C 0 km/h
194 25-05-2008 14:47:01 27 C 7.72 g/m*3 27 C 0 km/h
195 25-05-2008 14:59:01 27.9 C 7.57 g/m*3 27.9 C 0 km/h
196 25-05-2008 15:11:02 28.6 C 7.59 g/m*3 28.6 C 0 km/h
197 25-05-2008 15:23:01 27.8 C 7.26 g/m*3 27.8 C 0 km/h
198 25-05-2008 15:35:01 27.4 C 7.37 g/m*3 27.4 C 0 km/h
199 25-05-2008 15:47:02 23.9 C 8.44 g/m*3 23.9 C 0 km/h
200 25-05-2008 15:59:02 20.9 C 13.11 g/m*3 20.9 C 0 km/h
Sensor: Nr:Datum:Temp:Abs-Feuchte:Windchill:Wind:
Aussen-T/F 201 25-05-2008 16:11:02 23.4 C 14.93 g/m*3 23.4 C 0 km/h
202 25-05-2008 16:23:02 24.4 C 14.02 g/m*3 24.4 C 0 km/h
203 25-05-2008 16:35:03 25.6 C 12.38 g/m*3 25.6 C 0 km/h
204 25-05-2008 16:47:02 27.1 C 10.35 g/m*3 27.1 C 0 km/h
205 25-05-2008 16:59:02 28.4 C 9.17 g/m*3 28.4 C 0 km/h
206 25-05-2008 17:11:03 29.9 C 9.35 g/m*3 29.9 C 0 km/h
207 25-05-2008 17:23:02 30.2 C 8.28 g/m*3 30.2 C 0 km/h
208 25-05-2008 17:35:02 30.2 C 8.28 g/m*3 30.2 C 0 km/h
209 25-05-2008 17:47:02 29.1 C 8.66 g/m*3 29.1 C 0 km/h
210 25-05-2008 17:59:02 28.7 C 10.17 g/m*3 28.7 C 0 km/h
211 25-05-2008 18:11:01 29.7 C 9.55 g/m*3 29.7 C 0 km/h
212 25-05-2008 18:23:02 28.1 C 8.2 g/m*3 28.1 C 0 km/h
213 25-05-2008 18:35:01 28.7 C 8.19 g/m*3 28.7 C 0 km/h
214 25-05-2008 18:47:01 28.7 C 9.04 g/m*3 28.7 C 0 km/h
215 25-05-2008 18:59:01 28.4 C 8.06 g/m*3 28.4 C 0 km/h
216 25-05-2008 19:11:03 27.7 C 9.63 g/m*3 27.7 C 0 km/h
217 25-05-2008 19:23:02 27.2 C 9.11 g/m*3 27.2 C 0 km/h
218 25-05-2008 19:35:02 27.3 C 9.42 g/m*3 27.3 C 0 km/h
219 25-05-2008 19:47:02 27.3 C 9.68 g/m*3 27.3 C 0 km/h
220 25-05-2008 19:59:02 26.3 C 9.9 g/m*3 26.3 C 0 km/h
221 25-05-2008 20:11:02 25.4 C 10.12 g/m*3 25.4 C 0 km/h
222 25-05-2008 20:23:02 24.6 C 10.13 g/m*3 24.6 C 0 km/h
223 25-05-2008 20:35:02 23.9 C 10.17 g/m*3 23.9 C 0 km/h
224 25-05-2008 20:47:02 23.2 C 9.98 g/m*3 23.2 C 0 km/h
225 25-05-2008 20:59:02 22.5 C 9.99 g/m*3 22.5 C 0 km/h
Sensor: Nr:Datum:Temp:Abs-Feuchte:Windchill:Wind:
Aussen-T/F 226 25-05-2008 21:11:02 21.9 C 10.03 g/m*3 21.9 C 0 km/h
227 25-05-2008 21:23:02 21.6 C 9.86 g/m*3 21.6 C 0 km/h
228 25-05-2008 21:35:02 21.3 C 9.69 g/m*3 21.3 C 0 km/h
229 25-05-2008 21:47:02 21 C 9.53 g/m*3 21 C 0 km/h
230 25-05-2008 21:59:02 20.8 C 9.6 g/m*3 20.8 C 0 km/h
231 25-05-2008 22:11:02 20.5 C 9.61 g/m*3 20.5 C 0 km/h
232 25-05-2008 22:23:02 20.4 C 9.73 g/m*3 20.4 C 0 km/h
233 25-05-2008 22:35:02 20.3 C 9.5 g/m*3 20.3 C 0 km/h
234 25-05-2008 22:47:02 20.3 C 9.67 g/m*3 20.3 C 0 km/h
235 25-05-2008 22:59:02 20.3 C 9.67 g/m*3 20.3 C 0 km/h
236 25-05-2008 23:12:02 20.2 C 9.62 g/m*3 20.2 C 0 km/h
237 25-05-2008 23:24:02 20.2 C 9.62 g/m*3 20.2 C 0 km/h
238 25-05-2008 23:36:02 20 C 9.51 g/m*3 20 C 0 km/h
239 25-05-2008 23:48:02 19.9 C 9.79 g/m*3 19.9 C 0 km/h
240 26-05-2008 00:00:03 19.7 C 9.68 g/m*3 19.7 C 0 km/h
241 26-05-2008 00:12:03 20 C 9.68 g/m*3 20 C 0 km/h
242 26-05-2008 00:24:03 19.3 C 9.62 g/m*3 19.3 C 0 km/h
243 26-05-2008 00:36:03 19.3 C 9.62 g/m*3 19.3 C 0 km/h
244 26-05-2008 00:48:03 19.3 C 9.79 g/m*3 19.3 C 0 km/h
245 26-05-2008 01:00:03 19.5 C 9.73 g/m*3 19.5 C 0 km/h
246 26-05-2008 01:12:03 19.5 C 9.73 g/m*3 19.5 C 0 km/h
247 26-05-2008 01:24:03 19.4 C 9.84 g/m*3 19.4 C 0 km/h
248 26-05-2008 01:36:03 19.3 C 9.79 g/m*3 19.3 C 0 km/h
249 26-05-2008 01:48:03 19.3 C 9.79 g/m*3 19.3 C 0 km/h
250 26-05-2008 02:00:03 19.3 C 9.95 g/m*3 19.3 C 0 km/h
Sensor: Nr:Datum:Temp:Abs-Feuchte:Windchill:Wind:
Aussen-T/F 251 26-05-2008 02:12:03 19.1 C 10 g/m*3 19.1 C 0 km/h
252 26-05-2008 02:24:03 19 C 9.94 g/m*3 19 C 0 km/h
253 26-05-2008 02:36:03 18.9 C 10.04 g/m*3 18.9 C 0 km/h
254 26-05-2008 02:48:03 18.9 C 10.21 g/m*3 18.9 C 0 km/h
255 26-05-2008 03:00:03 18.9 C 10.21 g/m*3 18.9 C 0 km/h
256 26-05-2008 03:12:03 18.9 C 10.21 g/m*3 18.9 C 0 km/h
257 26-05-2008 03:24:03 18.9 C 10.21 g/m*3 18.9 C 0 km/h
258 26-05-2008 03:36:03 18.8 C 10.31 g/m*3 18.8 C 0 km/h
259 26-05-2008 03:48:03 18.8 C 10.31 g/m*3 18.8 C 0 km/h
260 26-05-2008 04:00:04 18.2 C 10.72 g/m*3 18.2 C 0 km/h
261 26-05-2008 04:12:04 17.6 C 11.55 g/m*3 17.6 C 0 km/h
262 26-05-2008 04:24:04 17.3 C 11.79 g/m*3 17.3 C 0 km/h
263 26-05-2008 04:36:04 17 C 11.87 g/m*3 17 C 0 km/h
264 26-05-2008 04:48:04 17 C 12.15 g/m*3 17 C 0 km/h
265 26-05-2008 05:00:04 17.1 C 12.23 g/m*3 17.1 C 0 km/h
266 26-05-2008 05:12:04 17 C 12.3 g/m*3 17 C 0 km/h
267 26-05-2008 05:24:04 17.3 C 12.52 g/m*3 17.3 C 0 km/h
268 26-05-2008 05:36:04 16.8 C 12.44 g/m*3 16.8 C 0 km/h
269 26-05-2008 05:48:04 17 C 12.44 g/m*3 17 C 0 km/h
270 26-05-2008 06:00:04 17.1 C 12.52 g/m*3 17.1 C 0 km/h
271 26-05-2008 06:12:04 17.2 C 12.45 g/m*3 17.2 C 0 km/h
272 26-05-2008 06:24:04 17.2 C 12.3 g/m*3 17.2 C 0 km/h
273 26-05-2008 06:36:04 17.2 C 12.3 g/m*3 17.2 C 0 km/h
274 26-05-2008 06:48:02 17.1 C 12.08 g/m*3 17.1 C 0 km/h
275 26-05-2008 07:00:02 17.2 C 12.01 g/m*3 17.2 C 0 km/h
Sensor: Nr:Datum:Temp:Abs-Feuchte:Windchill:Wind:
Aussen-T/F 276 26-05-2008 07:12:02 17.3 C 12.08 g/m*3 17.3 C 0 km/h
277 26-05-2008 07:24:02 17.2 C 12.01 g/m*3 17.2 C 0 km/h
278 26-05-2008 07:36:02 17.3 C 12.08 g/m*3 17.3 C 0 km/h
279 26-05-2008 07:48:02 17.6 C 12.15 g/m*3 17.6 C 0 km/h
280 26-05-2008 08:00:02 17.8 C 12.29 g/m*3 17.8 C 0 km/h
281 26-05-2008 08:12:02 17.9 C 12.21 g/m*3 17.9 C 0 km/h
282 26-05-2008 08:24:03 17.8 C 12.14 g/m*3 17.8 C 0 km/h
283 26-05-2008 08:36:03 17.9 C 12.21 g/m*3 17.9 C 0 km/h
284 26-05-2008 08:48:02 17.8 C 12.14 g/m*3 17.8 C 0 km/h
285 26-05-2008 09:00:02 17.7 C 12.07 g/m*3 17.7 C 0 km/h
286 26-05-2008 09:12:03 17.8 C 12.29 g/m*3 17.8 C 0 km/h
287 26-05-2008 09:24:02 17.9 C 12.37 g/m*3 17.9 C 0 km/h
288 26-05-2008 09:36:02 18.1 C 12.21 g/m*3 18.1 C 0 km/h
289 26-05-2008 09:48:02 18.2 C 12.28 g/m*3 18.2 C 0 km/h
290 26-05-2008 10:00:02 18.1 C 12.36 g/m*3 18.1 C 0 km/h
291 26-05-2008 10:12:03 18.2 C 12.59 g/m*3 18.2 C 0 km/h
292 26-05-2008 10:24:02 18.5 C 12.82 g/m*3 18.5 C 0 km/h
293 26-05-2008 10:36:02 19 C 12.87 g/m*3 19 C 0 km/h
294 26-05-2008 10:48:02 19.7 C 12.74 g/m*3 19.7 C 0 km/h
295 26-05-2008 11:00:02 20.1 C 12.52 g/m*3 20.1 C 0 km/h
296 26-05-2008 11:12:02 20.4 C 12.38 g/m*3 20.4 C 0 km/h
297 26-05-2008 11:24:02 20.5 C 12.28 g/m*3 20.5 C 0 km/h
298 26-05-2008 11:36:02 20.4 C 12.21 g/m*3 20.4 C 0 km/h
299 26-05-2008 11:48:02 20.5 C 12.28 g/m*3 20.5 C 0 km/h
300 26-05-2008 12:00:02 21 C 11.91 g/m*3 21 C 0 km/h
Sensor: Nr:Datum:Temp:Abs-Feuchte:Windchill:Wind:
Aussen-T/F 301 26-05-2008 12:12:02 22.1 C 12.1 g/m*3 22.1 C 0 km/h
302 26-05-2008 12:24:02 22.1 C 11.52 g/m*3 22.1 C 0 km/h
303 26-05-2008 12:36:02 21.9 C 11.96 g/m*3 21.9 C 0 km/h
304 26-05-2008 12:48:02 21.3 C 11.93 g/m*3 21.3 C 0 km/h
305 26-05-2008 13:00:02 21.2 C 11.86 g/m*3 21.2 C 0 km/h
306 26-05-2008 13:12:02 21.7 C 12.21 g/m*3 21.7 C 0 km/h
307 26-05-2008 13:24:02 22.8 C 11.99 g/m*3 22.8 C 0 km/h
308 26-05-2008 13:36:02 22.9 C 11.65 g/m*3 22.9 C 0 km/h
309 26-05-2008 13:48:01 22.8 C 11.99 g/m*3 22.8 C 0 km/h
310 26-05-2008 14:00:01 22.9 C 11.85 g/m*3 22.9 C 0 km/h
311 26-05-2008 14:12:02 23.2 C 11.43 g/m*3 23.2 C 0 km/h
312 26-05-2008 14:24:02 23.8 C 11.4 g/m*3 23.8 C 0 km/h
313 26-05-2008 14:36:02 25 C 10.82 g/m*3 25 C 0 km/h
314 26-05-2008 14:48:02 25.1 C 9.95 g/m*3 25.1 C 0 km/h
315 26-05-2008 15:00:02 25.3 C 9.36 g/m*3 25.3 C 0 km/h
316 26-05-2008 15:12:02 26.5 C 9.01 g/m*3 26.5 C 0 km/h
317 26-05-2008 15:24:01 27.6 C 9.04 g/m*3 27.6 C 0 km/h
318 26-05-2008 15:36:02 27.3 C 9.16 g/m*3 27.3 C 0 km/h
319 26-05-2008 15:48:02 27.6 C 9.04 g/m*3 27.6 C 0 km/h
320 26-05-2008 16:00:02 28.2 C 8.52 g/m*3 28.2 C 0 km/h
321 26-05-2008 16:12:01 28.2 C 8.52 g/m*3 28.2 C 0 km/h
322 26-05-2008 16:24:01 28 C 8.43 g/m*3 28 C 0 km/h
323 26-05-2008 16:36:02 28 C 8.7 g/m*3 28 C 0 km/h
324 26-05-2008 16:48:02 27.7 C 9.36 g/m*3 27.7 C 0 km/h
325 26-05-2008 17:00:02 27.7 C 8.83 g/m*3 27.7 C 0 km/h
Sensor: Nr:Datum:Temp:Abs-Feuchte:Windchill:Wind:
Aussen-T/F 326 26-05-2008 17:12:02 27.5 C 9 g/m*3 27.5 C 0 km/h
327 26-05-2008 17:24:02 27.1 C 9.06 g/m*3 27.1 C 0 km/h
328 26-05-2008 17:36:03 27 C 9.26 g/m*3 27 C 0 km/h
329 26-05-2008 17:48:02 27.8 C 9.41 g/m*3 27.8 C 0 km/h
330 26-05-2008 18:00:02 27.6 C 9.04 g/m*3 27.6 C 0 km/h
331 26-05-2008 18:12:02 26.9 C 9.47 g/m*3 26.9 C 0 km/h
332 26-05-2008 18:24:02 26.3 C 9.41 g/m*3 26.3 C 0 km/h
333 26-05-2008 18:36:02 26.9 C 9.47 g/m*3 26.9 C 0 km/h
334 26-05-2008 18:48:02 26.8 C 9.42 g/m*3 26.8 C 0 km/h
335 26-05-2008 19:00:02 26.4 C 9.46 g/m*3 26.4 C 0 km/h
336 26-05-2008 19:12:02 26.2 C 9.6 g/m*3 26.2 C 0 km/h
337 26-05-2008 19:24:02 25.8 C 9.63 g/m*3 25.8 C 0 km/h
338 26-05-2008 19:36:02 25.8 C 9.39 g/m*3 25.8 C 0 km/h
339 26-05-2008 19:48:01 25.4 C 9.18 g/m*3 25.4 C 0 km/h
340 26-05-2008 20:00:01 24.7 C 9.28 g/m*3 24.7 C 0 km/h
341 26-05-2008 20:12:02 24.1 C 9.85 g/m*3 24.1 C 0 km/h
342 26-05-2008 20:24:02 23.7 C 10.27 g/m*3 23.7 C 0 km/h
343 26-05-2008 20:36:01 23.5 C 10.36 g/m*3 23.5 C 0 km/h
344 26-05-2008 20:48:01 23.1 C 10.34 g/m*3 23.1 C 0 km/h
345 26-05-2008 21:00:01 22.7 C 10.51 g/m*3 22.7 C 0 km/h
346 26-05-2008 21:12:02 22.5 C 10.39 g/m*3 22.5 C 0 km/h
347 26-05-2008 21:24:02 22.3 C 10.47 g/m*3 22.3 C 0 km/h
348 26-05-2008 21:36:01 22.1 C 10.54 g/m*3 22.1 C 0 km/h
349 26-05-2008 21:48:01 21.4 C 10.69 g/m*3 21.4 C 0 km/h
350 26-05-2008 22:00:01 21.1 C 10.69 g/m*3 21.1 C 0 km/h
Sensor: Nr:Datum:Temp:Abs-Feuchte:Windchill:Wind:
Aussen-T/F 351 26-05-2008 22:13:03 20.9 C 10.75 g/m*3 20.9 C 0 km/h
352 26-05-2008 22:25:03 20.9 C 10.75 g/m*3 20.9 C 0 km/h
353 26-05-2008 22:37:03 21 C 10.62 g/m*3 21 C 0 km/h
354 26-05-2008 22:49:04 20.8 C 10.68 g/m*3 20.8 C 0 km/h
355 26-05-2008 23:01:04 20.6 C 10.74 g/m*3 20.6 C 0 km/h
356 26-05-2008 23:13:04 20.2 C 10.49 g/m*3 20.2 C 0 km/h
357 26-05-2008 23:25:04 19.9 C 10.82 g/m*3 19.9 C 0 km/h
358 26-05-2008 23:37:04 19.7 C 10.7 g/m*3 19.7 C 0 km/h
359 26-05-2008 23:49:04 19.6 C 10.64 g/m*3 19.6 C 0 km/h
360 27-05-2008 00:01:04 19.4 C 10.51 g/m*3 19.4 C 0 km/h
361 27-05-2008 00:13:04 19.3 C 10.62 g/m*3 19.3 C 0 km/h
362 27-05-2008 00:25:04 19.4 C 10.68 g/m*3 19.4 C 0 km/h
363 27-05-2008 00:37:04 19.3 C 10.62 g/m*3 19.3 C 0 km/h
364 27-05-2008 00:49:04 19.1 C 10.49 g/m*3 19.1 C 0 km/h
365 27-05-2008 01:01:04 19 C 10.59 g/m*3 19 C 0 km/h
366 27-05-2008 01:13:04 18.9 C 10.69 g/m*3 18.9 C 0 km/h
367 27-05-2008 01:25:04 18.8 C 10.79 g/m*3 18.8 C 0 km/h
368 27-05-2008 01:37:04 18.7 C 10.73 g/m*3 18.7 C 0 km/h
369 27-05-2008 01:49:04 18.7 C 10.89 g/m*3 18.7 C 0 km/h
370 27-05-2008 02:01:04 18.7 C 10.89 g/m*3 18.7 C 0 km/h
371 27-05-2008 02:13:04 18.6 C 10.82 g/m*3 18.6 C 0 km/h
372 27-05-2008 02:25:04 18.6 C 10.98 g/m*3 18.6 C 0 km/h
373 27-05-2008 02:37:04 18.3 C 11.26 g/m*3 18.3 C 0 km/h
374 27-05-2008 02:49:05 17.8 C 11.38 g/m*3 17.8 C 0 km/h
375 27-05-2008 03:01:05 17.7 C 11.62 g/m*3 17.7 C 0 km/h
Sensor: Nr:Datum:Temp:Abs-Feuchte:Windchill:Wind:
Aussen-T/F 376 27-05-2008 03:13:05 17.7 C 11.77 g/m*3 17.7 C 0 km/h
377 27-05-2008 03:25:05 17.7 C 11.77 g/m*3 17.7 C 0 km/h
378 27-05-2008 03:37:05 17.5 C 11.63 g/m*3 17.5 C 0 km/h
379 27-05-2008 03:49:05 17.5 C 11.63 g/m*3 17.5 C 0 km/h
380 27-05-2008 04:01:05 17.3 C 11.79 g/m*3 17.3 C 0 km/h
381 27-05-2008 04:13:05 17.1 C 11.94 g/m*3 17.1 C 0 km/h
382 27-05-2008 04:25:05 17 C 11.87 g/m*3 17 C 0 km/h
383 27-05-2008 04:37:05 17.1 C 12.08 g/m*3 17.1 C 0 km/h
384 27-05-2008 04:49:05 17.1 C 12.08 g/m*3 17.1 C 0 km/h
385 27-05-2008 05:01:05 17.2 C 12.15 g/m*3 17.2 C 0 km/h
386 27-05-2008 05:13:05 17.1 C 11.94 g/m*3 17.1 C 0 km/h
387 27-05-2008 05:25:05 16.8 C 12.01 g/m*3 16.8 C 0 km/h
388 27-05-2008 05:37:05 16.6 C 12.15 g/m*3 16.6 C 0 km/h
389 27-05-2008 05:49:05 16.5 C 12.36 g/m*3 16.5 C 0 km/h
390 27-05-2008 06:01:05 16.4 C 12.42 g/m*3 16.4 C 0 km/h
391 27-05-2008 06:13:05 16.5 C 12.64 g/m*3 16.5 C 0 km/h
392 27-05-2008 06:25:05 16.4 C 12.7 g/m*3 16.4 C 0 km/h
393 27-05-2008 06:37:05 16.3 C 12.62 g/m*3 16.3 C 0 km/h
394 27-05-2008 06:49:02 16.2 C 12.69 g/m*3 16.2 C 0 km/h
395 27-05-2008 07:01:01 16.4 C 12.84 g/m*3 16.4 C 0 km/h
396 27-05-2008 07:13:01 16.6 C 13 g/m*3 16.6 C 0 km/h
397 27-05-2008 07:25:01 16.6 C 13 g/m*3 16.6 C 0 km/h
398 27-05-2008 07:37:02 16.7 C 13.22 g/m*3 16.7 C 0 km/h
399 27-05-2008 07:49:02 17 C 13.31 g/m*3 17 C 0 km/h
400 27-05-2008 08:01:02 17.4 C 13.63 g/m*3 17.4 C 0 km/h
Sensor: Nr:Datum:Temp:Abs-Feuchte:Windchill:Wind:
Aussen-T/F 401 27-05-2008 08:13:02 17.6 C 13.95 g/m*3 17.6 C 0 km/h
402 27-05-2008 08:25:01 17.8 C 13.96 g/m*3 17.8 C 0 km/h
403 27-05-2008 08:37:02 18.3 C 14.23 g/m*3 18.3 C 0 km/h
404 27-05-2008 08:49:01 18.3 C 13.92 g/m*3 18.3 C 0 km/h
405 27-05-2008 09:01:02 18.9 C 14.09 g/m*3 18.9 C 0 km/h
406 27-05-2008 09:13:02 19.4 C 13.51 g/m*3 19.4 C 0 km/h
407 27-05-2008 09:25:02 19.9 C 13.57 g/m*3 19.9 C 0 km/h
408 27-05-2008 09:37:01 20.6 C 13.42 g/m*3 20.6 C 0 km/h
409 27-05-2008 09:49:01 21 C 12.64 g/m*3 21 C 0 km/h
410 27-05-2008 10:01:02 21.4 C 12.94 g/m*3 21.4 C 0 km/h
411 27-05-2008 10:13:02 21.9 C 12.54 g/m*3 21.9 C 0 km/h
412 27-05-2008 10:25:01 21.7 C 12.21 g/m*3 21.7 C 0 km/h
413 27-05-2008 10:37:01 22 C 12.42 g/m*3 22 C 0 km/h
414 27-05-2008 10:49:01 21.9 C 12.16 g/m*3 21.9 C 0 km/h
415 27-05-2008 11:01:01 22.3 C 11.85 g/m*3 22.3 C 0 km/h
416 27-05-2008 11:13:02 23.2 C 12.27 g/m*3 23.2 C 0 km/h
417 27-05-2008 11:25:01 24.2 C 12.54 g/m*3 24.2 C 0 km/h
418 27-05-2008 11:37:02 25.2 C 11.87 g/m*3 25.2 C 0 km/h
419 27-05-2008 11:49:03 25.4 C 11.77 g/m*3 25.4 C 0 km/h
420 27-05-2008 12:01:02 25.2 C 11.41 g/m*3 25.2 C 0 km/h
421 27-05-2008 12:13:02 25.1 C 11.81 g/m*3 25.1 C 0 km/h
422 27-05-2008 12:25:02 25.7 C 11.97 g/m*3 25.7 C 0 km/h
423 27-05-2008 12:37:01 25.8 C 11.8 g/m*3 25.8 C 0 km/h
424 27-05-2008 12:49:02 26.5 C 11.26 g/m*3 26.5 C 0 km/h
425 27-05-2008 13:01:02 25.7 C 11.49 g/m*3 25.7 C 0 km/h
Sensor: Nr:Datum:Temp:Abs-Feuchte:Windchill:Wind:
Aussen-T/F 426 27-05-2008 13:13:03 24.5 C 11.86 g/m*3 24.5 C 0 km/h
427 27-05-2008 13:25:02 24.3 C 12.39 g/m*3 24.3 C 0 km/h
428 27-05-2008 13:37:02 24.6 C 12.15 g/m*3 24.6 C 0 km/h
429 27-05-2008 13:49:02 24.9 C 11.67 g/m*3 24.9 C 0 km/h
430 27-05-2008 14:01:01 25.2 C 11.41 g/m*3 25.2 C 0 km/h
431 27-05-2008 14:13:01 25.6 C 11.9 g/m*3 25.6 C 0 km/h
432 27-05-2008 14:25:01 26.3 C 12.38 g/m*3 26.3 C 0 km/h
433 27-05-2008 14:37:02 26.6 C 11.58 g/m*3 26.6 C 0 km/h
434 27-05-2008 14:49:02 26.8 C 11.96 g/m*3 26.8 C 0 km/h
435 27-05-2008 15:01:02 27.1 C 11.13 g/m*3 27.1 C 0 km/h
436 27-05-2008 15:13:02 27.2 C 10.93 g/m*3 27.2 C 0 km/h
437 27-05-2008 15:25:02 27.4 C 11.05 g/m*3 27.4 C 0 km/h
438 27-05-2008 15:37:02 27.1 C 11.39 g/m*3 27.1 C 0 km/h
439 27-05-2008 15:49:02 26.1 C 12 g/m*3 26.1 C 0 km/h
440 27-05-2008 16:01:01 26 C 11.93 g/m*3 26 C 0 km/h
441 27-05-2008 16:13:01 26.7 C 11.64 g/m*3 26.7 C 0 km/h
442 27-05-2008 16:25:01 27.4 C 11.58 g/m*3 27.4 C 0 km/h
443 27-05-2008 16:37:02 27.3 C 11.25 g/m*3 27.3 C 0 km/h
444 27-05-2008 16:49:02 28.6 C 11.24 g/m*3 28.6 C 0 km/h
445 27-05-2008 17:01:02 30 C 10.92 g/m*3 30 C 0 km/h
446 27-05-2008 17:13:02 30 C 10.61 g/m*3 30 C 0 km/h
447 27-05-2008 17:25:01 29.9 C 10.86 g/m*3 29.9 C 0 km/h
448 27-05-2008 17:37:02 29.5 C 10.92 g/m*3 29.5 C 0 km/h
449 27-05-2008 17:49:02 29.2 C 11.03 g/m*3 29.2 C 0 km/h
450 27-05-2008 18:01:01 29.1 C 10.97 g/m*3 29.1 C 0 km/h
Sensor: Nr:Datum:Temp:Abs-Feuchte:Windchill:Wind:
Aussen-T/F 451 27-05-2008 18:13:01 28.8 C 11.36 g/m*3 28.8 C 0 km/h
452 27-05-2008 18:25:02 28.3 C 11.61 g/m*3 28.3 C 0 km/h
453 27-05-2008 18:37:01 28.4 C 11.4 g/m*3 28.4 C 0 km/h
454 27-05-2008 18:49:02 28.3 C 11.89 g/m*3 28.3 C 0 km/h
455 27-05-2008 19:01:01 27.7 C 12.57 g/m*3 27.7 C 0 km/h
456 27-05-2008 19:13:01 27.1 C 12.16 g/m*3 27.1 C 0 km/h
457 27-05-2008 19:25:02 26.2 C 11.57 g/m*3 26.2 C 0 km/h
458 27-05-2008 19:37:02 25.6 C 11.67 g/m*3 25.6 C 0 km/h
459 27-05-2008 19:49:02 25.5 C 12.07 g/m*3 25.5 C 0 km/h
460 27-05-2008 20:01:02 24.8 C 12.52 g/m*3 24.8 C 0 km/h
461 27-05-2008 20:13:02 24.5 C 12.53 g/m*3 24.5 C 0 km/h
462 27-05-2008 20:25:02 24.3 C 12.39 g/m*3 24.3 C 0 km/h
463 27-05-2008 20:37:02 24.1 C 12.25 g/m*3 24.1 C 0 km/h
464 27-05-2008 20:49:01 23.8 C 12.26 g/m*3 23.8 C 0 km/h
465 27-05-2008 21:01:01 23.5 C 12.27 g/m*3 23.5 C 0 km/h
466 27-05-2008 21:13:01 23.3 C 11.92 g/m*3 23.3 C 0 km/h
467 27-05-2008 21:25:02 23.1 C 11.37 g/m*3 23.1 C 0 km/h
468 27-05-2008 21:37:01 22.9 C 11.44 g/m*3 22.9 C 0 km/h
469 27-05-2008 21:49:01 22.9 C 11.24 g/m*3 22.9 C 0 km/h
470 27-05-2008 22:02:03 22.8 C 10.97 g/m*3 22.8 C 0 km/h
471 27-05-2008 22:14:03 22.8 C 10.97 g/m*3 22.8 C 0 km/h
472 27-05-2008 22:26:03 22.8 C 10.77 g/m*3 22.8 C 0 km/h
473 27-05-2008 22:38:03 22.6 C 10.65 g/m*3 22.6 C 0 km/h
474 27-05-2008 22:50:03 22.3 C 10.47 g/m*3 22.3 C 0 km/h
475 27-05-2008 23:02:03 22.2 C 10.6 g/m*3 22.2 C 0 km/h
Sensor: Nr:Datum:Temp:Abs-Feuchte:Windchill:Wind:
Aussen-T/F 476 27-05-2008 23:14:03 21.9 C 10.61 g/m*3 21.9 C 0 km/h
477 27-05-2008 23:26:03 21.8 C 10.55 g/m*3 21.8 C 0 km/h
478 27-05-2008 23:38:03 21.5 C 10.56 g/m*3 21.5 C 0 km/h
479 27-05-2008 23:50:03 21.4 C 10.5 g/m*3 21.4 C 0 km/h
480 28-05-2008 00:02:03 21.2 C 10.56 g/m*3 21.2 C 0 km/h
481 28-05-2008 00:14:04 21.1 C 10.69 g/m*3 21.1 C 0 km/h
482 28-05-2008 00:26:04 20.9 C 10.75 g/m*3 20.9 C 0 km/h
483 28-05-2008 00:38:04 20.8 C 10.5 g/m*3 20.8 C 0 km/h
484 28-05-2008 00:50:04 20.7 C 10.62 g/m*3 20.7 C 0 km/h
485 28-05-2008 01:02:04 20.4 C 10.79 g/m*3 20.4 C 0 km/h
486 28-05-2008 01:14:04 20.2 C 10.67 g/m*3 20.2 C 0 km/h
487 28-05-2008 01:26:04 20.2 C 10.67 g/m*3 20.2 C 0 km/h
488 28-05-2008 01:38:04 20.1 C 10.43 g/m*3 20.1 C 0 km/h
489 28-05-2008 01:50:04 19.8 C 10.59 g/m*3 19.8 C 0 km/h
490 28-05-2008 02:02:04 20 C 10.37 g/m*3 20 C 0 km/h
491 28-05-2008 02:14:04 20 C 10.2 g/m*3 20 C 0 km/h
492 28-05-2008 02:26:04 20 C 10.2 g/m*3 20 C 0 km/h
493 28-05-2008 02:38:04 20 C 10.2 g/m*3 20 C 0 km/h
494 28-05-2008 02:50:04 19.9 C 10.31 g/m*3 19.9 C 0 km/h
495 28-05-2008 03:02:04 19.9 C 10.31 g/m*3 19.9 C 0 km/h
496 28-05-2008 03:14:04 19.9 C 10.48 g/m*3 19.9 C 0 km/h
497 28-05-2008 03:26:04 19.7 C 10.36 g/m*3 19.7 C 0 km/h
498 28-05-2008 03:38:04 19.7 C 10.36 g/m*3 19.7 C 0 km/h
499 28-05-2008 03:50:04 19.7 C 10.53 g/m*3 19.7 C 0 km/h
500 28-05-2008 04:02:04 19.6 C 10.47 g/m*3 19.6 C 0 km/h
Sensor: Nr:Datum:Temp:Abs-Feuchte:Windchill:Wind:
Aussen-T/F 501 28-05-2008 04:14:04 19.4 C 10.51 g/m*3 19.4 C 0 km/h
502 28-05-2008 04:26:05 19.5 C 10.74 g/m*3 19.5 C 0 km/h
503 28-05-2008 04:38:05 19.2 C 10.72 g/m*3 19.2 C 0 km/h
504 28-05-2008 04:50:05 19.1 C 10.66 g/m*3 19.1 C 0 km/h
505 28-05-2008 05:02:05 19.2 C 10.55 g/m*3 19.2 C 0 km/h
506 28-05-2008 05:14:05 19.2 C 10.72 g/m*3 19.2 C 0 km/h
507 28-05-2008 05:26:05 19 C 10.92 g/m*3 19 C 0 km/h
508 28-05-2008 05:38:05 18.9 C 11.02 g/m*3 18.9 C 0 km/h
509 28-05-2008 05:50:05 18.9 C 10.85 g/m*3 18.9 C 0 km/h
510 28-05-2008 06:02:05 18.6 C 10.98 g/m*3 18.6 C 0 km/h
511 28-05-2008 06:14:05 18.5 C 10.92 g/m*3 18.5 C 0 km/h
512 28-05-2008 06:26:05 18.7 C 11.21 g/m*3 18.7 C 0 km/h
513 28-05-2008 06:38:05 18.9 C 11.18 g/m*3 18.9 C 0 km/h
514 28-05-2008 06:50:05 19.1 C 11.31 g/m*3 19.1 C 0 km/h
515 28-05-2008 07:02:02 19.1 C 11.31 g/m*3 19.1 C 0 km/h
516 28-05-2008 07:14:02 19.2 C 11.54 g/m*3 19.2 C 0 km/h
517 28-05-2008 07:26:02 19.3 C 11.61 g/m*3 19.3 C 0 km/h
518 28-05-2008 07:38:02 19.5 C 11.58 g/m*3 19.5 C 0 km/h
519 28-05-2008 07:50:02 19.6 C 11.99 g/m*3 19.6 C 0 km/h
520 28-05-2008 08:02:02 20 C 12.1 g/m*3 20 C 0 km/h
521 28-05-2008 08:14:02 20.8 C 11.77 g/m*3 20.8 C 0 km/h
522 28-05-2008 08:26:01 20.8 C 11.59 g/m*3 20.8 C 0 km/h
523 28-05-2008 08:38:02 21 C 11.36 g/m*3 21 C 0 km/h
524 28-05-2008 08:50:02 21.4 C 11.62 g/m*3 21.4 C 0 km/h
525 28-05-2008 09:02:02 22.1 C 11.52 g/m*3 22.1 C 0 km/h
Sensor: Nr:Datum:Temp:Abs-Feuchte:Windchill:Wind:
Aussen-T/F 526 28-05-2008 09:14:02 22.3 C 11.45 g/m*3 22.3 C 0 km/h
527 28-05-2008 09:26:02 22.8 C 12.19 g/m*3 22.8 C 0 km/h
528 28-05-2008 09:38:02 23.4 C 11.99 g/m*3 23.4 C 0 km/h
529 28-05-2008 09:50:02 23.8 C 11.83 g/m*3 23.8 C 0 km/h
530 28-05-2008 10:02:02 23.7 C 12.19 g/m*3 23.7 C 0 km/h
531 28-05-2008 10:14:02 24.2 C 12.32 g/m*3 24.2 C 0 km/h
532 28-05-2008 10:26:02 24.6 C 11.48 g/m*3 24.6 C 0 km/h
533 28-05-2008 10:38:02 25.1 C 11.81 g/m*3 25.1 C 0 km/h
534 28-05-2008 10:50:01 26 C 11.2 g/m*3 26 C 0 km/h
535 28-05-2008 11:02:01 26.8 C 10.44 g/m*3 26.8 C 0 km/h
536 28-05-2008 11:14:01 26.9 C 11.01 g/m*3 26.9 C 0 km/h
537 28-05-2008 11:26:01 27.4 C 10.52 g/m*3 27.4 C 0 km/h
538 28-05-2008 11:38:02 27.6 C 9.31 g/m*3 27.6 C 0 km/h
539 28-05-2008 11:50:02 27.8 C 9.15 g/m*3 27.8 C 0 km/h
540 28-05-2008 12:02:02 27.8 C 9.41 g/m*3 27.8 C 0 km/h
541 28-05-2008 12:14:02 28.4 C 9.17 g/m*3 28.4 C 0 km/h
542 28-05-2008 12:26:02 28.7 C 9.04 g/m*3 28.7 C 0 km/h
543 28-05-2008 12:38:02 29.3 C 9.63 g/m*3 29.3 C 0 km/h
544 28-05-2008 12:50:02 27.9 C 8.38 g/m*3 27.9 C 0 km/h
545 28-05-2008 13:02:02 28.5 C 8.38 g/m*3 28.5 C 0 km/h
546 28-05-2008 13:14:02 29.3 C 7.59 g/m*3 29.3 C 0 km/h
547 28-05-2008 13:26:01 29.2 C 6.97 g/m*3 29.2 C 0 km/h
548 28-05-2008 13:38:02 28.5 C 6.99 g/m*3 28.5 C 0 km/h
549 28-05-2008 13:50:03 28.1 C 7.38 g/m*3 28.1 C 0 km/h
550 28-05-2008 14:02:03 28.6 C 7.59 g/m*3 28.6 C 0 km/h
Sensor: Nr:Datum:Temp:Abs-Feuchte:Windchill:Wind:
Aussen-T/F 551 28-05-2008 14:14:03 28.2 C 7.15 g/m*3 28.2 C 0 km/h
552 28-05-2008 14:26:02 27.5 C 7.67 g/m*3 27.5 C 0 km/h
553 28-05-2008 14:38:02 27.6 C 7.98 g/m*3 27.6 C 0 km/h
554 28-05-2008 14:50:02 27 C 7.72 g/m*3 27 C 0 km/h
555 28-05-2008 15:02:03 27.2 C 7.55 g/m*3 27.2 C 0 km/h
556 28-05-2008 15:14:03 26.8 C 7.64 g/m*3 26.8 C 0 km/h
557 28-05-2008 15:26:02 26.9 C 8.19 g/m*3 26.9 C 0 km/h
558 28-05-2008 15:38:02 27.4 C 7.63 g/m*3 27.4 C 0 km/h
559 28-05-2008 15:50:01 28 C 7.89 g/m*3 28 C 0 km/h
560 28-05-2008 16:02:02 27.9 C 7.3 g/m*3 27.9 C 0 km/h
561 28-05-2008 16:14:02 27.7 C 7.76 g/m*3 27.7 C 0 km/h
562 28-05-2008 16:26:02 28.1 C 7.38 g/m*3 28.1 C 0 km/h
563 28-05-2008 16:38:01 28 C 7.34 g/m*3 28 C 0 km/h
564 28-05-2008 16:50:02 28.2 C 7.7 g/m*3 28.2 C 0 km/h
565 28-05-2008 17:02:01 28.2 C 7.7 g/m*3 28.2 C 0 km/h
566 28-05-2008 17:14:01 28.2 C 7.97 g/m*3 28.2 C 0 km/h
567 28-05-2008 17:26:02 28.5 C 7.83 g/m*3 28.5 C 0 km/h
568 28-05-2008 17:38:02 28.2 C 7.97 g/m*3 28.2 C 0 km/h
569 28-05-2008 17:50:03 28.5 C 7.83 g/m*3 28.5 C 0 km/h
570 28-05-2008 18:02:02 28.6 C 7.87 g/m*3 28.6 C 0 km/h
571 28-05-2008 18:14:02 29.2 C 8.13 g/m*3 29.2 C 0 km/h
572 28-05-2008 18:26:02 28.8 C 7.96 g/m*3 28.8 C 0 km/h
573 28-05-2008 18:38:03 28.9 C 8 g/m*3 28.9 C 0 km/h
574 28-05-2008 18:50:02 28.7 C 8.19 g/m*3 28.7 C 0 km/h
575 28-05-2008 19:02:02 28.7 C 8.48 g/m*3 28.7 C 0 km/h
Sensor: Nr:Datum:Temp:Abs-Feuchte:Windchill:Wind:
Aussen-T/F 576 28-05-2008 19:14:03 28.3 C 8.29 g/m*3 28.3 C 0 km/h
577 28-05-2008 19:26:02 27.5 C 8.2 g/m*3 27.5 C 0 km/h
578 28-05-2008 19:38:02 27.2 C 8.33 g/m*3 27.2 C 0 km/h
579 28-05-2008 19:50:02 26.9 C 8.7 g/m*3 26.9 C 0 km/h
580 28-05-2008 20:02:03 27 C 9.01 g/m*3 27 C 0 km/h
581 28-05-2008 20:14:03 26.7 C 9.11 g/m*3 26.7 C 0 km/h
582 28-05-2008 20:26:02 26.1 C 9.3 g/m*3 26.1 C 0 km/h
583 28-05-2008 20:38:02 25.6 C 9.28 g/m*3 25.6 C 0 km/h
584 28-05-2008 20:50:02 25 C 9.21 g/m*3 25 C 0 km/h
585 28-05-2008 21:02:02 24.4 C 9.35 g/m*3 24.4 C 0 km/h
586 28-05-2008 21:14:02 24.1 C 9.41 g/m*3 24.1 C 0 km/h
587 28-05-2008 21:26:02 23.4 C 9.46 g/m*3 23.4 C 0 km/h
588 28-05-2008 21:38:02 23 C 9.45 g/m*3 23 C 0 km/h
589 28-05-2008 21:50:02 22.6 C 9.84 g/m*3 22.6 C 0 km/h
590 28-05-2008 22:02:03 22.4 C 9.73 g/m*3 22.4 C 0 km/h
591 28-05-2008 22:14:03 22.4 C 9.73 g/m*3 22.4 C 0 km/h
592 28-05-2008 22:27:01 22.2 C 9.62 g/m*3 22.2 C 0 km/h
593 28-05-2008 22:39:01 22 C 9.7 g/m*3 22 C 0 km/h
594 28-05-2008 22:51:01 21.8 C 9.78 g/m*3 21.8 C 0 km/h
595 28-05-2008 23:03:01 21.7 C 9.92 g/m*3 21.7 C 0 km/h
596 28-05-2008 23:15:01 21.5 C 9.81 g/m*3 21.5 C 0 km/h
597 28-05-2008 23:27:01 21.1 C 9.95 g/m*3 21.1 C 0 km/h
598 28-05-2008 23:39:01 21 C 10.26 g/m*3 21 C 0 km/h
599 28-05-2008 23:51:01 20.9 C 10.38 g/m*3 20.9 C 0 km/h
600 29-05-2008 00:03:01 20.8 C 10.32 g/m*3 20.8 C 0 km/h
Sensor: Nr:Datum:Temp:Abs-Feuchte:Windchill:Wind:
Aussen-T/F 601 29-05-2008 00:15:01 20.7 C 10.44 g/m*3 20.7 C 0 km/h
602 29-05-2008 00:27:01 20.7 C 10.62 g/m*3 20.7 C 0 km/h
603 29-05-2008 00:39:01 20.7 C 10.62 g/m*3 20.7 C 0 km/h
604 29-05-2008 00:51:02 20.4 C 10.44 g/m*3 20.4 C 0 km/h
605 29-05-2008 01:03:02 20.3 C 10.55 g/m*3 20.3 C 0 km/h
606 29-05-2008 01:15:02 20.1 C 10.43 g/m*3 20.1 C 0 km/h
607 29-05-2008 01:27:02 19.7 C 10.7 g/m*3 19.7 C 0 km/h
608 29-05-2008 01:39:02 19.5 C 10.74 g/m*3 19.5 C 0 km/h
609 29-05-2008 01:51:02 19.4 C 10.68 g/m*3 19.4 C 0 km/h
610 29-05-2008 02:03:02 19.3 C 10.62 g/m*3 19.3 C 0 km/h
611 29-05-2008 02:15:02 19.2 C 10.72 g/m*3 19.2 C 0 km/h
612 29-05-2008 02:27:02 19 C 10.76 g/m*3 19 C 0 km/h
613 29-05-2008 02:39:02 18.8 C 10.95 g/m*3 18.8 C 0 km/h
614 29-05-2008 02:51:02 18.3 C 10.79 g/m*3 18.3 C 0 km/h
615 29-05-2008 03:03:02 18.3 C 10.94 g/m*3 18.3 C 0 km/h
616 29-05-2008 03:15:02 18.3 C 11.1 g/m*3 18.3 C 0 km/h
617 29-05-2008 03:27:02 18.2 C 11.19 g/m*3 18.2 C 0 km/h
618 29-05-2008 03:39:02 18.4 C 11.17 g/m*3 18.4 C 0 km/h
619 29-05-2008 03:51:02 18.5 C 11.23 g/m*3 18.5 C 0 km/h
620 29-05-2008 04:03:02 18.6 C 11.14 g/m*3 18.6 C 0 km/h
621 29-05-2008 04:15:02 18.5 C 11.08 g/m*3 18.5 C 0 km/h
622 29-05-2008 04:27:02 18.5 C 11.23 g/m*3 18.5 C 0 km/h
623 29-05-2008 04:39:02 18.3 C 11.26 g/m*3 18.3 C 0 km/h
624 29-05-2008 04:51:03 18.1 C 11.12 g/m*3 18.1 C 0 km/h
625 29-05-2008 05:03:03 18.2 C 11.35 g/m*3 18.2 C 0 km/h
Sensor: Nr:Datum:Temp:Abs-Feuchte:Windchill:Wind:
Aussen-T/F 626 29-05-2008 05:15:03 18 C 11.21 g/m*3 18 C 0 km/h
627 29-05-2008 05:27:03 17.9 C 11.45 g/m*3 17.9 C 0 km/h
628 29-05-2008 05:39:03 17.7 C 11.47 g/m*3 17.7 C 0 km/h
629 29-05-2008 05:51:03 17.7 C 11.32 g/m*3 17.7 C 0 km/h
630 29-05-2008 06:03:03 18 C 11.52 g/m*3 18 C 0 km/h
631 29-05-2008 06:15:03 18.1 C 11.43 g/m*3 18.1 C 0 km/h
632 29-05-2008 06:27:03 18.2 C 11.5 g/m*3 18.2 C 0 km/h
633 29-05-2008 06:39:03 18.4 C 11.48 g/m*3 18.4 C 0 km/h
634 29-05-2008 06:51:03 18.7 C 11.69 g/m*3 18.7 C 0 km/h
635 29-05-2008 07:03:02 19 C 11.57 g/m*3 19 C 0 km/h
636 29-05-2008 07:15:01 19.3 C 11.44 g/m*3 19.3 C 0 km/h
637 29-05-2008 07:27:01 19.4 C 11.51 g/m*3 19.4 C 0 km/h
638 29-05-2008 07:39:01 19.7 C 11.55 g/m*3 19.7 C 0 km/h
639 29-05-2008 07:51:02 20 C 11.23 g/m*3 20 C 0 km/h
640 29-05-2008 08:03:03 20.3 C 11.43 g/m*3 20.3 C 0 km/h
641 29-05-2008 08:15:02 20.7 C 11.52 g/m*3 20.7 C 0 km/h
642 29-05-2008 08:27:02 21.1 C 11.24 g/m*3 21.1 C 0 km/h
643 29-05-2008 08:39:02 21.1 C 11.24 g/m*3 21.1 C 0 km/h
644 29-05-2008 08:51:02 21.8 C 11.51 g/m*3 21.8 C 0 km/h
645 29-05-2008 09:03:01 22.5 C 11.39 g/m*3 22.5 C 0 km/h
646 29-05-2008 09:15:02 22.6 C 11.05 g/m*3 22.6 C 0 km/h
647 29-05-2008 09:27:02 22.8 C 11.38 g/m*3 22.8 C 0 km/h
648 29-05-2008 09:39:02 23 C 11.3 g/m*3 23 C 0 km/h
649 29-05-2008 09:51:02 23.2 C 11.43 g/m*3 23.2 C 0 km/h
650 29-05-2008 10:03:02 23.8 C 11.4 g/m*3 23.8 C 0 km/h
Sensor: Nr:Datum:Temp:Abs-Feuchte:Windchill:Wind:
Aussen-T/F 651 29-05-2008 10:15:02 24.3 C 10.84 g/m*3 24.3 C 0 km/h
652 29-05-2008 10:27:02 24.5 C 10.97 g/m*3 24.5 C 0 km/h
653 29-05-2008 10:39:02 24.7 C 11.09 g/m*3 24.7 C 0 km/h
654 29-05-2008 10:51:01 24.4 C 11.13 g/m*3 24.4 C 0 km/h
655 29-05-2008 11:03:01 24.2 C 11 g/m*3 24.2 C 0 km/h
656 29-05-2008 11:15:02 23.8 C 11.19 g/m*3 23.8 C 0 km/h
657 29-05-2008 11:27:02 23.3 C 11.5 g/m*3 23.3 C 0 km/h
658 29-05-2008 11:39:01 23.7 C 11.34 g/m*3 23.7 C 0 km/h
659 29-05-2008 11:51:02 24.5 C 11.19 g/m*3 24.5 C 0 km/h
660 29-05-2008 12:03:01 25.4 C 11.06 g/m*3 25.4 C 0 km/h
661 29-05-2008 12:15:02 25.9 C 10.89 g/m*3 25.9 C 0 km/h
662 29-05-2008 12:27:02 25.4 C 10.83 g/m*3 25.4 C 0 km/h
663 29-05-2008 12:39:02 25.9 C 11.14 g/m*3 25.9 C 0 km/h
664 29-05-2008 12:51:03 25.4 C 10.83 g/m*3 25.4 C 0 km/h
665 29-05-2008 13:03:02 27.3 C 10.47 g/m*3 27.3 C 0 km/h
666 29-05-2008 13:15:02 26.2 C 10.34 g/m*3 26.2 C 0 km/h
667 29-05-2008 13:27:02 26.7 C 10.63 g/m*3 26.7 C 0 km/h
668 29-05-2008 13:39:03 26.6 C 10.82 g/m*3 26.6 C 0 km/h
669 29-05-2008 13:51:02 27.1 C 10.61 g/m*3 27.1 C 0 km/h
670 29-05-2008 14:03:02 26.7 C 10.38 g/m*3 26.7 C 0 km/h
671 29-05-2008 14:15:02 26.6 C 10.82 g/m*3 26.6 C 0 km/h
672 29-05-2008 14:27:02 27.2 C 10.67 g/m*3 27.2 C 0 km/h
673 29-05-2008 14:39:02 28.2 C 11 g/m*3 28.2 C 0 km/h
674 29-05-2008 14:51:02 29.3 C 10.8 g/m*3 29.3 C 0 km/h
675 29-05-2008 15:03:02 29.5 C 10.33 g/m*3 29.5 C 0 km/h
Sensor: Nr:Datum:Temp:Abs-Feuchte:Windchill:Wind:
Aussen-T/F 676 29-05-2008 15:15:02 30 C 10.92 g/m*3 30 C 0 km/h
677 29-05-2008 15:27:02 30.7 C 10.39 g/m*3 30.7 C 0 km/h
678 29-05-2008 15:39:02 30.9 C 10.19 g/m*3 30.9 C 0 km/h
679 29-05-2008 15:51:02 30.8 C 10.45 g/m*3 30.8 C 0 km/h
680 29-05-2008 16:03:03 30.8 C 10.76 g/m*3 30.8 C 0 km/h
681 29-05-2008 16:15:02 31.4 C 10.14 g/m*3 31.4 C 0 km/h
682 29-05-2008 16:27:02 31.4 C 10.14 g/m*3 31.4 C 0 km/h
683 29-05-2008 16:39:02 31.3 C 10.08 g/m*3 31.3 C 0 km/h
684 29-05-2008 16:51:02 31.2 C 10.67 g/m*3 31.2 C 0 km/h
685 29-05-2008 17:03:02 30.4 C 11.47 g/m*3 30.4 C 0 km/h
686 29-05-2008 17:15:28 29.2 C 12.2 g/m*3 29.2 C 0 km/h
687 29-05-2008 17:27:28 28 C 12.51 g/m*3 28 C 0 km/h
688 29-05-2008 17:39:28 27.3 C 12.82 g/m*3 27.3 C 0 km/h
689 29-05-2008 17:51:28 26.9 C 13.05 g/m*3 26.9 C 0 km/h
690 29-05-2008 18:03:28 26.2 C 12.8 g/m*3 26.2 C 0 km/h
691 29-05-2008 18:15:28 26 C 13.15 g/m*3 26 C 0 km/h
692 29-05-2008 18:27:28 25.7 C 13.41 g/m*3 25.7 C 0 km/h
693 29-05-2008 18:39:28 25.4 C 13.18 g/m*3 25.4 C 0 km/h
694 29-05-2008 18:51:28 25.6 C 13.33 g/m*3 25.6 C 0 km/h
695 29-05-2008 19:03:28 25.7 C 13.41 g/m*3 25.7 C 0 km/h
696 29-05-2008 19:15:29 24.5 C 11.19 g/m*3 24.5 C 0 km/h
697 29-05-2008 19:27:03 24.2 C 11 g/m*3 24.2 C 0 km/h
698 29-05-2008 19:39:03 24.2 C 11 g/m*3 24.2 C 0 km/h
699 29-05-2008 19:51:03 24.9 C 11.67 g/m*3 24.9 C 0 km/h
700 29-05-2008 20:03:02 25.6 C 10.71 g/m*3 25.6 C 0 km/h
Sensor: Nr:Datum:Temp:Abs-Feuchte:Windchill:Wind:
Aussen-T/F 701 29-05-2008 20:15:02 25.5 C 10.89 g/m*3 25.5 C 0 km/h
702 29-05-2008 20:27:02 24.9 C 10.99 g/m*3 24.9 C 0 km/h
703 29-05-2008 20:39:03 24.3 C 10.62 g/m*3 24.3 C 0 km/h
704 29-05-2008 20:51:02 24.1 C 10.72 g/m*3 24.1 C 0 km/h
705 29-05-2008 21:03:02 23.6 C 10.63 g/m*3 23.6 C 0 km/h
706 29-05-2008 21:15:02 23.2 C 10.6 g/m*3 23.2 C 0 km/h
707 29-05-2008 21:27:02 22.7 C 10.71 g/m*3 22.7 C 0 km/h
708 29-05-2008 21:39:02 22.4 C 10.53 g/m*3 22.4 C 0 km/h
709 29-05-2008 21:51:02 22.1 C 10.54 g/m*3 22.1 C 0 km/h
710 29-05-2008 22:03:02 21.9 C 10.61 g/m*3 21.9 C 0 km/h
711 29-05-2008 22:15:02 21.9 C 10.61 g/m*3 21.9 C 0 km/h
712 29-05-2008 22:27:02 21.7 C 10.49 g/m*3 21.7 C 0 km/h
713 29-05-2008 22:39:02 21.4 C 10.87 g/m*3 21.4 C 0 km/h
714 29-05-2008 22:52:06 21.2 C 10.93 g/m*3 21.2 C 0 km/h
715 29-05-2008 23:04:06 20.9 C 11.47 g/m*3 20.9 C 0 km/h
716 29-05-2008 23:16:07 20.7 C 11.52 g/m*3 20.7 C 0 km/h
717 29-05-2008 23:28:07 20.6 C 11.81 g/m*3 20.6 C 0 km/h
718 29-05-2008 23:40:07 20.4 C 11.85 g/m*3 20.4 C 0 km/h
719 29-05-2008 23:52:07 20.3 C 12.31 g/m*3 20.3 C 0 km/h
720 30-05-2008 00:04:07 20.1 C 11.99 g/m*3 20.1 C 0 km/h
721 30-05-2008 00:16:07 20.5 C 13.35 g/m*3 20.5 C 0 km/h
722 30-05-2008 00:28:07 20.9 C 13.84 g/m*3 20.9 C 0 km/h
723 30-05-2008 00:40:07 21.3 C 13.98 g/m*3 21.3 C 0 km/h
724 30-05-2008 00:52:07 21.6 C 14.03 g/m*3 21.6 C 0 km/h
725 30-05-2008 01:04:07 21.7 C 13.93 g/m*3 21.7 C 0 km/h
Sensor: Nr:Datum:Temp:Abs-Feuchte:Windchill:Wind:
Aussen-T/F 726 30-05-2008 01:16:07 21.6 C 13.85 g/m*3 21.6 C 0 km/h
727 30-05-2008 01:28:07 21.5 C 13.77 g/m*3 21.5 C 0 km/h
728 30-05-2008 01:40:07 21.5 C 13.58 g/m*3 21.5 C 0 km/h
729 30-05-2008 01:52:07 21.5 C 13.39 g/m*3 21.5 C 0 km/h
730 30-05-2008 02:04:07 21.4 C 13.12 g/m*3 21.4 C 0 km/h
731 30-05-2008 02:16:07 21.2 C 12.97 g/m*3 21.2 C 0 km/h
732 30-05-2008 02:28:07 21.2 C 12.97 g/m*3 21.2 C 0 km/h
733 30-05-2008 02:40:07 21 C 12.82 g/m*3 21 C 0 km/h
734 30-05-2008 02:52:07 21.1 C 12.9 g/m*3 21.1 C 0 km/h
735 30-05-2008 03:04:07 21.1 C 12.71 g/m*3 21.1 C 0 km/h
736 30-05-2008 03:16:08 21 C 12.64 g/m*3 21 C 0 km/h
737 30-05-2008 03:28:08 20.9 C 12.57 g/m*3 20.9 C 0 km/h
738 30-05-2008 03:40:08 20.7 C 12.24 g/m*3 20.7 C 0 km/h
739 30-05-2008 03:52:08 18.4 C 11.8 g/m*3 18.4 C 0 km/h
740 30-05-2008 04:04:08 17.9 C 12.67 g/m*3 17.9 C 0 km/h
741 30-05-2008 04:16:08 18.2 C 13.06 g/m*3 18.2 C 0 km/h
742 30-05-2008 04:28:08 18.5 C 13.29 g/m*3 18.5 C 0 km/h
743 30-05-2008 04:40:08 18.6 C 13.21 g/m*3 18.6 C 0 km/h
744 30-05-2008 04:52:08 18.7 C 13.13 g/m*3 18.7 C 0 km/h
745 30-05-2008 05:04:08 18.8 C 13.21 g/m*3 18.8 C 0 km/h
746 30-05-2008 05:16:08 18.7 C 12.97 g/m*3 18.7 C 0 km/h
747 30-05-2008 05:28:08 18.8 C 13.21 g/m*3 18.8 C 0 km/h
748 30-05-2008 05:40:08 18.5 C 12.97 g/m*3 18.5 C 0 km/h
749 30-05-2008 05:52:08 18.2 C 13.21 g/m*3 18.2 C 0 km/h
750 30-05-2008 06:04:08 18.1 C 13.44 g/m*3 18.1 C 0 km/h
Sensor: Nr:Datum:Temp:Abs-Feuchte:Windchill:Wind:
Aussen-T/F 751 30-05-2008 06:16:08 17.9 C 13.59 g/m*3 17.9 C 0 km/h
752 30-05-2008 06:28:08 17.9 C 13.59 g/m*3 17.9 C 0 km/h
753 30-05-2008 06:40:08 17.9 C 13.74 g/m*3 17.9 C 0 km/h
754 30-05-2008 06:52:08 17.5 C 13.42 g/m*3 17.5 C 0 km/h
755 30-05-2008 07:04:04 17.5 C 13.72 g/m*3 17.5 C 0 km/h
756 30-05-2008 07:16:03 17.7 C 13.88 g/m*3 17.7 C 0 km/h
757 30-05-2008 07:28:03 17.7 C 14.03 g/m*3 17.7 C 0 km/h
758 30-05-2008 07:40:03 17.5 C 13.72 g/m*3 17.5 C 0 km/h
759 30-05-2008 07:52:01 17.4 C 13.78 g/m*3 17.4 C 0 km/h
760 30-05-2008 08:04:02 17.3 C 13.55 g/m*3 17.3 C 0 km/h
761 30-05-2008 08:16:01 17.3 C 13.41 g/m*3 17.3 C 0 km/h
762 30-05-2008 08:28:01 17.5 C 13.42 g/m*3 17.5 C 0 km/h
763 30-05-2008 08:40:02 17.5 C 13.42 g/m*3 17.5 C 0 km/h
764 30-05-2008 08:52:02 17.5 C 13.42 g/m*3 17.5 C 0 km/h
765 30-05-2008 09:04:02 17.5 C 13.27 g/m*3 17.5 C 0 km/h
766 30-05-2008 09:16:02 17.5 C 13.27 g/m*3 17.5 C 0 km/h
767 30-05-2008 09:28:02 17.7 C 13.28 g/m*3 17.7 C 0 km/h
768 30-05-2008 09:40:02 18.2 C 13.52 g/m*3 18.2 C 0 km/h
769 30-05-2008 09:52:02 18.3 C 13.29 g/m*3 18.3 C 0 km/h
770 30-05-2008 10:04:03 18.6 C 13.53 g/m*3 18.6 C 0 km/h
771 30-05-2008 10:16:02 18.9 C 13.77 g/m*3 18.9 C 0 km/h
772 30-05-2008 10:28:03 19.3 C 13.77 g/m*3 19.3 C 0 km/h
773 30-05-2008 10:40:02 20 C 14.17 g/m*3 20 C 0 km/h
774 30-05-2008 10:52:01 20.4 C 13.8 g/m*3 20.4 C 0 km/h
775 30-05-2008 11:04:01 20.9 C 13.3 g/m*3 20.9 C 0 km/h
Sensor: Nr:Datum:Temp:Abs-Feuchte:Windchill:Wind:
Aussen-T/F 776 30-05-2008 11:16:02 21.2 C 13.34 g/m*3 21.2 C 0 km/h
777 30-05-2008 11:28:02 20.8 C 13.04 g/m*3 20.8 C 0 km/h
778 30-05-2008 11:40:01 20.9 C 13.48 g/m*3 20.9 C 0 km/h
779 30-05-2008 11:52:02 21 C 13.74 g/m*3 21 C 0 km/h
780 30-05-2008 12:04:01 20.8 C 13.22 g/m*3 20.8 C 0 km/h
781 30-05-2008 12:16:01 20.5 C 12.63 g/m*3 20.5 C 0 km/h
782 30-05-2008 12:28:01 20.8 C 13.22 g/m*3 20.8 C 0 km/h
783 30-05-2008 12:40:02 20.8 C 12.86 g/m*3 20.8 C 0 km/h
784 30-05-2008 12:52:03 21.2 C 13.16 g/m*3 21.2 C 0 km/h
785 30-05-2008 13:04:02 21.4 C 12.94 g/m*3 21.4 C 0 km/h
786 30-05-2008 13:16:02 21.6 C 13.09 g/m*3 21.6 C 0 km/h
787 30-05-2008 13:28:02 21.6 C 12.71 g/m*3 21.6 C 0 km/h
788 30-05-2008 13:40:03 21.4 C 12.56 g/m*3 21.4 C 0 km/h
789 30-05-2008 13:52:02 21.4 C 12.75 g/m*3 21.4 C 0 km/h
790 30-05-2008 14:04:02 21.5 C 12.63 g/m*3 21.5 C 0 km/h
791 30-05-2008 14:16:02 21.5 C 12.82 g/m*3 21.5 C 0 km/h
792 30-05-2008 14:28:02 21.3 C 12.68 g/m*3 21.3 C 0 km/h
793 30-05-2008 14:40:02 21.3 C 12.68 g/m*3 21.3 C 0 km/h
794 30-05-2008 14:52:02 21.6 C 13.09 g/m*3 21.6 C 0 km/h
795 30-05-2008 15:04:02 22.7 C 12.93 g/m*3 22.7 C 0 km/h
796 30-05-2008 15:16:02 23.2 C 12.27 g/m*3 23.2 C 0 km/h
797 30-05-2008 15:28:02 23.3 C 12.34 g/m*3 23.3 C 0 km/h
798 30-05-2008 15:40:02 23.5 C 12.48 g/m*3 23.5 C 0 km/h
799 30-05-2008 15:52:01 24.3 C 12.39 g/m*3 24.3 C 0 km/h
800 30-05-2008 16:04:01 24.5 C 12.31 g/m*3 24.5 C 0 km/h
Sensor: Nr:Datum:Temp:Abs-Feuchte:Windchill:Wind:
Aussen-T/F 801 30-05-2008 16:16:02 24.8 C 12.06 g/m*3 24.8 C 0 km/h
802 30-05-2008 16:28:02 24.4 C 12.02 g/m*3 24.4 C 0 km/h
803 30-05-2008 16:40:02 24.3 C 11.73 g/m*3 24.3 C 0 km/h
804 30-05-2008 16:52:02 24.1 C 11.6 g/m*3 24.1 C 0 km/h
805 30-05-2008 17:04:02 24.3 C 12.17 g/m*3 24.3 C 0 km/h
806 30-05-2008 17:16:02 24.3 C 12.17 g/m*3 24.3 C 0 km/h
807 30-05-2008 17:28:02 24.9 C 11.9 g/m*3 24.9 C 0 km/h
808 30-05-2008 17:40:02 24.1 C 11.82 g/m*3 24.1 C 0 km/h
809 30-05-2008 17:52:02 24.5 C 12.09 g/m*3 24.5 C 0 km/h
810 30-05-2008 18:04:02 25.3 C 11.94 g/m*3 25.3 C 0 km/h
811 30-05-2008 18:16:02 24.3 C 11.73 g/m*3 24.3 C 0 km/h
812 30-05-2008 18:28:03 23.7 C 12.19 g/m*3 23.7 C 0 km/h
813 30-05-2008 18:40:02 23.1 C 11.99 g/m*3 23.1 C 0 km/h
814 30-05-2008 18:52:02 22.9 C 12.26 g/m*3 22.9 C 0 km/h
815 30-05-2008 19:04:02 22.7 C 12.32 g/m*3 22.7 C 0 km/h
816 30-05-2008 19:16:02 22.4 C 12.31 g/m*3 22.4 C 0 km/h
817 30-05-2008 19:28:02 22.3 C 12.44 g/m*3 22.3 C 0 km/h
818 30-05-2008 19:40:01 22.1 C 12.49 g/m*3 22.1 C 0 km/h
819 30-05-2008 19:52:02 21.9 C 12.74 g/m*3 21.9 C 0 km/h
820 30-05-2008 20:04:20 21.2 C 13.16 g/m*3 21.2 C 0 km/h
821 30-05-2008 20:16:20 21 C 13.19 g/m*3 21 C 0 km/h
822 30-05-2008 20:28:20 20.3 C 13.37 g/m*3 20.3 C 0 km/h
823 30-05-2008 20:40:20 19.8 C 13.84 g/m*3 19.8 C 0 km/h
824 30-05-2008 20:52:01 19.3 C 13.93 g/m*3 19.3 C 0 km/h
825 30-05-2008 21:04:03 19.1 C 14.1 g/m*3 19.1 C 0 km/h
Sensor: Nr:Datum:Temp:Abs-Feuchte:Windchill:Wind:
Aussen-T/F 826 30-05-2008 21:16:03 18.9 C 14.26 g/m*3 18.9 C 0 km/h
827 30-05-2008 21:28:03 18.7 C 14.25 g/m*3 18.7 C 0 km/h
828 30-05-2008 21:40:02 18.8 C 14.49 g/m*3 18.8 C 0 km/h
829 30-05-2008 21:52:02 18.8 C 14.66 g/m*3 18.8 C 0 km/h
830 30-05-2008 22:04:01 18.4 C 14.31 g/m*3 18.4 C 0 km/h
831 30-05-2008 22:17:03 17.9 C 13.89 g/m*3 17.9 C 0 km/h
832 30-05-2008 22:29:03 17.8 C 13.96 g/m*3 17.8 C 0 km/h
833 30-05-2008 22:41:03 17.6 C 13.8 g/m*3 17.6 C 0 km/h
834 30-05-2008 22:53:04 17.8 C 14.12 g/m*3 17.8 C 0 km/h
835 30-05-2008 23:05:04 17.8 C 13.96 g/m*3 17.8 C 0 km/h
836 30-05-2008 23:17:04 17.6 C 13.8 g/m*3 17.6 C 0 km/h
837 30-05-2008 23:29:04 17.5 C 13.72 g/m*3 17.5 C 0 km/h
838 30-05-2008 23:41:04 17.5 C 13.72 g/m*3 17.5 C 0 km/h
839 30-05-2008 23:53:04 17.5 C 13.72 g/m*3 17.5 C 0 km/h
840 31-05-2008 00:05:04 17.4 C 13.49 g/m*3 17.4 C 0 km/h
841 31-05-2008 00:17:04 17.4 C 13.34 g/m*3 17.4 C 0 km/h
842 31-05-2008 00:29:04 17.5 C 13.27 g/m*3 17.5 C 0 km/h
843 31-05-2008 00:41:04 17.5 C 13.27 g/m*3 17.5 C 0 km/h
844 31-05-2008 00:53:04 17.3 C 12.96 g/m*3 17.3 C 0 km/h
845 31-05-2008 01:05:04 17.3 C 12.82 g/m*3 17.3 C 0 km/h
846 31-05-2008 01:17:04 17.1 C 12.52 g/m*3 17.1 C 0 km/h
847 31-05-2008 01:29:04 17 C 12.44 g/m*3 17 C 0 km/h
848 31-05-2008 01:41:04 17 C 12.44 g/m*3 17 C 0 km/h
849 31-05-2008 01:53:04 16.9 C 12.51 g/m*3 16.9 C 0 km/h
850 31-05-2008 02:05:04 16.8 C 12.58 g/m*3 16.8 C 0 km/h
Sensor: Nr:Datum:Temp:Abs-Feuchte:Windchill:Wind:
Aussen-T/F 851 31-05-2008 02:17:04 16.8 C 12.58 g/m*3 16.8 C 0 km/h
852 31-05-2008 02:29:04 16.8 C 12.58 g/m*3 16.8 C 0 km/h
853 31-05-2008 02:41:04 16.8 C 12.44 g/m*3 16.8 C 0 km/h
854 31-05-2008 02:53:04 16.7 C 12.36 g/m*3 16.7 C 0 km/h
855 31-05-2008 03:05:05 16.6 C 12.29 g/m*3 16.6 C 0 km/h
856 31-05-2008 03:17:05 16.7 C 12.51 g/m*3 16.7 C 0 km/h
857 31-05-2008 03:29:05 16.6 C 12.29 g/m*3 16.6 C 0 km/h
858 31-05-2008 03:41:05 16.7 C 12.22 g/m*3 16.7 C 0 km/h
859 31-05-2008 03:53:05 16.7 C 12.22 g/m*3 16.7 C 0 km/h
860 31-05-2008 04:05:05 16.8 C 12.3 g/m*3 16.8 C 0 km/h
861 31-05-2008 04:17:05 16.7 C 12.22 g/m*3 16.7 C 0 km/h
862 31-05-2008 04:29:05 16.6 C 12.15 g/m*3 16.6 C 0 km/h
863 31-05-2008 04:41:05 16.6 C 12.15 g/m*3 16.6 C 0 km/h
864 31-05-2008 04:53:05 16.6 C 12.15 g/m*3 16.6 C 0 km/h
865 31-05-2008 05:05:05 16.5 C 11.94 g/m*3 16.5 C 0 km/h
866 31-05-2008 05:17:05 16.4 C 11.86 g/m*3 16.4 C 0 km/h
867 31-05-2008 05:29:05 16.4 C 11.86 g/m*3 16.4 C 0 km/h
868 31-05-2008 05:41:05 16.3 C 11.79 g/m*3 16.3 C 0 km/h
869 31-05-2008 05:53:05 16.1 C 11.65 g/m*3 16.1 C 0 km/h
870 31-05-2008 06:05:05 16.1 C 11.79 g/m*3 16.1 C 0 km/h
871 31-05-2008 06:17:05 16.1 C 11.79 g/m*3 16.1 C 0 km/h
872 31-05-2008 06:29:05 16.2 C 11.86 g/m*3 16.2 C 0 km/h
873 31-05-2008 06:41:05 16.3 C 11.93 g/m*3 16.3 C 0 km/h
874 31-05-2008 06:53:05 16.4 C 11.86 g/m*3 16.4 C 0 km/h
875 31-05-2008 07:05:05 16.1 C 11.65 g/m*3 16.1 C 0 km/h
Sensor: Nr:Datum:Temp:Abs-Feuchte:Windchill:Wind:
Aussen-T/F 876 31-05-2008 07:17:06 16.2 C 11.72 g/m*3 16.2 C 0 km/h
877 31-05-2008 07:29:06 16.2 C 11.72 g/m*3 16.2 C 0 km/h
878 31-05-2008 07:41:03 16.2 C 11.58 g/m*3 16.2 C 0 km/h
879 31-05-2008 07:53:02 16.3 C 11.52 g/m*3 16.3 C 0 km/h
880 31-05-2008 08:05:02 16.2 C 11.45 g/m*3 16.2 C 0 km/h
881 31-05-2008 08:17:02 16 C 11.31 g/m*3 16 C 0 km/h
882 31-05-2008 08:29:02 16 C 11.31 g/m*3 16 C 0 km/h
883 31-05-2008 08:41:02 15.9 C 11.38 g/m*3 15.9 C 0 km/h
884 31-05-2008 08:53:02 15.9 C 11.38 g/m*3 15.9 C 0 km/h
885 31-05-2008 09:05:02 16.1 C 11.38 g/m*3 16.1 C 0 km/h
886 31-05-2008 09:17:03 16.1 C 11.24 g/m*3 16.1 C 0 km/h
887 31-05-2008 09:29:03 16.2 C 11.31 g/m*3 16.2 C 0 km/h
888 31-05-2008 09:41:02 16.2 C 11.17 g/m*3 16.2 C 0 km/h
889 31-05-2008 09:53:02 16.2 C 11.31 g/m*3 16.2 C 0 km/h
890 31-05-2008 10:05:02 16.1 C 11.1 g/m*3 16.1 C 0 km/h
891 31-05-2008 10:17:02 16.3 C 11.24 g/m*3 16.3 C 0 km/h
892 31-05-2008 10:29:02 16.4 C 11.17 g/m*3 16.4 C 0 km/h
893 31-05-2008 10:41:02 16.4 C 11.31 g/m*3 16.4 C 0 km/h
894 31-05-2008 10:53:02 16.6 C 11.16 g/m*3 16.6 C 0 km/h
895 31-05-2008 11:05:02 16.9 C 11.22 g/m*3 16.9 C 0 km/h
896 31-05-2008 11:17:01 16.8 C 11.15 g/m*3 16.8 C 0 km/h
897 31-05-2008 11:29:01 17 C 11.14 g/m*3 17 C 0 km/h
898 31-05-2008 11:41:02 17.6 C 11.25 g/m*3 17.6 C 0 km/h
899 31-05-2008 11:53:02 17.6 C 10.8 g/m*3 17.6 C 0 km/h
900 31-05-2008 12:05:02 17.9 C 10.99 g/m*3 17.9 C 0 km/h
Sensor: Nr:Datum:Temp:Abs-Feuchte:Windchill:Wind:
Aussen-T/F 901 31-05-2008 12:17:01 17.8 C 10.93 g/m*3 17.8 C 0 km/h
902 31-05-2008 12:29:01 17.6 C 10.95 g/m*3 17.6 C 0 km/h
903 31-05-2008 12:41:01 17.7 C 11.16 g/m*3 17.7 C 0 km/h
904 31-05-2008 12:53:01 17.9 C 10.99 g/m*3 17.9 C 0 km/h
905 31-05-2008 13:05:02 17.5 C 11.18 g/m*3 17.5 C 0 km/h
906 31-05-2008 13:17:01 17.1 C 11.5 g/m*3 17.1 C 0 km/h
907 31-05-2008 13:29:01 16.7 C 11.51 g/m*3 16.7 C 0 km/h
908 31-05-2008 13:41:01 16.6 C 11.72 g/m*3 16.6 C 0 km/h
909 31-05-2008 13:53:01 16.3 C 11.65 g/m*3 16.3 C 0 km/h
910 31-05-2008 14:05:02 16.2 C 11.86 g/m*3 16.2 C 0 km/h
911 31-05-2008 14:17:01 15.9 C 11.92 g/m*3 15.9 C 0 km/h
912 31-05-2008 14:29:02 15.7 C 11.91 g/m*3 15.7 C 0 km/h
913 31-05-2008 14:41:01 15.7 C 12.18 g/m*3 15.7 C 0 km/h
914 31-05-2008 14:53:01 15.7 C 12.18 g/m*3 15.7 C 0 km/h
915 31-05-2008 15:05:01 16.4 C 12.7 g/m*3 16.4 C 0 km/h
916 31-05-2008 15:17:01 17 C 13.17 g/m*3 17 C 0 km/h
917 31-05-2008 15:29:01 18.3 C 13.76 g/m*3 18.3 C 0 km/h
918 31-05-2008 15:41:02 18.7 C 13.77 g/m*3 18.7 C 0 km/h
919 31-05-2008 15:53:01 19.1 C 12.95 g/m*3 19.1 C 0 km/h
920 31-05-2008 16:05:02 19.1 C 12.62 g/m*3 19.1 C 0 km/h
921 31-05-2008 16:17:02 19.5 C 12.75 g/m*3 19.5 C 0 km/h
922 31-05-2008 16:29:03 20 C 12.79 g/m*3 20 C 0 km/h
923 31-05-2008 16:41:01 20 C 12.96 g/m*3 20 C 0 km/h
924 31-05-2008 16:53:01 20.4 C 13.09 g/m*3 20.4 C 0 km/h
925 31-05-2008 17:05:01 21 C 11.91 g/m*3 21 C 0 km/h
Sensor: Nr:Datum:Temp:Abs-Feuchte:Windchill:Wind:
Aussen-T/F 926 31-05-2008 17:17:02 20.7 C 11.7 g/m*3 20.7 C 0 km/h
927 31-05-2008 17:29:02 21.4 C 11.81 g/m*3 21.4 C 0 km/h
928 31-05-2008 17:41:02 21.5 C 12.07 g/m*3 21.5 C 0 km/h
929 31-05-2008 17:53:02 21.4 C 11.44 g/m*3 21.4 C 0 km/h
930 31-05-2008 18:05:02 21.5 C 11.13 g/m*3 21.5 C 0 km/h
931 31-05-2008 18:17:03 22 C 11.26 g/m*3 22 C 0 km/h
932 31-05-2008 18:29:03 22.5 C 11.78 g/m*3 22.5 C 0 km/h
933 31-05-2008 18:41:02 23.7 C 11.12 g/m*3 23.7 C 0 km/h
934 31-05-2008 18:53:02 21.9 C 11.19 g/m*3 21.9 C 0 km/h
935 31-05-2008 19:05:02 22 C 11.45 g/m*3 22 C 0 km/h
936 31-05-2008 19:17:02 22.1 C 11.52 g/m*3 22.1 C 0 km/h
937 31-05-2008 19:29:02 22.1 C 11.32 g/m*3 22.1 C 0 km/h
938 31-05-2008 19:41:02 21.5 C 11.69 g/m*3 21.5 C 0 km/h
939 31-05-2008 19:53:02 21.1 C 11.79 g/m*3 21.1 C 0 km/h
940 31-05-2008 20:05:02 20.9 C 12.2 g/m*3 20.9 C 0 km/h
941 31-05-2008 20:17:02 20.6 C 12.35 g/m*3 20.6 C 0 km/h
942 31-05-2008 20:29:02 20.2 C 12.41 g/m*3 20.2 C 0 km/h
943 31-05-2008 20:41:02 20.4 C 12.74 g/m*3 20.4 C 0 km/h
944 31-05-2008 20:53:01 19.9 C 12.37 g/m*3 19.9 C 0 km/h
945 31-05-2008 21:05:01 19.5 C 12.59 g/m*3 19.5 C 0 km/h
946 31-05-2008 21:17:02 19.1 C 12.46 g/m*3 19.1 C 0 km/h
947 31-05-2008 21:29:02 18.6 C 12.57 g/m*3 18.6 C 0 km/h
948 31-05-2008 21:41:01 18.2 C 12.43 g/m*3 18.2 C 0 km/h
949 31-05-2008 21:53:01 17.7 C 12.37 g/m*3 17.7 C 0 km/h
950 31-05-2008 22:05:02 17.5 C 12.37 g/m*3 17.5 C 0 km/h
Sensor: Nr:Datum:Temp:Abs-Feuchte:Windchill:Wind:
Aussen-T/F 951 31-05-2008 22:17:02 17.2 C 12.3 g/m*3 17.2 C 0 km/h
952 31-05-2008 22:29:02 16.9 C 12.51 g/m*3 16.9 C 0 km/h
953 31-05-2008 22:41:01 16.6 C 12.43 g/m*3 16.6 C 0 km/h
954 31-05-2008 22:54:02 16.6 C 12.43 g/m*3 16.6 C 0 km/h
955 31-05-2008 23:06:02 16.5 C 12.22 g/m*3 16.5 C 0 km/h
956 31-05-2008 23:18:02 16.2 C 11.72 g/m*3 16.2 C 0 km/h
957 31-05-2008 23:30:02 16 C 11.44 g/m*3 16 C 0 km/h
958 31-05-2008 23:42:02 15.9 C 11.51 g/m*3 15.9 C 0 km/h
959 31-05-2008 23:54:02 15.8 C 11.44 g/m*3 15.8 C 0 km/h
960 01-06-2008 00:06:02 15.6 C 11.3 g/m*3 15.6 C 0 km/h
961 01-06-2008 00:18:03 15.5 C 11.37 g/m*3 15.5 C 0 km/h
962 01-06-2008 00:30:03 15.3 C 11.1 g/m*3 15.3 C 0 km/h
963 01-06-2008 00:42:03 15 C 11.03 g/m*3 15 C 0 km/h
964 01-06-2008 00:54:03 14.8 C 11.02 g/m*3 14.8 C 0 km/h
965 01-06-2008 01:06:03 14.7 C 11.08 g/m*3 14.7 C 0 km/h
966 01-06-2008 01:18:03 14.6 C 11.01 g/m*3 14.6 C 0 km/h
967 01-06-2008 01:30:03 14.5 C 10.94 g/m*3 14.5 C 0 km/h
968 01-06-2008 01:42:03 14.7 C 11.21 g/m*3 14.7 C 0 km/h
969 01-06-2008 01:54:03 14.6 C 11.14 g/m*3 14.6 C 0 km/h
970 01-06-2008 02:06:03 14.6 C 11.14 g/m*3 14.6 C 0 km/h
971 01-06-2008 02:18:03 14.9 C 11.34 g/m*3 14.9 C 0 km/h
972 01-06-2008 02:30:03 15.1 C 11.35 g/m*3 15.1 C 0 km/h
973 01-06-2008 02:42:03 15.3 C 11.49 g/m*3 15.3 C 0 km/h
974 01-06-2008 02:54:03 15.4 C 11.56 g/m*3 15.4 C 0 km/h
975 01-06-2008 03:06:03 15.4 C 11.56 g/m*3 15.4 C 0 km/h
Sensor: Nr:Datum:Temp:Abs-Feuchte:Windchill:Wind:
Aussen-T/F 976 01-06-2008 03:18:03 15.5 C 11.5 g/m*3 15.5 C 0 km/h
977 01-06-2008 03:30:03 15.6 C 11.57 g/m*3 15.6 C 0 km/h
978 01-06-2008 03:42:03 15.5 C 11.5 g/m*3 15.5 C 0 km/h
979 01-06-2008 03:54:03 15.5 C 11.5 g/m*3 15.5 C 0 km/h
980 01-06-2008 04:06:04 15 C 11.16 g/m*3 15 C 0 km/h
981 01-06-2008 04:18:04 14.7 C 11.08 g/m*3 14.7 C 0 km/h
982 01-06-2008 04:30:04 14.6 C 11.14 g/m*3 14.6 C 0 km/h
983 01-06-2008 04:42:04 14.6 C 11.14 g/m*3 14.6 C 0 km/h
984 01-06-2008 04:54:04 14.2 C 10.87 g/m*3 14.2 C 0 km/h
985 01-06-2008 05:06:04 14.1 C 10.92 g/m*3 14.1 C 0 km/h
986 01-06-2008 05:18:04 14.7 C 11.46 g/m*3 14.7 C 0 km/h
987 01-06-2008 05:30:04 14.8 C 11.53 g/m*3 14.8 C 0 km/h
988 01-06-2008 05:42:04 14.5 C 11.32 g/m*3 14.5 C 0 km/h
989 01-06-2008 05:54:04 14.4 C 11.13 g/m*3 14.4 C 0 km/h
990 01-06-2008 06:06:04 14.2 C 10.99 g/m*3 14.2 C 0 km/h
991 01-06-2008 06:18:04 14.6 C 11.39 g/m*3 14.6 C 0 km/h
992 01-06-2008 06:30:04 14.8 C 11.53 g/m*3 14.8 C 0 km/h
993 01-06-2008 06:42:04 15.2 C 11.81 g/m*3 15.2 C 0 km/h
994 01-06-2008 06:54:04 15.5 C 12.03 g/m*3 15.5 C 0 km/h
995 01-06-2008 07:06:04 15.9 C 12.32 g/m*3 15.9 C 0 km/h
996 01-06-2008 07:18:04 15.9 C 11.92 g/m*3 15.9 C 0 km/h
997 01-06-2008 07:30:04 16.2 C 11.86 g/m*3 16.2 C 0 km/h
998 01-06-2008 07:42:04 16.7 C 11.94 g/m*3 16.7 C 0 km/h
999 01-06-2008 07:54:04 16.8 C 11.72 g/m*3 16.8 C 0 km/h
1000 01-06-2008 08:06:05 17.1 C 11.5 g/m*3 17.1 C 0 km/h
Sensor: Nr:Datum:Temp:Abs-Feuchte:Windchill:Wind:
Aussen-T/F 1001 01-06-2008 08:18:05 17.4 C 11.26 g/m*3 17.4 C 0 km/h
1002 01-06-2008 08:30:05 17.4 C 11.12 g/m*3 17.4 C 0 km/h
1003 01-06-2008 08:42:03 17.5 C 11.33 g/m*3 17.5 C 0 km/h
1004 01-06-2008 08:54:03 17.9 C 10.99 g/m*3 17.9 C 0 km/h
1005 01-06-2008 09:06:02 18.2 C 11.04 g/m*3 18.2 C 0 km/h
1006 01-06-2008 09:18:02 18.5 C 10.76 g/m*3 18.5 C 0 km/h
1007 01-06-2008 09:30:02 19 C 10.92 g/m*3 19 C 0 km/h
1008 01-06-2008 09:42:03 19.2 C 10.88 g/m*3 19.2 C 0 km/h
1009 01-06-2008 09:54:03 19.6 C 10.8 g/m*3 19.6 C 0 km/h
1010 01-06-2008 10:06:02 20.3 C 10.55 g/m*3 20.3 C 0 km/h
1011 01-06-2008 10:18:02 20.5 C 10.32 g/m*3 20.5 C 0 km/h
1012 01-06-2008 10:30:02 20.8 C 10.5 g/m*3 20.8 C 0 km/h
1013 01-06-2008 10:42:03 20.8 C 10.32 g/m*3 20.8 C 0 km/h
1014 01-06-2008 10:54:02 21.3 C 10.81 g/m*3 21.3 C 0 km/h
1015 01-06-2008 11:06:02 22 C 10.48 g/m*3 22 C 0 km/h
1016 01-06-2008 11:18:02 22.5 C 10.59 g/m*3 22.5 C 0 km/h
1017 01-06-2008 11:30:02 23.6 C 10.63 g/m*3 23.6 C 0 km/h
1018 01-06-2008 11:42:02 23.6 C 10.42 g/m*3 23.6 C 0 km/h
1019 01-06-2008 11:54:01 23.8 C 10.33 g/m*3 23.8 C 0 km/h
1020 01-06-2008 12:06:01 25.4 C 9.89 g/m*3 25.4 C 0 km/h
1021 01-06-2008 12:18:02 26 C 9.25 g/m*3 26 C 0 km/h
1022 01-06-2008 12:30:02 26 C 9.25 g/m*3 26 C 0 km/h
1023 01-06-2008 12:42:02 26.7 C 9.62 g/m*3 26.7 C 0 km/h
1024 01-06-2008 12:54:02 26.4 C 8.96 g/m*3 26.4 C 0 km/h
1025 01-06-2008 13:06:02 27.5 C 9.26 g/m*3 27.5 C 0 km/h
Sensor: Nr:Datum:Temp:Abs-Feuchte:Windchill:Wind:
Aussen-T/F 1026 01-06-2008 13:18:02 27.2 C 8.59 g/m*3 27.2 C 0 km/h
1027 01-06-2008 13:30:02 28 C 8.43 g/m*3 28 C 0 km/h
1028 01-06-2008 13:42:02 27.9 C 8.65 g/m*3 27.9 C 0 km/h
1029 01-06-2008 13:54:02 28.6 C 8.43 g/m*3 28.6 C 0 km/h
1030 01-06-2008 14:06:02 28 C 8.7 g/m*3 28 C 0 km/h
1031 01-06-2008 14:18:02 27.3 C 9.16 g/m*3 27.3 C 0 km/h
1032 01-06-2008 14:30:02 28.3 C 9.4 g/m*3 28.3 C 0 km/h
1033 01-06-2008 14:42:01 28.4 C 9.17 g/m*3 28.4 C 0 km/h
1034 01-06-2008 14:54:01 29 C 8.9 g/m*3 29 C 0 km/h
1035 01-06-2008 15:06:02 28 C 8.7 g/m*3 28 C 0 km/h
1036 01-06-2008 15:18:02 29.3 C 9.63 g/m*3 29.3 C 0 km/h
1037 01-06-2008 15:30:02 29.3 C 9.05 g/m*3 29.3 C 0 km/h
1038 01-06-2008 15:42:02 30.1 C 9.15 g/m*3 30.1 C 0 km/h
1039 01-06-2008 15:54:02 29.2 C 9.29 g/m*3 29.2 C 0 km/h
1040 01-06-2008 16:06:02 28.9 C 9.43 g/m*3 28.9 C 0 km/h
1041 01-06-2008 16:18:02 28.8 C 9.38 g/m*3 28.8 C 0 km/h
1042 01-06-2008 16:30:02 29.3 C 9.05 g/m*3 29.3 C 0 km/h
1043 01-06-2008 16:42:02 30.1 C 9.15 g/m*3 30.1 C 0 km/h
1044 01-06-2008 16:54:02 29.6 C 9.2 g/m*3 29.6 C 0 km/h
1045 01-06-2008 17:06:02 28.7 C 9.32 g/m*3 28.7 C 0 km/h
1046 01-06-2008 17:18:03 28.4 C 10.01 g/m*3 28.4 C 0 km/h
1047 01-06-2008 17:30:03 28.7 C 11.3 g/m*3 28.7 C 0 km/h
1048 01-06-2008 17:42:03 28.6 C 10.68 g/m*3 28.6 C 0 km/h
1049 01-06-2008 17:54:02 28.4 C 11.12 g/m*3 28.4 C 0 km/h
1050 01-06-2008 18:06:03 28.4 C 11.4 g/m*3 28.4 C 0 km/h
Sensor: Nr:Datum:Temp:Abs-Feuchte:Windchill:Wind:
Aussen-T/F 1051 01-06-2008 18:18:03 28 C 11.42 g/m*3 28 C 0 km/h
1052 01-06-2008 18:30:03 27.6 C 10.91 g/m*3 27.6 C 0 km/h
1053 01-06-2008 18:42:02 26.8 C 11.45 g/m*3 26.8 C 0 km/h
1054 01-06-2008 18:54:02 26.4 C 11.7 g/m*3 26.4 C 0 km/h
1055 01-06-2008 19:06:02 25.8 C 12.04 g/m*3 25.8 C 0 km/h
1056 01-06-2008 19:18:02 26.4 C 11.7 g/m*3 26.4 C 0 km/h
1057 01-06-2008 19:30:02 26.2 C 12.06 g/m*3 26.2 C 0 km/h
1058 01-06-2008 19:42:01 25.7 C 11.73 g/m*3 25.7 C 0 km/h
1059 01-06-2008 19:54:02 25.5 C 11.36 g/m*3 25.5 C 0 km/h
1060 01-06-2008 20:06:02 25 C 10.82 g/m*3 25 C 0 km/h
1061 01-06-2008 20:18:02 24.7 C 11.32 g/m*3 24.7 C 0 km/h
1062 01-06-2008 20:30:02 24.2 C 11.22 g/m*3 24.2 C 0 km/h
1063 01-06-2008 20:42:02 23.7 C 11.12 g/m*3 23.7 C 0 km/h
1064 01-06-2008 20:54:02 23.5 C 11.21 g/m*3 23.5 C 0 km/h
1065 01-06-2008 21:06:02 23.2 C 11.23 g/m*3 23.2 C 0 km/h
1066 01-06-2008 21:18:01 22.9 C 11.44 g/m*3 22.9 C 0 km/h
1067 01-06-2008 21:30:01 22.7 C 11.72 g/m*3 22.7 C 0 km/h
1068 01-06-2008 21:42:02 22.5 C 11.98 g/m*3 22.5 C 0 km/h
1069 01-06-2008 21:54:02 22.3 C 12.05 g/m*3 22.3 C 0 km/h
1070 01-06-2008 22:06:01 21.9 C 12.16 g/m*3 21.9 C 0 km/h
1071 01-06-2008 22:18:01 21.7 C 12.21 g/m*3 21.7 C 0 km/h
1072 01-06-2008 22:30:01 21.7 C 12.21 g/m*3 21.7 C 0 km/h
1073 01-06-2008 22:43:02 21.6 C 12.14 g/m*3 21.6 C 0 km/h
1074 01-06-2008 22:55:02 21.5 C 12.07 g/m*3 21.5 C 0 km/h
1075 01-06-2008 23:07:02 21.4 C 12.19 g/m*3 21.4 C 0 km/h
Sensor: Nr:Datum:Temp:Abs-Feuchte:Windchill:Wind:
Aussen-T/F 1076 01-06-2008 23:19:02 21.3 C 11.93 g/m*3 21.3 C 0 km/h
1077 01-06-2008 23:31:02 21.2 C 12.05 g/m*3 21.2 C 0 km/h
1078 01-06-2008 23:43:02 21.2 C 12.05 g/m*3 21.2 C 0 km/h
1079 01-06-2008 23:55:02 21.1 C 11.79 g/m*3 21.1 C 0 km/h
1080 02-06-2008 00:07:02 20.9 C 11.66 g/m*3 20.9 C 0 km/h
1081 02-06-2008 00:19:02 20.8 C 11.77 g/m*3 20.8 C 0 km/h
1082 02-06-2008 00:31:02 20.6 C 11.63 g/m*3 20.6 C 0 km/h
1083 02-06-2008 00:43:02 20.6 C 11.81 g/m*3 20.6 C 0 km/h
1084 02-06-2008 00:55:02 20.5 C 11.74 g/m*3 20.5 C 0 km/h
1085 02-06-2008 01:07:02 20.4 C 11.85 g/m*3 20.4 C 0 km/h
1086 02-06-2008 01:19:02 20.2 C 11.89 g/m*3 20.2 C 0 km/h
1087 02-06-2008 01:31:02 20.1 C 11.99 g/m*3 20.1 C 0 km/h
1088 02-06-2008 01:43:02 19.9 C 12.37 g/m*3 19.9 C 0 km/h
1089 02-06-2008 01:55:03 19.8 C 12.3 g/m*3 19.8 C 0 km/h
1090 02-06-2008 02:07:03 19.7 C 12.23 g/m*3 19.7 C 0 km/h
1091 02-06-2008 02:19:03 19.6 C 12.15 g/m*3 19.6 C 0 km/h
1092 02-06-2008 02:31:03 19.7 C 12.4 g/m*3 19.7 C 0 km/h
1093 02-06-2008 02:43:03 19.5 C 12.25 g/m*3 19.5 C 0 km/h
1094 02-06-2008 02:55:03 19.4 C 12.35 g/m*3 19.4 C 0 km/h
1095 02-06-2008 03:07:03 19.2 C 12.2 g/m*3 19.2 C 0 km/h
1096 02-06-2008 03:19:03 19.1 C 12.13 g/m*3 19.1 C 0 km/h
1097 02-06-2008 03:31:03 19.1 C 12.13 g/m*3 19.1 C 0 km/h
1098 02-06-2008 03:43:03 18.9 C 12.15 g/m*3 18.9 C 0 km/h
1099 02-06-2008 03:55:03 18.6 C 12.1 g/m*3 18.6 C 0 km/h
1100 02-06-2008 04:07:03 18.3 C 11.88 g/m*3 18.3 C 0 km/h
Sensor: Nr:Datum:Temp:Abs-Feuchte:Windchill:Wind:
Aussen-T/F 1101 02-06-2008 04:19:03 18.1 C 12.05 g/m*3 18.1 C 0 km/h
1102 02-06-2008 04:31:03 18 C 12.13 g/m*3 18 C 0 km/h
1103 02-06-2008 04:43:03 17.8 C 12.14 g/m*3 17.8 C 0 km/h
1104 02-06-2008 04:55:03 17.7 C 12.22 g/m*3 17.7 C 0 km/h
1105 02-06-2008 05:07:03 17.6 C 12.15 g/m*3 17.6 C 0 km/h
1106 02-06-2008 05:19:03 17.5 C 12.23 g/m*3 17.5 C 0 km/h
1107 02-06-2008 05:31:03 17.5 C 12.37 g/m*3 17.5 C 0 km/h
1108 02-06-2008 05:43:04 17.4 C 12.3 g/m*3 17.4 C 0 km/h
1109 02-06-2008 05:55:04 17.4 C 12.3 g/m*3 17.4 C 0 km/h
1110 02-06-2008 06:07:04 17.4 C 12.3 g/m*3 17.4 C 0 km/h
1111 02-06-2008 06:19:04 17.5 C 12.37 g/m*3 17.5 C 0 km/h
1112 02-06-2008 06:31:04 17.6 C 12.45 g/m*3 17.6 C 0 km/h
1113 02-06-2008 06:43:04 17.7 C 12.52 g/m*3 17.7 C 0 km/h
1114 02-06-2008 06:55:04 17.7 C 12.37 g/m*3 17.7 C 0 km/h
1115 02-06-2008 07:07:02 17.6 C 12.3 g/m*3 17.6 C 0 km/h
1116 02-06-2008 07:19:01 17.7 C 12.37 g/m*3 17.7 C 0 km/h
1117 02-06-2008 07:31:02 18 C 12.44 g/m*3 18 C 0 km/h
1118 02-06-2008 07:43:02 18.3 C 12.66 g/m*3 18.3 C 0 km/h
1119 02-06-2008 07:55:02 18.6 C 12.89 g/m*3 18.6 C 0 km/h
1120 02-06-2008 08:07:02 18.9 C 12.96 g/m*3 18.9 C 0 km/h
1121 02-06-2008 08:19:01 19.3 C 12.77 g/m*3 19.3 C 0 km/h
1122 02-06-2008 08:31:02 19.6 C 12.83 g/m*3 19.6 C 0 km/h
1123 02-06-2008 08:43:02 19.8 C 12.81 g/m*3 19.8 C 0 km/h
1124 02-06-2008 08:55:02 20.3 C 12.84 g/m*3 20.3 C 0 km/h
1125 02-06-2008 09:07:02 20.8 C 13.04 g/m*3 20.8 C 0 km/h
Sensor: Nr:Datum:Temp:Abs-Feuchte:Windchill:Wind:
Aussen-T/F 1126 02-06-2008 09:19:02 21.3 C 12.86 g/m*3 21.3 C 0 km/h
1127 02-06-2008 09:31:02 22 C 13 g/m*3 22 C 0 km/h
1128 02-06-2008 09:43:02 22.3 C 12.83 g/m*3 22.3 C 0 km/h
1129 02-06-2008 09:55:01 22.8 C 12.8 g/m*3 22.8 C 0 km/h
1130 02-06-2008 10:07:02 23.4 C 11.78 g/m*3 23.4 C 0 km/h
1131 02-06-2008 10:19:02 24 C 12.18 g/m*3 24 C 0 km/h
1132 02-06-2008 10:31:01 24.5 C 11.64 g/m*3 24.5 C 0 km/h
1133 02-06-2008 10:43:01 24.5 C 11.19 g/m*3 24.5 C 0 km/h
1134 02-06-2008 10:55:01 25.4 C 11.06 g/m*3 25.4 C 0 km/h
1135 02-06-2008 11:07:02 26.1 C 11.02 g/m*3 26.1 C 0 km/h
1136 02-06-2008 11:19:01 26.3 C 10.89 g/m*3 26.3 C 0 km/h
1137 02-06-2008 11:31:01 26.8 C 11.2 g/m*3 26.8 C 0 km/h
1138 02-06-2008 11:43:01 27.7 C 10.97 g/m*3 27.7 C 0 km/h
1139 02-06-2008 11:55:01 28.8 C 11.36 g/m*3 28.8 C 0 km/h
1140 02-06-2008 12:07:02 29.3 C 10.8 g/m*3 29.3 C 0 km/h
1141 02-06-2008 12:19:01 30 C 10.92 g/m*3 30 C 0 km/h
1142 02-06-2008 12:31:02 30.4 C 10.85 g/m*3 30.4 C 0 km/h
1143 02-06-2008 12:43:02 30.9 C 10.5 g/m*3 30.9 C 0 km/h
1144 02-06-2008 12:55:03 31.5 C 9.53 g/m*3 31.5 C 0 km/h
1145 02-06-2008 13:07:02 31.4 C 9.81 g/m*3 31.4 C 0 km/h
1146 02-06-2008 13:19:02 31.5 C 9.86 g/m*3 31.5 C 0 km/h
1147 02-06-2008 13:31:03 31.8 C 9.35 g/m*3 31.8 C 0 km/h
1148 02-06-2008 13:43:03 32.4 C 8.62 g/m*3 32.4 C 0 km/h
1149 02-06-2008 13:55:02 32.5 C 8.32 g/m*3 32.5 C 0 km/h
1150 02-06-2008 14:07:02 32.2 C 8.87 g/m*3 32.2 C 0 km/h
Sensor: Nr:Datum:Temp:Abs-Feuchte:Windchill:Wind:
Aussen-T/F 1151 02-06-2008 14:19:02 31.9 C 8.73 g/m*3 31.9 C 0 km/h
1152 02-06-2008 14:31:02 31.6 C 9.58 g/m*3 31.6 C 0 km/h
1153 02-06-2008 14:43:02 32.1 C 8.15 g/m*3 32.1 C 0 km/h
1154 02-06-2008 14:55:02 32.4 C 7.93 g/m*3 32.4 C 0 km/h
1155 02-06-2008 15:07:02 32.5 C 8.32 g/m*3 32.5 C 0 km/h
1156 02-06-2008 15:19:02 32.3 C 8.23 g/m*3 32.3 C 0 km/h
1157 02-06-2008 15:31:01 32.2 C 8.53 g/m*3 32.2 C 0 km/h
1158 02-06-2008 15:43:01 32.7 C 7.71 g/m*3 32.7 C 0 km/h
1159 02-06-2008 15:55:01 32.5 C 7.63 g/m*3 32.5 C 0 km/h
1160 02-06-2008 16:07:02 32.1 C 7.81 g/m*3 32.1 C 0 km/h
1161 02-06-2008 16:19:02 31.2 C 9.7 g/m*3 31.2 C 0 km/h
1162 02-06-2008 16:31:01 30.4 C 10.85 g/m*3 30.4 C 0 km/h
1163 02-06-2008 16:43:01 29.9 C 11.16 g/m*3 29.9 C 0 km/h
1164 02-06-2008 16:55:02 29 C 11.78 g/m*3 29 C 0 km/h
1165 02-06-2008 17:07:02 28.7 C 11.87 g/m*3 28.7 C 0 km/h
1166 02-06-2008 17:19:02 28.7 C 12.43 g/m*3 28.7 C 0 km/h
1167 02-06-2008 17:31:01 28.4 C 12.23 g/m*3 28.4 C 0 km/h
1168 02-06-2008 17:43:01 28.7 C 12.72 g/m*3 28.7 C 0 km/h
1169 02-06-2008 17:55:02 28.7 C 12.43 g/m*3 28.7 C 0 km/h
1170 02-06-2008 18:07:02 28.6 C 12.65 g/m*3 28.6 C 0 km/h
1171 02-06-2008 18:19:02 28.3 C 12.44 g/m*3 28.3 C 0 km/h
1172 02-06-2008 18:31:02 28 C 11.97 g/m*3 28 C 0 km/h
1173 02-06-2008 18:43:02 28 C 11.15 g/m*3 28 C 0 km/h
1174 02-06-2008 18:55:02 27.7 C 11.23 g/m*3 27.7 C 0 km/h
1175 02-06-2008 19:07:02 27.1 C 11.13 g/m*3 27.1 C 0 km/h
Sensor: Nr:Datum:Temp:Abs-Feuchte:Windchill:Wind:
Aussen-T/F 1176 02-06-2008 19:19:02 26.5 C 11.01 g/m*3 26.5 C 0 km/h
1177 02-06-2008 19:31:02 26.3 C 11.14 g/m*3 26.3 C 0 km/h
1178 02-06-2008 19:43:02 25.9 C 11.86 g/m*3 25.9 C 0 km/h
1179 02-06-2008 19:55:02 23.7 C 13.48 g/m*3 23.7 C 0 km/h
1180 02-06-2008 20:07:03 22.7 C 14.55 g/m*3 22.7 C 0 km/h
1181 02-06-2008 20:19:02 22.1 C 14.84 g/m*3 22.1 C 0 km/h
1182 02-06-2008 20:31:02 21.7 C 14.31 g/m*3 21.7 C 0 km/h
1183 02-06-2008 20:43:02 21.3 C 14.73 g/m*3 21.3 C 0 km/h
1184 02-06-2008 20:55:02 21.5 C 14.52 g/m*3 21.5 C 0 km/h
1185 02-06-2008 21:07:03 21.7 C 14.12 g/m*3 21.7 C 0 km/h
1186 02-06-2008 21:19:03 21.5 C 13.77 g/m*3 21.5 C 0 km/h
1187 02-06-2008 21:31:03 21.5 C 13.95 g/m*3 21.5 C 0 km/h
1188 02-06-2008 21:43:03 21.4 C 14.06 g/m*3 21.4 C 0 km/h
1189 02-06-2008 21:55:02 21.1 C 14.19 g/m*3 21.1 C 0 km/h
1190 02-06-2008 22:07:02 21.2 C 14.08 g/m*3 21.2 C 0 km/h
1191 02-06-2008 22:20:02 21.2 C 13.9 g/m*3 21.2 C 0 km/h
1192 02-06-2008 22:32:02 21.3 C 13.79 g/m*3 21.3 C 0 km/h
1193 02-06-2008 22:44:02 21.4 C 13.5 g/m*3 21.4 C 0 km/h
1194 02-06-2008 22:56:02 21.4 C 13.31 g/m*3 21.4 C 0 km/h
1195 02-06-2008 23:08:02 21 C 13.37 g/m*3 21 C 0 km/h
1196 02-06-2008 23:20:02 20.4 C 13.8 g/m*3 20.4 C 0 km/h
1197 02-06-2008 23:32:02 19.8 C 14.01 g/m*3 19.8 C 0 km/h
1198 02-06-2008 23:44:02 19.7 C 14.09 g/m*3 19.7 C 0 km/h
1199 02-06-2008 23:56:02 19.7 C 14.09 g/m*3 19.7 C 0 km/h
1200 03-06-2008 00:08:02 19.7 C 13.75 g/m*3 19.7 C 0 km/h
Sensor: Nr:Datum:Temp:Abs-Feuchte:Windchill:Wind:
Aussen-T/F 1201 03-06-2008 00:20:02 19.3 C 13.44 g/m*3 19.3 C 0 km/h
1202 03-06-2008 00:32:02 18.9 C 13.77 g/m*3 18.9 C 0 km/h
1203 03-06-2008 00:44:03 18.3 C 13.45 g/m*3 18.3 C 0 km/h
1204 03-06-2008 00:56:03 18.4 C 13.84 g/m*3 18.4 C 0 km/h
1205 03-06-2008 01:08:03 18.2 C 13.83 g/m*3 18.2 C 0 km/h
1206 03-06-2008 01:20:03 18.1 C 13.75 g/m*3 18.1 C 0 km/h
1207 03-06-2008 01:32:03 18 C 13.67 g/m*3 18 C 0 km/h
1208 03-06-2008 01:44:03 18 C 13.82 g/m*3 18 C 0 km/h
1209 03-06-2008 01:56:03 17.9 C 14.05 g/m*3 17.9 C 0 km/h
1210 03-06-2008 02:08:03 17.9 C 14.05 g/m*3 17.9 C 0 km/h
1211 03-06-2008 02:20:03 18 C 14.13 g/m*3 18 C 0 km/h
1212 03-06-2008 02:32:03 18 C 14.13 g/m*3 18 C 0 km/h
1213 03-06-2008 02:44:03 17.9 C 14.2 g/m*3 17.9 C 0 km/h
1214 03-06-2008 02:56:03 17.8 C 14.27 g/m*3 17.8 C 0 km/h
1215 03-06-2008 03:08:03 17.7 C 14.18 g/m*3 17.7 C 0 km/h
1216 03-06-2008 03:20:03 17.4 C 13.93 g/m*3 17.4 C 0 km/h
1217 03-06-2008 03:32:03 17.2 C 13.77 g/m*3 17.2 C 0 km/h
1218 03-06-2008 03:44:03 17 C 13.6 g/m*3 17 C 0 km/h
1219 03-06-2008 03:56:03 16.9 C 13.52 g/m*3 16.9 C 0 km/h
1220 03-06-2008 04:08:03 16.8 C 13.3 g/m*3 16.8 C 0 km/h
1221 03-06-2008 04:20:03 16.6 C 13.14 g/m*3 16.6 C 0 km/h
1222 03-06-2008 04:32:04 16.6 C 13 g/m*3 16.6 C 0 km/h
1223 03-06-2008 04:44:04 16.7 C 13.07 g/m*3 16.7 C 0 km/h
1224 03-06-2008 04:56:04 16.8 C 13.01 g/m*3 16.8 C 0 km/h
1225 03-06-2008 05:08:04 16.8 C 12.87 g/m*3 16.8 C 0 km/h
Sensor: Nr:Datum:Temp:Abs-Feuchte:Windchill:Wind:
Aussen-T/F 1226 03-06-2008 05:20:04 16.8 C 12.72 g/m*3 16.8 C 0 km/h
1227 03-06-2008 05:32:04 16.8 C 12.58 g/m*3 16.8 C 0 km/h
1228 03-06-2008 05:44:04 16.8 C 12.58 g/m*3 16.8 C 0 km/h
1229 03-06-2008 05:56:04 16.8 C 12.58 g/m*3 16.8 C 0 km/h
1230 03-06-2008 06:08:04 16.8 C 12.72 g/m*3 16.8 C 0 km/h
1231 03-06-2008 06:20:04 16.9 C 12.94 g/m*3 16.9 C 0 km/h
1232 03-06-2008 06:32:04 16.9 C 12.8 g/m*3 16.9 C 0 km/h
1233 03-06-2008 06:44:04 17 C 12.59 g/m*3 17 C 0 km/h
1234 03-06-2008 06:56:04 17 C 12.44 g/m*3 17 C 0 km/h
1235 03-06-2008 07:08:03 17.1 C 12.37 g/m*3 17.1 C 0 km/h
1236 03-06-2008 07:20:03 17.9 C 12.98 g/m*3 17.9 C 0 km/h
1237 03-06-2008 07:32:03 17.6 C 12.9 g/m*3 17.6 C 0 km/h
1238 03-06-2008 07:44:03 17.5 C 12.67 g/m*3 17.5 C 0 km/h
1239 03-06-2008 07:56:02 17.8 C 12.6 g/m*3 17.8 C 0 km/h
1240 03-06-2008 08:08:01 18 C 12.13 g/m*3 18 C 0 km/h
1241 03-06-2008 08:20:02 18.1 C 12.21 g/m*3 18.1 C 0 km/h
1242 03-06-2008 08:32:02 18.2 C 12.12 g/m*3 18.2 C 0 km/h
1243 03-06-2008 08:44:02 18.2 C 11.5 g/m*3 18.2 C 0 km/h
1244 03-06-2008 08:56:02 18.6 C 11.46 g/m*3 18.6 C 0 km/h
1245 03-06-2008 09:08:02 18.6 C 11.14 g/m*3 18.6 C 0 km/h
1246 03-06-2008 09:20:01 18.7 C 11.37 g/m*3 18.7 C 0 km/h
1247 03-06-2008 09:32:02 18.5 C 11.39 g/m*3 18.5 C 0 km/h
1248 03-06-2008 09:44:02 18.6 C 11.14 g/m*3 18.6 C 0 km/h
1249 03-06-2008 09:56:01 19.2 C 11.05 g/m*3 19.2 C 0 km/h
1250 03-06-2008 10:08:02 19.6 C 10.97 g/m*3 19.6 C 0 km/h
Sensor: Nr:Datum:Temp:Abs-Feuchte:Windchill:Wind:
Aussen-T/F 1251 03-06-2008 10:20:01 20.3 C 10.73 g/m*3 20.3 C 0 km/h
1252 03-06-2008 10:32:01 20.8 C 10.32 g/m*3 20.8 C 0 km/h
1253 03-06-2008 10:44:01 20.5 C 9.96 g/m*3 20.5 C 0 km/h
1254 03-06-2008 10:56:02 20.9 C 10.02 g/m*3 20.9 C 0 km/h
1255 03-06-2008 11:08:03 21 C 9.53 g/m*3 21 C 0 km/h
1256 03-06-2008 11:20:02 21.6 C 9.67 g/m*3 21.6 C 0 km/h
1257 03-06-2008 11:32:02 21.7 C 9.73 g/m*3 21.7 C 0 km/h
1258 03-06-2008 11:44:02 22.2 C 9.42 g/m*3 22.2 C 0 km/h
1259 03-06-2008 11:56:01 21.8 C 9.98 g/m*3 21.8 C 0 km/h
1260 03-06-2008 12:08:02 22.1 C 9.37 g/m*3 22.1 C 0 km/h
1261 03-06-2008 12:20:01 22.5 C 9.39 g/m*3 22.5 C 0 km/h
1262 03-06-2008 12:32:01 23.2 C 9.15 g/m*3 23.2 C 0 km/h
1263 03-06-2008 12:44:01 23.8 C 8.82 g/m*3 23.8 C 0 km/h
1264 03-06-2008 12:56:01 23.5 C 8.88 g/m*3 23.5 C 0 km/h
1265 03-06-2008 13:08:01 24.2 C 9.02 g/m*3 24.2 C 0 km/h
1266 03-06-2008 13:20:02 24.1 C 8.75 g/m*3 24.1 C 0 km/h
1267 03-06-2008 13:32:01 24 C 8.7 g/m*3 24 C 0 km/h
1268 03-06-2008 13:44:01 24.1 C 8.31 g/m*3 24.1 C 0 km/h
1269 03-06-2008 13:56:02 25.1 C 8.57 g/m*3 25.1 C 0 km/h
1270 03-06-2008 14:08:02 24.5 C 8.95 g/m*3 24.5 C 0 km/h
1271 03-06-2008 14:20:01 24.4 C 8.9 g/m*3 24.4 C 0 km/h
1272 03-06-2008 14:32:02 25 C 8.52 g/m*3 25 C 0 km/h
1273 03-06-2008 14:44:02 25.8 C 8.19 g/m*3 25.8 C 0 km/h
1274 03-06-2008 14:56:02 25.9 C 7.99 g/m*3 25.9 C 0 km/h
1275 03-06-2008 15:08:01 25.9 C 7.99 g/m*3 25.9 C 0 km/h
Sensor: Nr:Datum:Temp:Abs-Feuchte:Windchill:Wind:
Aussen-T/F 1276 03-06-2008 15:20:01 26.6 C 7.8 g/m*3 26.6 C 0 km/h
1277 03-06-2008 15:32:02 26.5 C 7.76 g/m*3 26.5 C 0 km/h
1278 03-06-2008 15:44:02 26.6 C 7.8 g/m*3 26.6 C 0 km/h
1279 03-06-2008 15:56:02 26.1 C 7.83 g/m*3 26.1 C 0 km/h
1280 03-06-2008 16:08:02 26.7 C 7.85 g/m*3 26.7 C 0 km/h
1281 03-06-2008 16:20:02 26.8 C 7.38 g/m*3 26.8 C 0 km/h
1282 03-06-2008 16:32:02 26.8 C 7.38 g/m*3 26.8 C 0 km/h
1283 03-06-2008 16:44:02 27.5 C 7.14 g/m*3 27.5 C 0 km/h
1284 03-06-2008 16:56:01 27.6 C 6.92 g/m*3 27.6 C 0 km/h
1285 03-06-2008 17:08:02 26.9 C 6.91 g/m*3 26.9 C 0 km/h
1286 03-06-2008 17:20:01 27.2 C 6.77 g/m*3 27.2 C 0 km/h
1287 03-06-2008 17:32:01 26.8 C 7.13 g/m*3 26.8 C 0 km/h
1288 03-06-2008 17:44:01 27.2 C 6.77 g/m*3 27.2 C 0 km/h
1289 03-06-2008 17:56:01 27 C 6.69 g/m*3 27 C 0 km/h
1290 03-06-2008 18:08:02 26.6 C 6.54 g/m*3 26.6 C 0 km/h
1291 03-06-2008 18:20:02 26.4 C 7.47 g/m*3 26.4 C 0 km/h
1292 03-06-2008 18:32:01 26.1 C 7.34 g/m*3 26.1 C 0 km/h
1293 03-06-2008 18:44:01 26.6 C 7.3 g/m*3 26.6 C 0 km/h
1294 03-06-2008 18:56:01 27 C 7.21 g/m*3 27 C 0 km/h
1295 03-06-2008 19:08:01 27.6 C 7.18 g/m*3 27.6 C 0 km/h
1296 03-06-2008 19:20:02 26.6 C 7.3 g/m*3 26.6 C 0 km/h
1297 03-06-2008 19:32:02 26.4 C 7.72 g/m*3 26.4 C 0 km/h
1298 03-06-2008 19:44:02 25.8 C 7.7 g/m*3 25.8 C 0 km/h
1299 03-06-2008 19:56:02 25.2 C 7.45 g/m*3 25.2 C 0 km/h
1300 03-06-2008 20:08:02 25.2 C 7.45 g/m*3 25.2 C 0 km/h
Sensor: Nr:Datum:Temp:Abs-Feuchte:Windchill:Wind:
Aussen-T/F 1301 03-06-2008 20:20:01 25.1 C 8.1 g/m*3 25.1 C 0 km/h
1302 03-06-2008 20:32:02 24.6 C 8.33 g/m*3 24.6 C 0 km/h
1303 03-06-2008 20:44:02 23.8 C 8.39 g/m*3 23.8 C 0 km/h
1304 03-06-2008 20:56:02 23.1 C 8.27 g/m*3 23.1 C 0 km/h
1305 03-06-2008 21:08:01 22.8 C 8.74 g/m*3 22.8 C 0 km/h
1306 03-06-2008 21:20:02 22.4 C 8.94 g/m*3 22.4 C 0 km/h
1307 03-06-2008 21:32:01 22 C 8.93 g/m*3 22 C 0 km/h
1308 03-06-2008 21:44:01 21.6 C 9.1 g/m*3 21.6 C 0 km/h
1309 03-06-2008 21:56:02 21.3 C 9.13 g/m*3 21.3 C 0 km/h
1310 03-06-2008 22:08:02 21 C 9.16 g/m*3 21 C 0 km/h
1311 03-06-2008 22:20:02 20.7 C 9.36 g/m*3 20.7 C 0 km/h
1312 03-06-2008 22:33:02 20.3 C 9.32 g/m*3 20.3 C 0 km/h
1313 03-06-2008 22:45:02 20.1 C 9.39 g/m*3 20.1 C 0 km/h
1314 03-06-2008 22:57:03 19.7 C 9.34 g/m*3 19.7 C 0 km/h
1315 03-06-2008 23:09:03 19.7 C 9.34 g/m*3 19.7 C 0 km/h
1316 03-06-2008 23:21:03 19.2 C 9.56 g/m*3 19.2 C 0 km/h
1317 03-06-2008 23:33:03 19.2 C 9.56 g/m*3 19.2 C 0 km/h
1318 03-06-2008 23:45:03 19.2 C 9.56 g/m*3 19.2 C 0 km/h
1319 03-06-2008 23:57:03 18.5 C 9.81 g/m*3 18.5 C 0 km/h
1320 04-06-2008 00:09:03 18.5 C 9.81 g/m*3 18.5 C 0 km/h
1321 04-06-2008 00:21:03 18.5 C 9.81 g/m*3 18.5 C 0 km/h
1322 04-06-2008 00:33:03 18.5 C 9.81 g/m*3 18.5 C 0 km/h
1323 04-06-2008 00:45:03 18.5 C 9.81 g/m*3 18.5 C 0 km/h
1324 04-06-2008 00:57:03 18.5 C 9.81 g/m*3 18.5 C 0 km/h
1325 04-06-2008 01:09:03 18.5 C 9.81 g/m*3 18.5 C 0 km/h
Sensor: Nr:Datum:Temp:Abs-Feuchte:Windchill:Wind:
Aussen-T/F 1326 04-06-2008 01:21:03 18.5 C 9.81 g/m*3 18.5 C 0 km/h
1327 04-06-2008 01:33:03 17 C 10.27 g/m*3 17 C 0 km/h
1328 04-06-2008 01:45:03 17 C 10.27 g/m*3 17 C 0 km/h
1329 04-06-2008 01:57:03 16.3 C 10.41 g/m*3 16.3 C 0 km/h
1330 04-06-2008 02:09:03 16.2 C 10.48 g/m*3 16.2 C 0 km/h
1331 04-06-2008 02:21:03 15.9 C 10.56 g/m*3 15.9 C 0 km/h
1332 04-06-2008 02:33:03 15.8 C 10.5 g/m*3 15.8 C 0 km/h
1333 04-06-2008 02:45:03 15.9 C 10.56 g/m*3 15.9 C 0 km/h
1334 04-06-2008 02:57:04 15.6 C 10.37 g/m*3 15.6 C 0 km/h
1335 04-06-2008 03:09:04 15.7 C 10.44 g/m*3 15.7 C 0 km/h
1336 04-06-2008 03:21:04 15.5 C 10.44 g/m*3 15.5 C 0 km/h
1337 04-06-2008 03:33:04 15.3 C 10.45 g/m*3 15.3 C 0 km/h
1338 04-06-2008 03:45:04 15.4 C 10.38 g/m*3 15.4 C 0 km/h
1339 04-06-2008 03:57:04 15.4 C 10.38 g/m*3 15.4 C 0 km/h
1340 04-06-2008 04:09:04 15.4 C 10.51 g/m*3 15.4 C 0 km/h
1341 04-06-2008 04:21:04 15.2 C 10.38 g/m*3 15.2 C 0 km/h
1342 04-06-2008 04:33:04 15.2 C 10.38 g/m*3 15.2 C 0 km/h
1343 04-06-2008 04:45:04 15.2 C 10.51 g/m*3 15.2 C 0 km/h
1344 04-06-2008 04:57:04 15.1 C 10.45 g/m*3 15.1 C 0 km/h
1345 04-06-2008 05:09:04 14.9 C 10.45 g/m*3 14.9 C 0 km/h
1346 04-06-2008 05:21:04 14.7 C 10.45 g/m*3 14.7 C 0 km/h
1347 04-06-2008 05:33:04 14.7 C 10.45 g/m*3 14.7 C 0 km/h
1348 04-06-2008 05:45:04 14.7 C 10.58 g/m*3 14.7 C 0 km/h
1349 04-06-2008 05:57:04 14.7 C 10.58 g/m*3 14.7 C 0 km/h
1350 04-06-2008 06:09:04 14.7 C 10.58 g/m*3 14.7 C 0 km/h
Sensor: Nr:Datum:Temp:Abs-Feuchte:Windchill:Wind:
Aussen-T/F 1351 04-06-2008 06:21:04 14.7 C 10.58 g/m*3 14.7 C 0 km/h
1352 04-06-2008 06:33:04 14.7 C 10.58 g/m*3 14.7 C 0 km/h
1353 04-06-2008 06:45:05 14.8 C 10.64 g/m*3 14.8 C 0 km/h
1354 04-06-2008 06:57:05 14.9 C 10.71 g/m*3 14.9 C 0 km/h
1355 04-06-2008 07:09:05 15.1 C 10.71 g/m*3 15.1 C 0 km/h
1356 04-06-2008 07:21:05 15.1 C 10.71 g/m*3 15.1 C 0 km/h
1357 04-06-2008 07:33:02 15.4 C 10.9 g/m*3 15.4 C 0 km/h
1358 04-06-2008 07:45:02 15.7 C 10.97 g/m*3 15.7 C 0 km/h
1359 04-06-2008 07:57:02 16 C 10.9 g/m*3 16 C 0 km/h
1360 04-06-2008 08:09:01 16.2 C 10.89 g/m*3 16.2 C 0 km/h
1361 04-06-2008 08:21:02 16.5 C 11.09 g/m*3 16.5 C 0 km/h
1362 04-06-2008 08:33:02 17.1 C 11.06 g/m*3 17.1 C 0 km/h
1363 04-06-2008 08:45:02 17.6 C 11.25 g/m*3 17.6 C 0 km/h
1364 04-06-2008 08:57:02 17.9 C 10.99 g/m*3 17.9 C 0 km/h
1365 04-06-2008 09:09:01 18.5 C 10.92 g/m*3 18.5 C 0 km/h
1366 04-06-2008 09:21:01 19 C 10.92 g/m*3 19 C 0 km/h
1367 04-06-2008 09:33:01 19.2 C 10.55 g/m*3 19.2 C 0 km/h
1368 04-06-2008 09:45:02 19.8 C 10.76 g/m*3 19.8 C 0 km/h
1369 04-06-2008 09:57:02 20.1 C 10.78 g/m*3 20.1 C 0 km/h
1370 04-06-2008 10:09:02 20.7 C 10.62 g/m*3 20.7 C 0 km/h
1371 04-06-2008 10:21:02 20.9 C 10.56 g/m*3 20.9 C 0 km/h
1372 04-06-2008 10:33:02 21.1 C 10.32 g/m*3 21.1 C 0 km/h
1373 04-06-2008 10:45:01 21.5 C 10.37 g/m*3 21.5 C 0 km/h
1374 04-06-2008 10:57:01 22.2 C 10.21 g/m*3 22.2 C 0 km/h
1375 04-06-2008 11:09:01 22.2 C 10.21 g/m*3 22.2 C 0 km/h
Sensor: Nr:Datum:Temp:Abs-Feuchte:Windchill:Wind:
Aussen-T/F 1376 04-06-2008 11:21:01 21.8 C 10.36 g/m*3 21.8 C 0 km/h
1377 04-06-2008 11:33:01 22.9 C 10.22 g/m*3 22.9 C 0 km/h
1378 04-06-2008 11:45:01 23 C 10.07 g/m*3 23 C 0 km/h
1379 04-06-2008 11:57:01 23.9 C 10.17 g/m*3 23.9 C 0 km/h
1380 04-06-2008 12:09:01 23.7 C 9.63 g/m*3 23.7 C 0 km/h
1381 04-06-2008 12:21:02 24.9 C 9.61 g/m*3 24.9 C 0 km/h
1382 04-06-2008 12:33:01 24.5 C 9.4 g/m*3 24.5 C 0 km/h
1383 04-06-2008 12:45:02 24.6 C 9 g/m*3 24.6 C 0 km/h
1384 04-06-2008 12:57:02 24.3 C 9.07 g/m*3 24.3 C 0 km/h
1385 04-06-2008 13:09:02 25.2 C 8.85 g/m*3 25.2 C 0 km/h
1386 04-06-2008 13:21:02 24.2 C 8.8 g/m*3 24.2 C 0 km/h
1387 04-06-2008 13:33:02 26.3 C 8.66 g/m*3 26.3 C 0 km/h
1388 04-06-2008 13:45:02 26.6 C 8.81 g/m*3 26.6 C 0 km/h
1389 04-06-2008 13:57:03 24.7 C 9.51 g/m*3 24.7 C 0 km/h
1390 04-06-2008 14:09:02 24.3 C 9.52 g/m*3 24.3 C 0 km/h
1391 04-06-2008 14:21:02 23.9 C 9.74 g/m*3 23.9 C 0 km/h
1392 04-06-2008 14:33:03 24 C 9.79 g/m*3 24 C 0 km/h
1393 04-06-2008 14:45:02 23.7 C 9.84 g/m*3 23.7 C 0 km/h
1394 04-06-2008 14:57:02 23.4 C 9.88 g/m*3 23.4 C 0 km/h
1395 04-06-2008 15:09:02 24.1 C 10.06 g/m*3 24.1 C 0 km/h
1396 04-06-2008 15:21:02 23.6 C 10.21 g/m*3 23.6 C 0 km/h
1397 04-06-2008 15:33:02 23.3 C 10.87 g/m*3 23.3 C 0 km/h
1398 04-06-2008 15:45:02 23.3 C 11.08 g/m*3 23.3 C 0 km/h
1399 04-06-2008 15:57:02 23.9 C 10.38 g/m*3 23.9 C 0 km/h
1400 04-06-2008 16:09:02 23.5 C 10.79 g/m*3 23.5 C 0 km/h
Sensor: Nr:Datum:Temp:Abs-Feuchte:Windchill:Wind:
Aussen-T/F 1401 04-06-2008 16:21:02 23.7 C 10.27 g/m*3 23.7 C 0 km/h
1402 04-06-2008 16:33:02 24.5 C 10.07 g/m*3 24.5 C 0 km/h
1403 04-06-2008 16:45:02 25.7 C 9.82 g/m*3 25.7 C 0 km/h
1404 04-06-2008 16:57:02 25.2 C 10.24 g/m*3 25.2 C 0 km/h
1405 04-06-2008 17:09:02 25.3 C 10.07 g/m*3 25.3 C 0 km/h
1406 04-06-2008 17:21:01 25.9 C 9.93 g/m*3 25.9 C 0 km/h
1407 04-06-2008 17:33:01 23.4 C 9.67 g/m*3 23.4 C 0 km/h
1408 04-06-2008 17:45:01 22.4 C 10.13 g/m*3 22.4 C 0 km/h
1409 04-06-2008 17:57:01 19.7 C 12.74 g/m*3 19.7 C 0 km/h
1410 04-06-2008 18:09:01 18.8 C 12.88 g/m*3 18.8 C 0 km/h
1411 04-06-2008 18:21:02 18.9 C 13.45 g/m*3 18.9 C 0 km/h
1412 04-06-2008 18:33:02 18.9 C 13.45 g/m*3 18.9 C 0 km/h
1413 04-06-2008 18:45:02 18.9 C 13.45 g/m*3 18.9 C 0 km/h
1414 04-06-2008 18:57:02 18.9 C 13.45 g/m*3 18.9 C 0 km/h
1415 04-06-2008 19:09:02 17.6 C 13.35 g/m*3 17.6 C 0 km/h
1416 04-06-2008 19:21:02 17.6 C 13.5 g/m*3 17.6 C 0 km/h
1417 04-06-2008 19:33:01 17.5 C 13.42 g/m*3 17.5 C 0 km/h
1418 04-06-2008 19:45:02 17.5 C 13.57 g/m*3 17.5 C 0 km/h
1419 04-06-2008 19:57:02 17.6 C 13.8 g/m*3 17.6 C 0 km/h
1420 04-06-2008 20:09:01 17.9 C 14.05 g/m*3 17.9 C 0 km/h
1421 04-06-2008 20:21:02 17.9 C 14.05 g/m*3 17.9 C 0 km/h
1422 04-06-2008 20:33:02 18.1 C 14.06 g/m*3 18.1 C 0 km/h
1423 04-06-2008 20:45:02 18.2 C 14.3 g/m*3 18.2 C 0 km/h
1424 04-06-2008 20:57:02 17.8 C 13.96 g/m*3 17.8 C 0 km/h
1425 04-06-2008 21:09:01 17.8 C 13.96 g/m*3 17.8 C 0 km/h
Sensor: Nr:Datum:Temp:Abs-Feuchte:Windchill:Wind:
Aussen-T/F 1426 04-06-2008 21:21:02 17.7 C 13.58 g/m*3 17.7 C 0 km/h
1427 04-06-2008 21:33:02 17.7 C 13.58 g/m*3 17.7 C 0 km/h
1428 04-06-2008 21:45:02 17.7 C 13.58 g/m*3 17.7 C 0 km/h
1429 04-06-2008 21:57:02 17.7 C 13.58 g/m*3 17.7 C 0 km/h
1430 04-06-2008 22:10:03 17.7 C 13.58 g/m*3 17.7 C 0 km/h
1431 04-06-2008 22:22:03 17.7 C 13.58 g/m*3 17.7 C 0 km/h
1432 04-06-2008 22:34:03 17.7 C 13.58 g/m*3 17.7 C 0 km/h
1433 04-06-2008 22:46:03 17.7 C 13.58 g/m*3 17.7 C 0 km/h
1434 04-06-2008 22:58:03 17.7 C 13.58 g/m*3 17.7 C 0 km/h
1435 04-06-2008 23:10:04 17.7 C 13.58 g/m*3 17.7 C 0 km/h
1436 04-06-2008 23:22:04 17.9 C 13.89 g/m*3 17.9 C 0 km/h
1437 04-06-2008 23:34:04 17.9 C 13.89 g/m*3 17.9 C 0 km/h
1438 04-06-2008 23:46:04 17.9 C 13.89 g/m*3 17.9 C 0 km/h
1439 04-06-2008 23:58:04 17.9 C 13.89 g/m*3 17.9 C 0 km/h
1440 05-06-2008 00:10:04 17.9 C 13.89 g/m*3 17.9 C 0 km/h
1441 05-06-2008 00:22:04 17.9 C 13.89 g/m*3 17.9 C 0 km/h
1442 05-06-2008 00:34:04 17.9 C 13.89 g/m*3 17.9 C 0 km/h
1443 05-06-2008 00:46:04 17.9 C 13.89 g/m*3 17.9 C 0 km/h
1444 05-06-2008 00:58:04 17.9 C 13.89 g/m*3 17.9 C 0 km/h
1445 05-06-2008 01:10:04 17.9 C 13.89 g/m*3 17.9 C 0 km/h
1446 05-06-2008 01:22:04 17.9 C 13.89 g/m*3 17.9 C 0 km/h
1447 05-06-2008 01:34:04 17.9 C 13.89 g/m*3 17.9 C 0 km/h
1448 05-06-2008 01:46:04 17.9 C 13.89 g/m*3 17.9 C 0 km/h
1449 05-06-2008 01:58:04 17.9 C 13.89 g/m*3 17.9 C 0 km/h
1450 05-06-2008 02:10:04 17.9 C 13.89 g/m*3 17.9 C 0 km/h
Sensor: Nr:Datum:Temp:Abs-Feuchte:Windchill:Wind:
Aussen-T/F 1451 05-06-2008 02:22:04 17.9 C 13.89 g/m*3 17.9 C 0 km/h
1452 05-06-2008 02:34:04 17.9 C 13.89 g/m*3 17.9 C 0 km/h
1453 05-06-2008 02:46:04 17.9 C 13.89 g/m*3 17.9 C 0 km/h
1454 05-06-2008 02:58:04 17.9 C 13.89 g/m*3 17.9 C 0 km/h
1455 05-06-2008 03:10:04 17.9 C 13.89 g/m*3 17.9 C 0 km/h
1456 05-06-2008 03:22:05 17.9 C 13.89 g/m*3 17.9 C 0 km/h
1457 05-06-2008 03:34:05 17.9 C 13.89 g/m*3 17.9 C 0 km/h
1458 05-06-2008 03:46:05 17.9 C 13.89 g/m*3 17.9 C 0 km/h
1459 05-06-2008 03:58:05 17.9 C 13.89 g/m*3 17.9 C 0 km/h
1460 05-06-2008 04:10:05 17.9 C 13.89 g/m*3 17.9 C 0 km/h
1461 05-06-2008 04:22:05 17.5 C 13.12 g/m*3 17.5 C 0 km/h
1462 05-06-2008 04:34:05 17.3 C 12.96 g/m*3 17.3 C 0 km/h
1463 05-06-2008 04:46:05 17.3 C 12.96 g/m*3 17.3 C 0 km/h
1464 05-06-2008 04:58:05 17.3 C 12.96 g/m*3 17.3 C 0 km/h
1465 05-06-2008 05:10:05 17.3 C 12.96 g/m*3 17.3 C 0 km/h
1466 05-06-2008 05:22:05 17.5 C 13.12 g/m*3 17.5 C 0 km/h
1467 05-06-2008 05:34:05 17.2 C 12.89 g/m*3 17.2 C 0 km/h
1468 05-06-2008 05:46:05 17.2 C 12.89 g/m*3 17.2 C 0 km/h
1469 05-06-2008 05:58:05 17.2 C 12.89 g/m*3 17.2 C 0 km/h
1470 05-06-2008 06:10:05 17.2 C 12.89 g/m*3 17.2 C 0 km/h
1471 05-06-2008 06:22:05 17.2 C 13.03 g/m*3 17.2 C 0 km/h
1472 05-06-2008 06:34:03 17.2 C 13.03 g/m*3 17.2 C 0 km/h
1473 05-06-2008 06:46:02 17.2 C 13.03 g/m*3 17.2 C 0 km/h
1474 05-06-2008 06:58:02 17.2 C 13.03 g/m*3 17.2 C 0 km/h
1475 05-06-2008 07:10:02 17.2 C 13.03 g/m*3 17.2 C 0 km/h
Sensor: Nr:Datum:Temp:Abs-Feuchte:Windchill:Wind:
Aussen-T/F 1476 05-06-2008 07:22:01 17.2 C 13.03 g/m*3 17.2 C 0 km/h
1477 05-06-2008 07:36:02 17.2 C 13.03 g/m*3 17.2 C 0 km/h
1478 05-06-2008 07:48:02 18.2 C 13.37 g/m*3 18.2 C 0 km/h
1479 05-06-2008 08:00:02 18.7 C 13.45 g/m*3 18.7 C 0 km/h
1480 05-06-2008 08:12:01 19 C 13.2 g/m*3 19 C 0 km/h
1481 05-06-2008 08:24:02 19.1 C 12.79 g/m*3 19.1 C 0 km/h
1482 05-06-2008 08:36:02 19.3 C 12.77 g/m*3 19.3 C 0 km/h
1483 05-06-2008 08:48:03 19.2 C 12.2 g/m*3 19.2 C 0 km/h
1484 05-06-2008 09:00:03 19.1 C 11.8 g/m*3 19.1 C 0 km/h
1485 05-06-2008 09:12:02 19.2 C 12.2 g/m*3 19.2 C 0 km/h
1486 05-06-2008 09:24:02 19 C 12.22 g/m*3 19 C 0 km/h
1487 05-06-2008 09:36:03 19.1 C 12.62 g/m*3 19.1 C 0 km/h
1488 05-06-2008 09:48:02 18.8 C 12.56 g/m*3 18.8 C 0 km/h
1489 05-06-2008 10:00:02 19 C 12.71 g/m*3 19 C 0 km/h
1490 05-06-2008 10:12:02 19.4 C 12.51 g/m*3 19.4 C 0 km/h
1491 05-06-2008 10:24:02 20 C 12.1 g/m*3 20 C 0 km/h
1492 05-06-2008 10:36:02 20.5 C 11.74 g/m*3 20.5 C 0 km/h
1493 05-06-2008 10:48:02 21.2 C 11.68 g/m*3 21.2 C 0 km/h
1494 05-06-2008 11:00:02 22 C 11.06 g/m*3 22 C 0 km/h
1495 05-06-2008 11:12:01 22.2 C 10.99 g/m*3 22.2 C 0 km/h
1496 05-06-2008 11:24:01 22.3 C 11.45 g/m*3 22.3 C 0 km/h
1497 05-06-2008 11:36:02 22.6 C 11.05 g/m*3 22.6 C 0 km/h
1498 05-06-2008 11:48:02 23.8 C 11.4 g/m*3 23.8 C 0 km/h
1499 05-06-2008 12:00:03 23.6 C 11.06 g/m*3 23.6 C 0 km/h
1500 05-06-2008 12:12:02 23.7 C 10.48 g/m*3 23.7 C 0 km/h
Sensor: Nr:Datum:Temp:Abs-Feuchte:Windchill:Wind:
Aussen-T/F 1501 05-06-2008 12:24:02 23.2 C 10.81 g/m*3 23.2 C 0 km/h
1502 05-06-2008 12:36:02 23 C 11.1 g/m*3 23 C 0 km/h
1503 05-06-2008 12:48:02 24.5 C 10.52 g/m*3 24.5 C 0 km/h
1504 05-06-2008 13:00:02 23.8 C 10.97 g/m*3 23.8 C 0 km/h
1505 05-06-2008 13:12:02 23.1 C 10.96 g/m*3 23.1 C 0 km/h
1506 05-06-2008 13:24:03 24.6 C 10.13 g/m*3 24.6 C 0 km/h
1507 05-06-2008 13:36:02 25 C 11.05 g/m*3 25 C 0 km/h
1508 05-06-2008 13:48:02 24.1 C 10.72 g/m*3 24.1 C 0 km/h
1509 05-06-2008 14:00:02 23.3 C 10.66 g/m*3 23.3 C 0 km/h
1510 05-06-2008 14:12:01 23.2 C 11.02 g/m*3 23.2 C 0 km/h
1511 05-06-2008 14:24:02 24.3 C 11.06 g/m*3 24.3 C 0 km/h
1512 05-06-2008 14:36:02 25.9 C 10.89 g/m*3 25.9 C 0 km/h
1513 05-06-2008 14:48:02 26.3 C 10.64 g/m*3 26.3 C 0 km/h
1514 05-06-2008 15:00:02 25.4 C 10.59 g/m*3 25.4 C 0 km/h
1515 05-06-2008 15:12:02 26 C 10.47 g/m*3 26 C 0 km/h
1516 05-06-2008 15:24:02 26.8 C 10.44 g/m*3 26.8 C 0 km/h
1517 05-06-2008 15:36:02 24.8 C 11.38 g/m*3 24.8 C 0 km/h
1518 05-06-2008 15:48:02 24.5 C 11.41 g/m*3 24.5 C 0 km/h
1519 05-06-2008 16:00:02 24.6 C 11.48 g/m*3 24.6 C 0 km/h
1520 05-06-2008 16:12:02 24.4 C 11.35 g/m*3 24.4 C 0 km/h
1521 05-06-2008 16:24:03 24.6 C 11.25 g/m*3 24.6 C 0 km/h
1522 05-06-2008 16:36:02 24.3 C 11.29 g/m*3 24.3 C 0 km/h
1523 05-06-2008 16:48:01 24.3 C 10.84 g/m*3 24.3 C 0 km/h
1524 05-06-2008 17:00:01 24.2 C 11.22 g/m*3 24.2 C 0 km/h
1525 05-06-2008 17:12:02 23.6 C 11.48 g/m*3 23.6 C 0 km/h
Sensor: Nr:Datum:Temp:Abs-Feuchte:Windchill:Wind:
Aussen-T/F 1526 05-06-2008 17:24:02 23.6 C 11.48 g/m*3 23.6 C 0 km/h
1527 05-06-2008 17:36:01 23.6 C 11.48 g/m*3 23.6 C 0 km/h
1528 05-06-2008 17:48:01 23.7 C 11.12 g/m*3 23.7 C 0 km/h
1529 05-06-2008 18:00:01 23.4 C 10.09 g/m*3 23.4 C 0 km/h
1530 05-06-2008 18:12:01 23.3 C 10.25 g/m*3 23.3 C 0 km/h
1531 05-06-2008 18:24:02 23.3 C 10.25 g/m*3 23.3 C 0 km/h
1532 05-06-2008 18:36:02 23.5 C 10.57 g/m*3 23.5 C 0 km/h
1533 05-06-2008 18:48:02 23.8 C 10.76 g/m*3 23.8 C 0 km/h
1534 05-06-2008 19:00:03 23.9 C 11.03 g/m*3 23.9 C 0 km/h
1535 05-06-2008 19:12:02 23.8 C 11.62 g/m*3 23.8 C 0 km/h
1536 05-06-2008 19:24:02 23.9 C 11.47 g/m*3 23.9 C 0 km/h
1537 05-06-2008 19:36:02 23.8 C 11.83 g/m*3 23.8 C 0 km/h
1538 05-06-2008 19:48:02 23.6 C 11.91 g/m*3 23.6 C 0 km/h
1539 05-06-2008 20:00:02 23.4 C 11.99 g/m*3 23.4 C 0 km/h
1540 05-06-2008 20:12:02 23.1 C 11.78 g/m*3 23.1 C 0 km/h
1541 05-06-2008 20:24:02 22.6 C 11.85 g/m*3 22.6 C 0 km/h
1542 05-06-2008 20:36:02 22.3 C 12.05 g/m*3 22.3 C 0 km/h
1543 05-06-2008 20:48:01 21.9 C 12.35 g/m*3 21.9 C 0 km/h
1544 05-06-2008 21:00:01 21.5 C 12.26 g/m*3 21.5 C 0 km/h
1545 05-06-2008 21:12:02 21 C 12.09 g/m*3 21 C 0 km/h
1546 05-06-2008 21:24:02 20.5 C 12.1 g/m*3 20.5 C 0 km/h
1547 05-06-2008 21:36:02 20.2 C 12.24 g/m*3 20.2 C 0 km/h
1548 05-06-2008 21:48:02 19.8 C 12.47 g/m*3 19.8 C 0 km/h
1549 05-06-2008 22:00:02 19.5 C 12.25 g/m*3 19.5 C 0 km/h
1550 05-06-2008 22:12:02 19.3 C 12.27 g/m*3 19.3 C 0 km/h
Sensor: Nr:Datum:Temp:Abs-Feuchte:Windchill:Wind:
Aussen-T/F 1551 05-06-2008 22:24:02 19 C 12.22 g/m*3 19 C 0 km/h
1552 05-06-2008 22:36:02 18.9 C 12.64 g/m*3 18.9 C 0 km/h
1553 05-06-2008 22:48:02 18.7 C 12.49 g/m*3 18.7 C 0 km/h
1554 05-06-2008 23:00:02 18.5 C 12.5 g/m*3 18.5 C 0 km/h
1555 05-06-2008 23:13:03 18.5 C 12.5 g/m*3 18.5 C 0 km/h
1556 05-06-2008 23:25:03 18.3 C 12.35 g/m*3 18.3 C 0 km/h
1557 05-06-2008 23:37:03 18.2 C 12.28 g/m*3 18.2 C 0 km/h
1558 05-06-2008 23:49:03 18.1 C 12.21 g/m*3 18.1 C 0 km/h
1559 06-06-2008 00:01:03 18.1 C 12.21 g/m*3 18.1 C 0 km/h
1560 06-06-2008 00:13:04 18.2 C 12.28 g/m*3 18.2 C 0 km/h
1561 06-06-2008 00:25:04 18.2 C 12.28 g/m*3 18.2 C 0 km/h
1562 06-06-2008 00:37:04 18 C 11.98 g/m*3 18 C 0 km/h
1563 06-06-2008 00:49:04 17.9 C 12.21 g/m*3 17.9 C 0 km/h
1564 06-06-2008 01:01:04 17.8 C 12.14 g/m*3 17.8 C 0 km/h
1565 06-06-2008 01:13:04 17.9 C 12.21 g/m*3 17.9 C 0 km/h
1566 06-06-2008 01:25:04 17.9 C 12.06 g/m*3 17.9 C 0 km/h
1567 06-06-2008 01:37:04 17.6 C 11.85 g/m*3 17.6 C 0 km/h
1568 06-06-2008 01:49:04 17.3 C 11.93 g/m*3 17.3 C 0 km/h
1569 06-06-2008 02:01:04 17.2 C 11.86 g/m*3 17.2 C 0 km/h
1570 06-06-2008 02:13:04 17 C 11.87 g/m*3 17 C 0 km/h
1571 06-06-2008 02:25:04 16.8 C 11.87 g/m*3 16.8 C 0 km/h
1572 06-06-2008 02:37:04 16.7 C 11.94 g/m*3 16.7 C 0 km/h
1573 06-06-2008 02:49:04 16.6 C 11.87 g/m*3 16.6 C 0 km/h
1574 06-06-2008 03:01:04 16.5 C 11.8 g/m*3 16.5 C 0 km/h
1575 06-06-2008 03:13:04 16.4 C 11.72 g/m*3 16.4 C 0 km/h
Sensor: Nr:Datum:Temp:Abs-Feuchte:Windchill:Wind:
Aussen-T/F 1576 06-06-2008 03:25:04 16.3 C 11.65 g/m*3 16.3 C 0 km/h
1577 06-06-2008 03:37:04 16.3 C 11.79 g/m*3 16.3 C 0 km/h
1578 06-06-2008 03:49:04 16.2 C 11.72 g/m*3 16.2 C 0 km/h
1579 06-06-2008 04:01:04 16.1 C 11.65 g/m*3 16.1 C 0 km/h
1580 06-06-2008 04:13:05 15.9 C 11.65 g/m*3 15.9 C 0 km/h
1581 06-06-2008 04:25:05 15.9 C 11.65 g/m*3 15.9 C 0 km/h
1582 06-06-2008 04:37:05 15.8 C 11.58 g/m*3 15.8 C 0 km/h
1583 06-06-2008 04:49:05 15.6 C 11.44 g/m*3 15.6 C 0 km/h
1584 06-06-2008 05:01:05 15.6 C 11.44 g/m*3 15.6 C 0 km/h
1585 06-06-2008 05:13:05 15.5 C 11.5 g/m*3 15.5 C 0 km/h
1586 06-06-2008 05:25:05 15.5 C 11.37 g/m*3 15.5 C 0 km/h
1587 06-06-2008 05:37:05 15.4 C 11.3 g/m*3 15.4 C 0 km/h
1588 06-06-2008 05:49:05 15.3 C 11.36 g/m*3 15.3 C 0 km/h
1589 06-06-2008 06:01:05 15.3 C 11.36 g/m*3 15.3 C 0 km/h
1590 06-06-2008 06:13:05 15.4 C 11.43 g/m*3 15.4 C 0 km/h
1591 06-06-2008 06:25:05 15.5 C 11.5 g/m*3 15.5 C 0 km/h
1592 06-06-2008 06:37:03 15.6 C 11.57 g/m*3 15.6 C 0 km/h
1593 06-06-2008 06:49:02 15.7 C 11.64 g/m*3 15.7 C 0 km/h
1594 06-06-2008 07:01:02 15.8 C 11.71 g/m*3 15.8 C 0 km/h
1595 06-06-2008 07:13:02 15.9 C 11.65 g/m*3 15.9 C 0 km/h
1596 06-06-2008 07:25:01 16.2 C 11.86 g/m*3 16.2 C 0 km/h
1597 06-06-2008 07:37:02 16.5 C 11.94 g/m*3 16.5 C 0 km/h
1598 06-06-2008 07:49:02 16.6 C 11.72 g/m*3 16.6 C 0 km/h
1599 06-06-2008 08:01:01 16.8 C 11.58 g/m*3 16.8 C 0 km/h
1600 06-06-2008 08:13:02 17.1 C 11.35 g/m*3 17.1 C 0 km/h
Sensor: Nr:Datum:Temp:Abs-Feuchte:Windchill:Wind:
Aussen-T/F 1601 06-06-2008 08:25:01 17.6 C 11.55 g/m*3 17.6 C 0 km/h
1602 06-06-2008 08:37:01 17.9 C 11.45 g/m*3 17.9 C 0 km/h
1603 06-06-2008 08:49:02 18.4 C 11.48 g/m*3 18.4 C 0 km/h
1604 06-06-2008 09:01:02 19.1 C 10.82 g/m*3 19.1 C 0 km/h
1605 06-06-2008 09:13:02 19.4 C 10.34 g/m*3 19.4 C 0 km/h
1606 06-06-2008 09:25:02 19.6 C 10.3 g/m*3 19.6 C 0 km/h
1607 06-06-2008 09:37:02 20 C 10.02 g/m*3 20 C 0 km/h
1608 06-06-2008 09:49:02 20.6 C 9.49 g/m*3 20.6 C 0 km/h
1609 06-06-2008 10:01:02 20.8 C 9.23 g/m*3 20.8 C 0 km/h
1610 06-06-2008 10:13:02 21 C 9.16 g/m*3 21 C 0 km/h
1611 06-06-2008 10:25:03 21.4 C 8.62 g/m*3 21.4 C 0 km/h
1612 06-06-2008 10:37:02 22.1 C 8.59 g/m*3 22.1 C 0 km/h
1613 06-06-2008 10:49:01 22.2 C 8.25 g/m*3 22.2 C 0 km/h
1614 06-06-2008 11:01:01 22.8 C 8.53 g/m*3 22.8 C 0 km/h
1615 06-06-2008 11:13:01 23.4 C 8.41 g/m*3 23.4 C 0 km/h
1616 06-06-2008 11:25:02 23.7 C 8.56 g/m*3 23.7 C 0 km/h
1617 06-06-2008 11:37:01 23.8 C 8.39 g/m*3 23.8 C 0 km/h
1618 06-06-2008 11:49:01 23.9 C 8.22 g/m*3 23.9 C 0 km/h
1619 06-06-2008 12:01:02 24.6 C 8.33 g/m*3 24.6 C 0 km/h
1620 06-06-2008 12:13:02 24.8 C 8.19 g/m*3 24.8 C 0 km/h
1621 06-06-2008 12:25:02 24.9 C 8.7 g/m*3 24.9 C 0 km/h
1622 06-06-2008 12:37:01 25.5 C 8.05 g/m*3 25.5 C 0 km/h
1623 06-06-2008 12:49:01 26.6 C 7.8 g/m*3 26.6 C 0 km/h
1624 06-06-2008 13:01:02 26.8 C 7.89 g/m*3 26.8 C 0 km/h
1625 06-06-2008 13:13:02 27.2 C 7.81 g/m*3 27.2 C 0 km/h
Sensor: Nr:Datum:Temp:Abs-Feuchte:Windchill:Wind:
Aussen-T/F 1626 06-06-2008 13:25:02 26.5 C 8.01 g/m*3 26.5 C 0 km/h
1627 06-06-2008 13:37:01 27.5 C 8.2 g/m*3 27.5 C 0 km/h
1628 06-06-2008 13:49:01 27.2 C 7.81 g/m*3 27.2 C 0 km/h
1629 06-06-2008 14:01:02 27.5 C 8.2 g/m*3 27.5 C 0 km/h
1630 06-06-2008 14:13:03 27.4 C 7.89 g/m*3 27.4 C 0 km/h
1631 06-06-2008 14:25:01 26.8 C 7.89 g/m*3 26.8 C 0 km/h
1632 06-06-2008 14:37:02 27.1 C 7.76 g/m*3 27.1 C 0 km/h
1633 06-06-2008 14:49:03 26.9 C 8.45 g/m*3 26.9 C 0 km/h
1634 06-06-2008 15:01:02 27 C 8.24 g/m*3 27 C 0 km/h
1635 06-06-2008 15:13:02 27.1 C 8.28 g/m*3 27.1 C 0 km/h
1636 06-06-2008 15:25:02 26.4 C 9.21 g/m*3 26.4 C 0 km/h
1637 06-06-2008 15:37:03 26.2 C 9.6 g/m*3 26.2 C 0 km/h
1638 06-06-2008 15:49:02 26.1 C 9.3 g/m*3 26.1 C 0 km/h
1639 06-06-2008 16:01:02 24.9 C 9.16 g/m*3 24.9 C 0 km/h
1640 06-06-2008 16:13:03 24.5 C 9.4 g/m*3 24.5 C 0 km/h
1641 06-06-2008 16:25:02 24.8 C 9.56 g/m*3 24.8 C 0 km/h
1642 06-06-2008 16:37:02 25.8 C 9.63 g/m*3 25.8 C 0 km/h
1643 06-06-2008 16:49:02 26.2 C 9.35 g/m*3 26.2 C 0 km/h
1644 06-06-2008 17:01:02 26.5 C 9.51 g/m*3 26.5 C 0 km/h
1645 06-06-2008 17:13:02 26.2 C 9.6 g/m*3 26.2 C 0 km/h
1646 06-06-2008 17:25:02 25.6 C 10 g/m*3 25.6 C 0 km/h
1647 06-06-2008 17:37:02 26.2 C 10.09 g/m*3 26.2 C 0 km/h
1648 06-06-2008 17:49:03 26.1 C 9.79 g/m*3 26.1 C 0 km/h
1649 06-06-2008 18:01:02 25.5 C 9.71 g/m*3 25.5 C 0 km/h
1650 06-06-2008 18:13:02 25.1 C 9.95 g/m*3 25.1 C 0 km/h
Sensor: Nr:Datum:Temp:Abs-Feuchte:Windchill:Wind:
Aussen-T/F 1651 06-06-2008 18:25:03 26 C 9.49 g/m*3 26 C 0 km/h
1652 06-06-2008 18:37:02 25.9 C 9.44 g/m*3 25.9 C 0 km/h
1653 06-06-2008 18:49:02 24.6 C 9.9 g/m*3 24.6 C 0 km/h
1654 06-06-2008 19:01:01 24.3 C 9.96 g/m*3 24.3 C 0 km/h
1655 06-06-2008 19:13:01 24.3 C 10.18 g/m*3 24.3 C 0 km/h
1656 06-06-2008 19:25:01 23.4 C 9.88 g/m*3 23.4 C 0 km/h
1657 06-06-2008 19:37:02 23.5 C 10.15 g/m*3 23.5 C 0 km/h
1658 06-06-2008 19:49:03 23.1 C 9.92 g/m*3 23.1 C 0 km/h
1659 06-06-2008 20:01:02 23.1 C 9.92 g/m*3 23.1 C 0 km/h
1660 06-06-2008 20:13:02 22.9 C 10.22 g/m*3 22.9 C 0 km/h
1661 06-06-2008 20:25:02 22.7 C 10.3 g/m*3 22.7 C 0 km/h
1662 06-06-2008 20:37:02 22.5 C 10.39 g/m*3 22.5 C 0 km/h
1663 06-06-2008 20:49:02 22.1 C 10.74 g/m*3 22.1 C 0 km/h
1664 06-06-2008 21:01:03 22.1 C 10.93 g/m*3 22.1 C 0 km/h
1665 06-06-2008 21:13:03 21.8 C 10.94 g/m*3 21.8 C 0 km/h
1666 06-06-2008 21:25:02 21.6 C 10.62 g/m*3 21.6 C 0 km/h
1667 06-06-2008 21:37:02 21.5 C 10.75 g/m*3 21.5 C 0 km/h
1668 06-06-2008 21:49:02 21.3 C 10.81 g/m*3 21.3 C 0 km/h
1669 06-06-2008 22:01:01 21.1 C 10.69 g/m*3 21.1 C 0 km/h
1670 06-06-2008 22:13:01 20.9 C 10.93 g/m*3 20.9 C 0 km/h
1671 06-06-2008 22:25:01 20.8 C 10.86 g/m*3 20.8 C 0 km/h
1672 06-06-2008 22:37:02 20.5 C 10.68 g/m*3 20.5 C 0 km/h
1673 06-06-2008 22:49:03 20.4 C 10.61 g/m*3 20.4 C 0 km/h
1674 06-06-2008 23:01:02 20.2 C 10.32 g/m*3 20.2 C 0 km/h
1675 06-06-2008 23:13:02 20.1 C 10.26 g/m*3 20.1 C 0 km/h
Sensor: Nr:Datum:Temp:Abs-Feuchte:Windchill:Wind:
Aussen-T/F 1676 06-06-2008 23:25:02 19.8 C 10.42 g/m*3 19.8 C 0 km/h
1677 06-06-2008 23:37:02 19.7 C 10.7 g/m*3 19.7 C 0 km/h
1678 06-06-2008 23:49:01 19.5 C 10.74 g/m*3 19.5 C 0 km/h
1679 07-06-2008 00:01:02 19.5 C 10.91 g/m*3 19.5 C 0 km/h
1680 07-06-2008 00:13:02 19.2 C 11.05 g/m*3 19.2 C 0 km/h
1681 07-06-2008 00:25:01 19.2 C 11.21 g/m*3 19.2 C 0 km/h
1682 07-06-2008 00:37:01 18.9 C 11.34 g/m*3 18.9 C 0 km/h
1683 07-06-2008 00:49:01 18.8 C 11.43 g/m*3 18.8 C 0 km/h
1684 07-06-2008 01:01:02 18.5 C 11.39 g/m*3 18.5 C 0 km/h
1685 07-06-2008 01:13:02 18.6 C 11.46 g/m*3 18.6 C 0 km/h
1686 07-06-2008 01:25:02 18.5 C 11.39 g/m*3 18.5 C 0 km/h
1687 07-06-2008 01:37:02 18.3 C 11.41 g/m*3 18.3 C 0 km/h
1688 07-06-2008 01:49:02 18.2 C 11.5 g/m*3 18.2 C 0 km/h
1689 07-06-2008 02:01:02 17.7 C 11.62 g/m*3 17.7 C 0 km/h
1690 07-06-2008 02:13:02 17.7 C 11.62 g/m*3 17.7 C 0 km/h
1691 07-06-2008 02:25:02 17.6 C 11.55 g/m*3 17.6 C 0 km/h
1692 07-06-2008 02:37:02 17.6 C 11.7 g/m*3 17.6 C 0 km/h
1693 07-06-2008 02:49:01 17.7 C 11.77 g/m*3 17.7 C 0 km/h
1694 07-06-2008 03:01:01 17.6 C 11.7 g/m*3 17.6 C 0 km/h
1695 07-06-2008 03:13:01 17.5 C 11.63 g/m*3 17.5 C 0 km/h
1696 07-06-2008 03:25:01 17.5 C 11.63 g/m*3 17.5 C 0 km/h
1697 07-06-2008 03:37:01 17.6 C 11.7 g/m*3 17.6 C 0 km/h
1698 07-06-2008 03:49:02 17.7 C 11.62 g/m*3 17.7 C 0 km/h
1699 07-06-2008 04:01:01 17.5 C 11.48 g/m*3 17.5 C 0 km/h
1700 07-06-2008 04:13:01 17.4 C 11.41 g/m*3 17.4 C 0 km/h
Sensor: Nr:Datum:Temp:Abs-Feuchte:Windchill:Wind:
Aussen-T/F 1701 07-06-2008 04:25:01 17.3 C 11.34 g/m*3 17.3 C 0 km/h
1702 07-06-2008 04:37:02 17 C 11.14 g/m*3 17 C 0 km/h
1703 07-06-2008 04:49:01 17.2 C 11.13 g/m*3 17.2 C 0 km/h
1704 07-06-2008 05:01:02 17 C 11 g/m*3 17 C 0 km/h
1705 07-06-2008 05:13:02 17 C 11 g/m*3 17 C 0 km/h
1706 07-06-2008 05:25:01 16.9 C 10.93 g/m*3 16.9 C 0 km/h
1707 07-06-2008 05:37:01 16.8 C 11.01 g/m*3 16.8 C 0 km/h
1708 07-06-2008 05:49:01 16.8 C 11.01 g/m*3 16.8 C 0 km/h
1709 07-06-2008 06:01:01 16.6 C 11.02 g/m*3 16.6 C 0 km/h
1710 07-06-2008 06:13:01 16.6 C 11.02 g/m*3 16.6 C 0 km/h
1711 07-06-2008 06:25:01 16.4 C 10.89 g/m*3 16.4 C 0 km/h
1712 07-06-2008 06:37:02 16.3 C 10.96 g/m*3 16.3 C 0 km/h
1713 07-06-2008 06:49:02 16.3 C 11.1 g/m*3 16.3 C 0 km/h
1714 07-06-2008 07:01:01 16.2 C 10.89 g/m*3 16.2 C 0 km/h
1715 07-06-2008 07:13:01 16.3 C 11.1 g/m*3 16.3 C 0 km/h
1716 07-06-2008 07:25:01 16.6 C 11.16 g/m*3 16.6 C 0 km/h
1717 07-06-2008 07:37:01 16.5 C 11.09 g/m*3 16.5 C 0 km/h
1718 07-06-2008 07:49:01 16.7 C 11.08 g/m*3 16.7 C 0 km/h
1719 07-06-2008 08:01:02 16.8 C 11.01 g/m*3 16.8 C 0 km/h
1720 07-06-2008 08:13:02 16.7 C 10.94 g/m*3 16.7 C 0 km/h
1721 07-06-2008 08:25:02 16.8 C 11.01 g/m*3 16.8 C 0 km/h
1722 07-06-2008 08:37:01 16.9 C 11.08 g/m*3 16.9 C 0 km/h
1723 07-06-2008 08:49:01 16.6 C 11.16 g/m*3 16.6 C 0 km/h
1724 07-06-2008 09:01:01 16.5 C 11.23 g/m*3 16.5 C 0 km/h
1725 07-06-2008 09:13:01 16.5 C 11.09 g/m*3 16.5 C 0 km/h
Sensor: Nr:Datum:Temp:Abs-Feuchte:Windchill:Wind:
Aussen-T/F 1726 07-06-2008 09:25:01 16.9 C 11.22 g/m*3 16.9 C 0 km/h
1727 07-06-2008 09:37:02 17 C 10.71 g/m*3 17 C 0 km/h
1728 07-06-2008 09:49:02 17.8 C 11.08 g/m*3 17.8 C 0 km/h
1729 07-06-2008 10:01:01 18 C 10.44 g/m*3 18 C 0 km/h
1730 07-06-2008 10:13:01 18.2 C 10.41 g/m*3 18.2 C 0 km/h
1731 07-06-2008 10:25:01 17.8 C 10.32 g/m*3 17.8 C 0 km/h
1732 07-06-2008 10:37:02 18.1 C 10.66 g/m*3 18.1 C 0 km/h
1733 07-06-2008 10:49:01 18 C 10.14 g/m*3 18 C 0 km/h
1734 07-06-2008 11:01:02 18.3 C 10.16 g/m*3 18.3 C 0 km/h
1735 07-06-2008 11:13:02 18.7 C 10.09 g/m*3 18.7 C 0 km/h
1736 07-06-2008 11:25:01 18.5 C 9.97 g/m*3 18.5 C 0 km/h
1737 07-06-2008 11:37:01 18.7 C 10.09 g/m*3 18.7 C 0 km/h
1738 07-06-2008 11:49:01 18.7 C 10.09 g/m*3 18.7 C 0 km/h
1739 07-06-2008 12:01:02 18.9 C 10.04 g/m*3 18.9 C 0 km/h
1740 07-06-2008 12:13:02 18.5 C 10.13 g/m*3 18.5 C 0 km/h
1741 07-06-2008 12:25:01 19 C 9.94 g/m*3 19 C 0 km/h
1742 07-06-2008 12:37:01 20 C 9.68 g/m*3 20 C 0 km/h
1743 07-06-2008 12:49:01 20.7 C 9.36 g/m*3 20.7 C 0 km/h
1744 07-06-2008 13:01:02 20.6 C 9.49 g/m*3 20.6 C 0 km/h
1745 07-06-2008 13:13:02 20.8 C 9.6 g/m*3 20.8 C 0 km/h
1746 07-06-2008 13:25:02 21.2 C 9.27 g/m*3 21.2 C 0 km/h
1747 07-06-2008 13:37:01 23.1 C 8.89 g/m*3 23.1 C 0 km/h
1748 07-06-2008 13:49:01 22.9 C 9.2 g/m*3 22.9 C 0 km/h
1749 07-06-2008 14:01:01 23.2 C 8.94 g/m*3 23.2 C 0 km/h
1750 07-06-2008 14:13:01 23.3 C 8.78 g/m*3 23.3 C 0 km/h
Sensor: Nr:Datum:Temp:Abs-Feuchte:Windchill:Wind:
Aussen-T/F 1751 07-06-2008 14:25:02 23.7 C 8.98 g/m*3 23.7 C 0 km/h
1752 07-06-2008 14:37:02 24.1 C 8.97 g/m*3 24.1 C 0 km/h
1753 07-06-2008 14:49:02 24.2 C 9.02 g/m*3 24.2 C 0 km/h
1754 07-06-2008 15:01:01 23.9 C 9.09 g/m*3 23.9 C 0 km/h
1755 07-06-2008 15:13:01 23.6 C 9.57 g/m*3 23.6 C 0 km/h
1756 07-06-2008 15:25:01 23.1 C 8.89 g/m*3 23.1 C 0 km/h
1757 07-06-2008 15:37:02 23.9 C 8.87 g/m*3 23.9 C 0 km/h
1758 07-06-2008 15:49:01 25.3 C 9.36 g/m*3 25.3 C 0 km/h
1759 07-06-2008 16:01:02 25 C 9.21 g/m*3 25 C 0 km/h
1760 07-06-2008 16:13:02 25.4 C 9.18 g/m*3 25.4 C 0 km/h
1761 07-06-2008 16:25:01 25.5 C 9 g/m*3 25.5 C 0 km/h
1762 07-06-2008 16:37:01 26.3 C 8.91 g/m*3 26.3 C 0 km/h
1763 07-06-2008 16:49:01 26.6 C 8.56 g/m*3 26.6 C 0 km/h
1764 07-06-2008 17:01:02 25.8 C 8.91 g/m*3 25.8 C 0 km/h
1765 07-06-2008 17:13:02 26.3 C 9.16 g/m*3 26.3 C 0 km/h
1766 07-06-2008 17:25:01 25.6 C 8.57 g/m*3 25.6 C 0 km/h
1767 07-06-2008 17:37:01 26.2 C 8.62 g/m*3 26.2 C 0 km/h
1768 07-06-2008 17:49:01 26.5 C 8.76 g/m*3 26.5 C 0 km/h
1769 07-06-2008 18:01:02 25.8 C 8.67 g/m*3 25.8 C 0 km/h
1770 07-06-2008 18:13:02 25.3 C 8.66 g/m*3 25.3 C 0 km/h
1771 07-06-2008 18:25:02 25.3 C 8.9 g/m*3 25.3 C 0 km/h
1772 07-06-2008 18:37:01 24.3 C 9.07 g/m*3 24.3 C 0 km/h
1773 07-06-2008 18:49:02 24.6 C 8.78 g/m*3 24.6 C 0 km/h
1774 07-06-2008 19:01:01 24.2 C 8.58 g/m*3 24.2 C 0 km/h
1775 07-06-2008 19:13:01 22.7 C 9.29 g/m*3 22.7 C 0 km/h
Sensor: Nr:Datum:Temp:Abs-Feuchte:Windchill:Wind:
Aussen-T/F 1776 07-06-2008 19:25:01 22.7 C 9.29 g/m*3 22.7 C 0 km/h
1777 07-06-2008 19:37:02 22.2 C 9.23 g/m*3 22.2 C 0 km/h
1778 07-06-2008 19:49:02 22 C 9.12 g/m*3 22 C 0 km/h
1779 07-06-2008 20:01:01 21.5 C 9.43 g/m*3 21.5 C 0 km/h
1780 07-06-2008 20:13:01 21 C 9.34 g/m*3 21 C 0 km/h
1781 07-06-2008 20:25:01 21.3 C 9.51 g/m*3 21.3 C 0 km/h
1782 07-06-2008 20:37:02 21.1 C 9.58 g/m*3 21.1 C 0 km/h
1783 07-06-2008 20:49:01 20.9 C 9.65 g/m*3 20.9 C 0 km/h
1784 07-06-2008 21:01:01 20.4 C 9.55 g/m*3 20.4 C 0 km/h
1785 07-06-2008 21:13:01 20 C 9.51 g/m*3 20 C 0 km/h
1786 07-06-2008 21:25:02 19.6 C 9.79 g/m*3 19.6 C 0 km/h
1787 07-06-2008 21:37:01 19.4 C 9.84 g/m*3 19.4 C 0 km/h
1788 07-06-2008 21:49:01 18.8 C 9.66 g/m*3 18.8 C 0 km/h
1789 07-06-2008 22:01:01 18.9 C 9.88 g/m*3 18.9 C 0 km/h
1790 07-06-2008 22:13:01 18.9 C 9.88 g/m*3 18.9 C 0 km/h
1791 07-06-2008 22:25:02 18.8 C 9.82 g/m*3 18.8 C 0 km/h
1792 07-06-2008 22:37:01 18.5 C 9.65 g/m*3 18.5 C 0 km/h
1793 07-06-2008 22:49:01 18.4 C 9.75 g/m*3 18.4 C 0 km/h
1794 07-06-2008 23:02:02 18.1 C 9.89 g/m*3 18.1 C 0 km/h
1795 07-06-2008 23:14:02 18.2 C 9.79 g/m*3 18.2 C 0 km/h
1796 07-06-2008 23:26:02 18.3 C 9.69 g/m*3 18.3 C 0 km/h
1797 07-06-2008 23:38:02 18.1 C 9.73 g/m*3 18.1 C 0 km/h
1798 07-06-2008 23:50:02 18 C 9.68 g/m*3 18 C 0 km/h
1799 08-06-2008 00:02:02 17.9 C 9.92 g/m*3 17.9 C 0 km/h
1800 08-06-2008 00:14:02 17.8 C 10.02 g/m*3 17.8 C 0 km/h
Sensor: Nr:Datum:Temp:Abs-Feuchte:Windchill:Wind:
Aussen-T/F 1801 08-06-2008 00:26:02 17.5 C 9.99 g/m*3 17.5 C 0 km/h
1802 08-06-2008 00:38:02 17.4 C 10.08 g/m*3 17.4 C 0 km/h
1803 08-06-2008 00:50:02 17.6 C 10.2 g/m*3 17.6 C 0 km/h
1804 08-06-2008 01:02:02 17.5 C 10.14 g/m*3 17.5 C 0 km/h
1805 08-06-2008 01:14:03 17.8 C 10.17 g/m*3 17.8 C 0 km/h
1806 08-06-2008 01:26:03 17.5 C 9.99 g/m*3 17.5 C 0 km/h
1807 08-06-2008 01:38:03 17.2 C 9.96 g/m*3 17.2 C 0 km/h
1808 08-06-2008 01:50:03 17 C 9.98 g/m*3 17 C 0 km/h
1809 08-06-2008 02:02:03 17.1 C 10.04 g/m*3 17.1 C 0 km/h
1810 08-06-2008 02:14:03 17.5 C 10.29 g/m*3 17.5 C 0 km/h
1811 08-06-2008 02:26:03 17.1 C 10.19 g/m*3 17.1 C 0 km/h
1812 08-06-2008 02:38:03 17.2 C 10.4 g/m*3 17.2 C 0 km/h
1813 08-06-2008 02:50:03 17.2 C 10.25 g/m*3 17.2 C 0 km/h
1814 08-06-2008 03:02:03 17.2 C 10.4 g/m*3 17.2 C 0 km/h
1815 08-06-2008 03:14:03 17.1 C 10.34 g/m*3 17.1 C 0 km/h
1816 08-06-2008 03:26:03 17.2 C 10.54 g/m*3 17.2 C 0 km/h
1817 08-06-2008 03:38:03 16.9 C 10.5 g/m*3 16.9 C 0 km/h
1818 08-06-2008 03:50:03 17 C 10.42 g/m*3 17 C 0 km/h
1819 08-06-2008 04:02:03 16.8 C 10.44 g/m*3 16.8 C 0 km/h
1820 08-06-2008 04:14:03 16.6 C 10.45 g/m*3 16.6 C 0 km/h
1821 08-06-2008 04:26:03 16.7 C 10.52 g/m*3 16.7 C 0 km/h
1822 08-06-2008 04:38:03 16.7 C 10.52 g/m*3 16.7 C 0 km/h
1823 08-06-2008 04:50:03 16.4 C 10.33 g/m*3 16.4 C 0 km/h
1824 08-06-2008 05:02:03 16.3 C 10.54 g/m*3 16.3 C 0 km/h
1825 08-06-2008 05:14:04 16.1 C 10.42 g/m*3 16.1 C 0 km/h
Sensor: Nr:Datum:Temp:Abs-Feuchte:Windchill:Wind:
Aussen-T/F 1826 08-06-2008 05:26:04 16.2 C 10.48 g/m*3 16.2 C 0 km/h
1827 08-06-2008 05:38:04 16.1 C 10.28 g/m*3 16.1 C 0 km/h
1828 08-06-2008 05:50:04 16.1 C 10.28 g/m*3 16.1 C 0 km/h
1829 08-06-2008 06:02:04 16.2 C 10.34 g/m*3 16.2 C 0 km/h
1830 08-06-2008 06:14:04 16.2 C 10.34 g/m*3 16.2 C 0 km/h
1831 08-06-2008 06:26:04 16.1 C 10.42 g/m*3 16.1 C 0 km/h
1832 08-06-2008 06:38:04 16.1 C 10.28 g/m*3 16.1 C 0 km/h
1833 08-06-2008 06:50:04 16.1 C 10.28 g/m*3 16.1 C 0 km/h
1834 08-06-2008 07:02:04 16.1 C 10.14 g/m*3 16.1 C 0 km/h
1835 08-06-2008 07:14:04 16.1 C 10.28 g/m*3 16.1 C 0 km/h
1836 08-06-2008 07:26:04 16.2 C 10.2 g/m*3 16.2 C 0 km/h
1837 08-06-2008 07:38:04 16.3 C 10.27 g/m*3 16.3 C 0 km/h
1838 08-06-2008 07:50:04 16.4 C 10.33 g/m*3 16.4 C 0 km/h
1839 08-06-2008 08:02:04 16.3 C 10.27 g/m*3 16.3 C 0 km/h
1840 08-06-2008 08:14:04 16.6 C 10.31 g/m*3 16.6 C 0 km/h
1841 08-06-2008 08:26:04 16.6 C 10.17 g/m*3 16.6 C 0 km/h
1842 08-06-2008 08:38:04 16.6 C 10.17 g/m*3 16.6 C 0 km/h
1843 08-06-2008 08:50:04 16.7 C 10.23 g/m*3 16.7 C 0 km/h
1844 08-06-2008 09:02:02 16.8 C 10.01 g/m*3 16.8 C 0 km/h
1845 08-06-2008 09:14:02 17.3 C 10.16 g/m*3 17.3 C 0 km/h
1846 08-06-2008 09:26:02 17.7 C 10.11 g/m*3 17.7 C 0 km/h
1847 08-06-2008 09:38:02 17.9 C 10.23 g/m*3 17.9 C 0 km/h
1848 08-06-2008 09:50:03 18.3 C 9.69 g/m*3 18.3 C 0 km/h
1849 08-06-2008 10:02:02 18.4 C 9.91 g/m*3 18.4 C 0 km/h
1850 08-06-2008 10:14:02 18.7 C 9.61 g/m*3 18.7 C 0 km/h
Sensor: Nr:Datum:Temp:Abs-Feuchte:Windchill:Wind:
Aussen-T/F 1851 08-06-2008 10:26:02 18.5 C 9.65 g/m*3 18.5 C 0 km/h
1852 08-06-2008 10:38:02 18.9 C 9.88 g/m*3 18.9 C 0 km/h
1853 08-06-2008 10:50:02 19.7 C 9.51 g/m*3 19.7 C 0 km/h
1854 08-06-2008 11:02:01 20.4 C 9.55 g/m*3 20.4 C 0 km/h
1855 08-06-2008 11:14:01 20.8 C 9.42 g/m*3 20.8 C 0 km/h
1856 08-06-2008 11:26:02 20.9 C 9.47 g/m*3 20.9 C 0 km/h
1857 08-06-2008 11:38:01 20.6 C 9.49 g/m*3 20.6 C 0 km/h
1858 08-06-2008 11:50:02 20.4 C 9.38 g/m*3 20.4 C 0 km/h
1859 08-06-2008 12:02:01 21.6 C 9.29 g/m*3 21.6 C 0 km/h
1860 08-06-2008 12:14:01 22.8 C 9.14 g/m*3 22.8 C 0 km/h
1861 08-06-2008 12:26:02 21.7 C 9.54 g/m*3 21.7 C 0 km/h
1862 08-06-2008 12:38:02 22 C 8.93 g/m*3 22 C 0 km/h
1863 08-06-2008 12:50:02 24 C 9.36 g/m*3 24 C 0 km/h
1864 08-06-2008 13:02:02 23.7 C 8.98 g/m*3 23.7 C 0 km/h
1865 08-06-2008 13:14:02 25 C 8.98 g/m*3 25 C 0 km/h
1866 08-06-2008 13:26:03 25.3 C 8.43 g/m*3 25.3 C 0 km/h
1867 08-06-2008 13:38:02 25.2 C 8.85 g/m*3 25.2 C 0 km/h
1868 08-06-2008 13:50:01 25.6 C 8.57 g/m*3 25.6 C 0 km/h
1869 08-06-2008 14:02:01 25.5 C 8.76 g/m*3 25.5 C 0 km/h
1870 08-06-2008 14:14:01 24.4 C 9.35 g/m*3 24.4 C 0 km/h
1871 08-06-2008 14:26:02 23.6 C 9.78 g/m*3 23.6 C 0 km/h
1872 08-06-2008 14:38:01 22.9 C 10.22 g/m*3 22.9 C 0 km/h
1873 08-06-2008 14:50:02 23 C 9.87 g/m*3 23 C 0 km/h
1874 08-06-2008 15:02:02 23.8 C 9.9 g/m*3 23.8 C 0 km/h
1875 08-06-2008 15:14:02 25.6 C 10.24 g/m*3 25.6 C 0 km/h
Sensor: Nr:Datum:Temp:Abs-Feuchte:Windchill:Wind:
Aussen-T/F 1876 08-06-2008 15:26:02 26.9 C 9.21 g/m*3 26.9 C 0 km/h
1877 08-06-2008 15:38:01 26.2 C 9.6 g/m*3 26.2 C 0 km/h
1878 08-06-2008 15:50:01 25.7 C 9.82 g/m*3 25.7 C 0 km/h
1879 08-06-2008 16:02:02 24.5 C 9.62 g/m*3 24.5 C 0 km/h
1880 08-06-2008 16:14:02 24.8 C 10.02 g/m*3 24.8 C 0 km/h
1881 08-06-2008 16:26:02 26.5 C 9.01 g/m*3 26.5 C 0 km/h
1882 08-06-2008 16:38:01 26.7 C 9.11 g/m*3 26.7 C 0 km/h
1883 08-06-2008 16:50:02 27.4 C 9.21 g/m*3 27.4 C 0 km/h
1884 08-06-2008 17:02:02 28.2 C 9.35 g/m*3 28.2 C 0 km/h
1885 08-06-2008 17:14:02 28.3 C 9.4 g/m*3 28.3 C 0 km/h
1886 08-06-2008 17:26:02 27.4 C 9.21 g/m*3 27.4 C 0 km/h
1887 08-06-2008 17:38:02 27.7 C 9.36 g/m*3 27.7 C 0 km/h
1888 08-06-2008 17:50:02 28.3 C 9.4 g/m*3 28.3 C 0 km/h
1889 08-06-2008 18:02:02 27.7 C 9.36 g/m*3 27.7 C 0 km/h
1890 08-06-2008 18:14:02 27.7 C 9.9 g/m*3 27.7 C 0 km/h
1891 08-06-2008 18:26:02 28.6 C 9.27 g/m*3 28.6 C 0 km/h
1892 08-06-2008 18:38:02 28.7 C 9.89 g/m*3 28.7 C 0 km/h
1893 08-06-2008 18:50:02 28.2 C 9.62 g/m*3 28.2 C 0 km/h
1894 08-06-2008 19:02:01 27.1 C 9.58 g/m*3 27.1 C 0 km/h
1895 08-06-2008 19:14:01 27.3 C 10.2 g/m*3 27.3 C 0 km/h
1896 08-06-2008 19:26:02 26.6 C 10.32 g/m*3 26.6 C 0 km/h
1897 08-06-2008 19:38:01 24.5 C 11.41 g/m*3 24.5 C 0 km/h
1898 08-06-2008 19:50:03 23.1 C 11.99 g/m*3 23.1 C 0 km/h
1899 08-06-2008 20:02:02 23.2 C 12.06 g/m*3 23.2 C 0 km/h
1900 08-06-2008 20:14:02 23.4 C 12.2 g/m*3 23.4 C 0 km/h
Sensor: Nr:Datum:Temp:Abs-Feuchte:Windchill:Wind:
Aussen-T/F 1901 08-06-2008 20:26:02 23.7 C 12.41 g/m*3 23.7 C 0 km/h
1902 08-06-2008 20:38:02 23.2 C 12.06 g/m*3 23.2 C 0 km/h
1903 08-06-2008 20:50:02 23.2 C 11.85 g/m*3 23.2 C 0 km/h
1904 08-06-2008 21:02:02 21.6 C 12.9 g/m*3 21.6 C 0 km/h
1905 08-06-2008 21:14:02 20.4 C 12.38 g/m*3 20.4 C 0 km/h
1906 08-06-2008 21:26:02 20.2 C 11.71 g/m*3 20.2 C 0 km/h
1907 08-06-2008 21:38:02 20.1 C 11.3 g/m*3 20.1 C 0 km/h
1908 08-06-2008 21:50:02 20 C 11.06 g/m*3 20 C 0 km/h
1909 08-06-2008 22:02:02 20.1 C 11.3 g/m*3 20.1 C 0 km/h
1910 08-06-2008 22:14:02 20.2 C 11.54 g/m*3 20.2 C 0 km/h
1911 08-06-2008 22:26:02 20 C 11.41 g/m*3 20 C 0 km/h
1912 08-06-2008 22:38:02 19.7 C 11.21 g/m*3 19.7 C 0 km/h
1913 08-06-2008 22:50:02 19.3 C 11.11 g/m*3 19.3 C 0 km/h
1914 08-06-2008 23:02:02 19 C 10.76 g/m*3 19 C 0 km/h
1915 08-06-2008 23:14:02 18.7 C 10.73 g/m*3 18.7 C 0 km/h
1916 08-06-2008 23:26:03 18.5 C 10.44 g/m*3 18.5 C 0 km/h
1917 08-06-2008 23:38:03 18.5 C 10.44 g/m*3 18.5 C 0 km/h
1918 08-06-2008 23:50:02 18.4 C 10.22 g/m*3 18.4 C 0 km/h
1919 09-06-2008 00:02:02 18.2 C 10.26 g/m*3 18.2 C 0 km/h
1920 09-06-2008 00:14:02 18.1 C 10.04 g/m*3 18.1 C 0 km/h
1921 09-06-2008 00:26:02 17.9 C 10.23 g/m*3 17.9 C 0 km/h
1922 09-06-2008 00:38:02 17.8 C 10.02 g/m*3 17.8 C 0 km/h
1923 09-06-2008 00:50:01 17.7 C 10.26 g/m*3 17.7 C 0 km/h
1924 09-06-2008 01:02:02 17.5 C 10.44 g/m*3 17.5 C 0 km/h
1925 09-06-2008 01:14:02 17.3 C 10.31 g/m*3 17.3 C 0 km/h
Sensor: Nr:Datum:Temp:Abs-Feuchte:Windchill:Wind:
Aussen-T/F 1926 09-06-2008 01:26:02 17.2 C 10.25 g/m*3 17.2 C 0 km/h
1927 09-06-2008 01:38:02 17 C 10.42 g/m*3 17 C 0 km/h
1928 09-06-2008 01:50:02 16.8 C 10.44 g/m*3 16.8 C 0 km/h
1929 09-06-2008 02:02:02 16.6 C 10.45 g/m*3 16.6 C 0 km/h
1930 09-06-2008 02:14:03 16.5 C 10.39 g/m*3 16.5 C 0 km/h
1931 09-06-2008 02:26:02 16.3 C 10.41 g/m*3 16.3 C 0 km/h
1932 09-06-2008 02:38:02 16.2 C 10.34 g/m*3 16.2 C 0 km/h
1933 09-06-2008 02:50:01 16.1 C 10.28 g/m*3 16.1 C 0 km/h
1934 09-06-2008 03:02:01 16 C 10.22 g/m*3 16 C 0 km/h
1935 09-06-2008 03:14:02 15.8 C 10.36 g/m*3 15.8 C 0 km/h
1936 09-06-2008 03:26:02 15.6 C 10.37 g/m*3 15.6 C 0 km/h
1937 09-06-2008 03:38:01 15.4 C 10.25 g/m*3 15.4 C 0 km/h
1938 09-06-2008 03:50:01 15.4 C 10.25 g/m*3 15.4 C 0 km/h
1939 09-06-2008 04:02:02 15.2 C 10.25 g/m*3 15.2 C 0 km/h
1940 09-06-2008 04:14:02 15.1 C 10.32 g/m*3 15.1 C 0 km/h
1941 09-06-2008 04:26:01 14.9 C 10.32 g/m*3 14.9 C 0 km/h
1942 09-06-2008 04:38:01 14.8 C 10.39 g/m*3 14.8 C 0 km/h
1943 09-06-2008 04:50:01 14.7 C 10.32 g/m*3 14.7 C 0 km/h
1944 09-06-2008 05:02:01 14.7 C 10.45 g/m*3 14.7 C 0 km/h
1945 09-06-2008 05:14:01 14.6 C 10.39 g/m*3 14.6 C 0 km/h
1946 09-06-2008 05:26:02 14.3 C 10.2 g/m*3 14.3 C 0 km/h
1947 09-06-2008 05:38:01 14.1 C 10.19 g/m*3 14.1 C 0 km/h
1948 09-06-2008 05:50:01 14.2 C 10.26 g/m*3 14.2 C 0 km/h
1949 09-06-2008 06:02:02 14.1 C 10.19 g/m*3 14.1 C 0 km/h
1950 09-06-2008 06:14:02 14.1 C 10.32 g/m*3 14.1 C 0 km/h
Sensor: Nr:Datum:Temp:Abs-Feuchte:Windchill:Wind:
Aussen-T/F 1951 09-06-2008 06:26:01 14.2 C 10.38 g/m*3 14.2 C 0 km/h
1952 09-06-2008 06:38:01 14.2 C 10.38 g/m*3 14.2 C 0 km/h
1953 09-06-2008 06:50:01 14.3 C 10.57 g/m*3 14.3 C 0 km/h
1954 09-06-2008 07:02:02 14.3 C 10.57 g/m*3 14.3 C 0 km/h
1955 09-06-2008 07:14:02 14.4 C 10.63 g/m*3 14.4 C 0 km/h
1956 09-06-2008 07:26:01 14.5 C 10.82 g/m*3 14.5 C 0 km/h
1957 09-06-2008 07:38:01 14.7 C 10.83 g/m*3 14.7 C 0 km/h
1958 09-06-2008 07:50:01 14.8 C 10.89 g/m*3 14.8 C 0 km/h
1959 09-06-2008 08:02:02 15 C 10.9 g/m*3 15 C 0 km/h
1960 09-06-2008 08:14:02 15.4 C 11.17 g/m*3 15.4 C 0 km/h
1961 09-06-2008 08:26:02 15.8 C 11.31 g/m*3 15.8 C 0 km/h
1962 09-06-2008 08:38:01 16.1 C 11.24 g/m*3 16.1 C 0 km/h
1963 09-06-2008 08:50:01 16.6 C 11.44 g/m*3 16.6 C 0 km/h
1964 09-06-2008 09:02:02 17.3 C 11.64 g/m*3 17.3 C 0 km/h
1965 09-06-2008 09:14:02 18 C 11.67 g/m*3 18 C 0 km/h
1966 09-06-2008 09:26:01 18.8 C 11.76 g/m*3 18.8 C 0 km/h
1967 09-06-2008 09:38:01 19.5 C 11.41 g/m*3 19.5 C 0 km/h
1968 09-06-2008 09:50:01 20.2 C 11.19 g/m*3 20.2 C 0 km/h
1969 09-06-2008 10:02:02 20.8 C 10.68 g/m*3 20.8 C 0 km/h
1970 09-06-2008 10:14:02 21.4 C 10.69 g/m*3 21.4 C 0 km/h
1971 09-06-2008 10:26:01 22.1 C 10.35 g/m*3 22.1 C 0 km/h
1972 09-06-2008 10:38:01 22.8 C 10.16 g/m*3 22.8 C 0 km/h
1973 09-06-2008 10:50:01 23.3 C 9.62 g/m*3 23.3 C 0 km/h
1974 09-06-2008 11:02:02 24 C 9.57 g/m*3 24 C 0 km/h
1975 09-06-2008 11:14:02 24.1 C 8.53 g/m*3 24.1 C 0 km/h
Sensor: Nr:Datum:Temp:Abs-Feuchte:Windchill:Wind:
Aussen-T/F 1976 09-06-2008 11:26:01 25 C 8.52 g/m*3 25 C 0 km/h
1977 09-06-2008 11:38:01 26.1 C 8.32 g/m*3 26.1 C 0 km/h
1978 09-06-2008 11:50:01 26.6 C 8.31 g/m*3 26.6 C 0 km/h
1979 09-06-2008 12:02:02 27.2 C 8.07 g/m*3 27.2 C 0 km/h
1980 09-06-2008 12:14:02 27.3 C 7.85 g/m*3 27.3 C 0 km/h
1981 09-06-2008 12:26:01 27.4 C 7.89 g/m*3 27.4 C 0 km/h
1982 09-06-2008 12:38:01 27.9 C 7.3 g/m*3 27.9 C 0 km/h
1983 09-06-2008 12:50:01 29.3 C 7.59 g/m*3 29.3 C 0 km/h
1984 09-06-2008 13:02:02 29.8 C 6.9 g/m*3 29.8 C 0 km/h
1985 09-06-2008 13:14:02 30.4 C 7.13 g/m*3 30.4 C 0 km/h
1986 09-06-2008 13:26:01 30.4 C 6.82 g/m*3 30.4 C 0 km/h
1987 09-06-2008 13:38:01 30.3 C 7.09 g/m*3 30.3 C 0 km/h
1988 09-06-2008 13:50:01 30 C 6.97 g/m*3 30 C 0 km/h
1989 09-06-2008 14:02:02 29 C 8.04 g/m*3 29 C 0 km/h
1990 09-06-2008 14:14:02 28.9 C 8.57 g/m*3 28.9 C 0 km/h
1991 09-06-2008 14:26:01 28.2 C 7.7 g/m*3 28.2 C 0 km/h
1992 09-06-2008 14:38:01 29.4 C 7.93 g/m*3 29.4 C 0 km/h
1993 09-06-2008 14:50:01 30.1 C 7.32 g/m*3 30.1 C 0 km/h
1994 09-06-2008 15:02:02 30.5 C 6.54 g/m*3 30.5 C 0 km/h
1995 09-06-2008 15:14:02 30.1 C 7.01 g/m*3 30.1 C 0 km/h
1996 09-06-2008 15:26:01 30.3 C 6.47 g/m*3 30.3 C 0 km/h
1997 09-06-2008 15:38:01 31.2 C 6.47 g/m*3 31.2 C 0 km/h
1998 09-06-2008 15:50:01 30.9 C 6.37 g/m*3 30.9 C 0 km/h
1999 09-06-2008 16:02:02 30.1 C 6.1 g/m*3 30.1 C 0 km/h
2000 09-06-2008 16:14:02 30.2 C 6.44 g/m*3 30.2 C 0 km/h
Sensor: Nr:Datum:Temp:Abs-Feuchte:Windchill:Wind:
Aussen-T/F 2001 09-06-2008 16:26:01 30.4 C 6.2 g/m*3 30.4 C 0 km/h
2002 09-06-2008 16:38:01 30.7 C 6.3 g/m*3 30.7 C 0 km/h
2003 09-06-2008 16:50:01 31.4 C 6.54 g/m*3 31.4 C 0 km/h
2004 09-06-2008 17:02:02 31 C 6.4 g/m*3 31 C 0 km/h
2005 09-06-2008 17:14:02 31.4 C 6.54 g/m*3 31.4 C 0 km/h
2006 09-06-2008 17:26:01 31.8 C 6.68 g/m*3 31.8 C 0 km/h
2007 09-06-2008 17:38:01 31.9 C 6.72 g/m*3 31.9 C 0 km/h
2008 09-06-2008 17:50:01 31.5 C 6.57 g/m*3 31.5 C 0 km/h
2009 09-06-2008 18:02:02 31 C 6.4 g/m*3 31 C 0 km/h
2010 09-06-2008 18:14:02 31.4 C 6.54 g/m*3 31.4 C 0 km/h
2011 09-06-2008 18:26:02 30.9 C 6.37 g/m*3 30.9 C 0 km/h
2012 09-06-2008 18:38:01 31.4 C 6.54 g/m*3 31.4 C 0 km/h
2013 09-06-2008 18:50:01 32 C 6.75 g/m*3 32 C 0 km/h
2014 09-06-2008 19:02:01 31.8 C 6.68 g/m*3 31.8 C 0 km/h
2015 09-06-2008 19:14:01 31.4 C 6.54 g/m*3 31.4 C 0 km/h
2016 09-06-2008 19:26:02 30.6 C 6.26 g/m*3 30.6 C 0 km/h
2017 09-06-2008 19:38:01 30.6 C 6.26 g/m*3 30.6 C 0 km/h
2018 09-06-2008 19:50:01 30.6 C 6.26 g/m*3 30.6 C 0 km/h
2019 09-06-2008 20:02:01 30.4 C 6.2 g/m*3 30.4 C 0 km/h
2020 09-06-2008 20:14:01 29.7 C 6.27 g/m*3 29.7 C 0 km/h
2021 09-06-2008 20:26:02 29.2 C 5.81 g/m*3 29.2 C 0 km/h
2022 09-06-2008 20:38:01 28.6 C 6.18 g/m*3 28.6 C 0 km/h
2023 09-06-2008 20:50:01 28.3 C 6.63 g/m*3 28.3 C 0 km/h
2024 09-06-2008 21:02:01 27.2 C 6.51 g/m*3 27.2 C 0 km/h
2025 09-06-2008 21:14:01 26.5 C 6.76 g/m*3 26.5 C 0 km/h
Sensor: Nr:Datum:Temp:Abs-Feuchte:Windchill:Wind:
Aussen-T/F 2026 09-06-2008 21:26:02 25.7 C 6.7 g/m*3 25.7 C 0 km/h
2027 09-06-2008 21:38:01 25.4 C 7.3 g/m*3 25.4 C 0 km/h
2028 09-06-2008 21:50:01 24.6 C 7.2 g/m*3 24.6 C 0 km/h
2029 09-06-2008 22:02:01 23.9 C 7.79 g/m*3 23.9 C 0 km/h
2030 09-06-2008 22:14:01 23.4 C 7.57 g/m*3 23.4 C 0 km/h
2031 09-06-2008 22:27:02 23.2 C 7.28 g/m*3 23.2 C 0 km/h
2032 09-06-2008 22:39:02 23 C 7.4 g/m*3 23 C 0 km/h
2033 09-06-2008 22:51:02 22.6 C 7.63 g/m*3 22.6 C 0 km/h
2034 09-06-2008 23:03:02 22.2 C 7.46 g/m*3 22.2 C 0 km/h
2035 09-06-2008 23:15:02 21.8 C 7.67 g/m*3 21.8 C 0 km/h
2036 09-06-2008 23:27:02 21.6 C 7.78 g/m*3 21.6 C 0 km/h
2037 09-06-2008 23:39:02 21.4 C 7.87 g/m*3 21.4 C 0 km/h
2038 09-06-2008 23:51:02 21.1 C 7.92 g/m*3 21.1 C 0 km/h
2039 10-06-2008 00:03:02 21 C 7.88 g/m*3 21 C 0 km/h
2040 10-06-2008 00:15:02 20.8 C 8.33 g/m*3 20.8 C 0 km/h
2041 10-06-2008 00:27:02 20.5 C 8.36 g/m*3 20.5 C 0 km/h
2042 10-06-2008 00:39:02 20.2 C 8.22 g/m*3 20.2 C 0 km/h
2043 10-06-2008 00:51:02 19.7 C 8.49 g/m*3 19.7 C 0 km/h
2044 10-06-2008 01:03:02 19.5 C 8.39 g/m*3 19.5 C 0 km/h
2045 10-06-2008 01:15:02 19.2 C 8.41 g/m*3 19.2 C 0 km/h
2046 10-06-2008 01:27:02 18.8 C 8.86 g/m*3 18.8 C 0 km/h
2047 10-06-2008 01:39:02 18.4 C 8.97 g/m*3 18.4 C 0 km/h
2048 10-06-2008 01:51:02 18.3 C 8.76 g/m*3 18.3 C 0 km/h
2049 10-06-2008 02:03:02 18.3 C 8.76 g/m*3 18.3 C 0 km/h
2050 10-06-2008 02:15:03 17.8 C 8.95 g/m*3 17.8 C 0 km/h
Sensor: Nr:Datum:Temp:Abs-Feuchte:Windchill:Wind:
Aussen-T/F 2051 10-06-2008 02:27:03 17.7 C 9.05 g/m*3 17.7 C 0 km/h
2052 10-06-2008 02:39:03 17.7 C 9.05 g/m*3 17.7 C 0 km/h
2053 10-06-2008 02:51:03 17.3 C 9.13 g/m*3 17.3 C 0 km/h
2054 10-06-2008 03:03:03 17 C 8.97 g/m*3 17 C 0 km/h
2055 10-06-2008 03:15:03 17 C 8.97 g/m*3 17 C 0 km/h
2056 10-06-2008 03:27:03 16.9 C 9.06 g/m*3 16.9 C 0 km/h
2057 10-06-2008 03:39:03 16.8 C 9.15 g/m*3 16.8 C 0 km/h
2058 10-06-2008 03:51:03 16.6 C 9.18 g/m*3 16.6 C 0 km/h
2059 10-06-2008 04:03:03 16.3 C 9.16 g/m*3 16.3 C 0 km/h
2060 10-06-2008 04:15:03 16.1 C 9.05 g/m*3 16.1 C 0 km/h
2061 10-06-2008 04:27:03 15.7 C 9.37 g/m*3 15.7 C 0 km/h
2062 10-06-2008 04:39:03 15.6 C 9.44 g/m*3 15.6 C 0 km/h
2063 10-06-2008 04:51:03 15.6 C 9.44 g/m*3 15.6 C 0 km/h
2064 10-06-2008 05:03:03 15.4 C 9.33 g/m*3 15.4 C 0 km/h
2065 10-06-2008 05:15:03 15.4 C 9.33 g/m*3 15.4 C 0 km/h
2066 10-06-2008 05:27:03 15.1 C 9.42 g/m*3 15.1 C 0 km/h
2067 10-06-2008 05:39:03 15 C 9.36 g/m*3 15 C 0 km/h
2068 10-06-2008 05:51:03 15 C 9.36 g/m*3 15 C 0 km/h
2069 10-06-2008 06:03:03 15.1 C 9.42 g/m*3 15.1 C 0 km/h
2070 10-06-2008 06:15:04 15 C 9.49 g/m*3 15 C 0 km/h
2071 10-06-2008 06:27:04 15.2 C 9.61 g/m*3 15.2 C 0 km/h
2072 10-06-2008 06:39:04 15.2 C 9.61 g/m*3 15.2 C 0 km/h
2073 10-06-2008 06:51:04 15 C 9.62 g/m*3 15 C 0 km/h
2074 10-06-2008 07:03:02 15.1 C 9.68 g/m*3 15.1 C 0 km/h
2075 10-06-2008 07:15:02 15.2 C 9.73 g/m*3 15.2 C 0 km/h
Sensor: Nr:Datum:Temp:Abs-Feuchte:Windchill:Wind:
Aussen-T/F 2076 10-06-2008 07:27:02 15.6 C 9.84 g/m*3 15.6 C 0 km/h
2077 10-06-2008 07:39:01 15.8 C 9.69 g/m*3 15.8 C 0 km/h
2078 10-06-2008 07:51:01 16.2 C 9.93 g/m*3 16.2 C 0 km/h
2079 10-06-2008 08:03:02 16.5 C 9.83 g/m*3 16.5 C 0 km/h
2080 10-06-2008 08:15:02 16.7 C 9.81 g/m*3 16.7 C 0 km/h
2081 10-06-2008 08:27:03 16.9 C 9.78 g/m*3 16.9 C 0 km/h
2082 10-06-2008 08:39:01 17.5 C 9.99 g/m*3 17.5 C 0 km/h
2083 10-06-2008 08:51:01 17.9 C 10.23 g/m*3 17.9 C 0 km/h
2084 10-06-2008 09:03:02 18.6 C 10.19 g/m*3 18.6 C 0 km/h
2085 10-06-2008 09:15:02 19.1 C 10.16 g/m*3 19.1 C 0 km/h
2086 10-06-2008 09:27:03 19.6 C 10.13 g/m*3 19.6 C 0 km/h
2087 10-06-2008 09:39:01 20.4 C 9.91 g/m*3 20.4 C 0 km/h
2088 10-06-2008 09:51:01 21.5 C 9.99 g/m*3 21.5 C 0 km/h
2089 10-06-2008 10:03:02 22 C 9.9 g/m*3 22 C 0 km/h
2090 10-06-2008 10:15:02 22.6 C 9.84 g/m*3 22.6 C 0 km/h
2091 10-06-2008 10:27:03 23.5 C 9.94 g/m*3 23.5 C 0 km/h
2092 10-06-2008 10:39:01 24 C 9.57 g/m*3 24 C 0 km/h
2093 10-06-2008 10:51:02 24.6 C 9.23 g/m*3 24.6 C 0 km/h
2094 10-06-2008 11:03:02 25.3 C 9.13 g/m*3 25.3 C 0 km/h
2095 10-06-2008 11:15:02 25.6 C 8.57 g/m*3 25.6 C 0 km/h
2096 10-06-2008 11:27:02 26.3 C 8.91 g/m*3 26.3 C 0 km/h
2097 10-06-2008 11:39:02 26.8 C 8.4 g/m*3 26.8 C 0 km/h
2098 10-06-2008 11:51:02 27.6 C 8.25 g/m*3 27.6 C 0 km/h
2099 10-06-2008 12:03:02 28.1 C 8.2 g/m*3 28.1 C 0 km/h
2100 10-06-2008 12:15:01 28.5 C 7.55 g/m*3 28.5 C 0 km/h
Sensor: Nr:Datum:Temp:Abs-Feuchte:Windchill:Wind:
Aussen-T/F 2101 10-06-2008 12:27:01 29.8 C 7.8 g/m*3 29.8 C 0 km/h
2102 10-06-2008 12:39:02 30.6 C 7.2 g/m*3 30.6 C 0 km/h
2103 10-06-2008 12:51:03 30.7 C 6.61 g/m*3 30.7 C 0 km/h
2104 10-06-2008 13:03:02 30.3 C 6.47 g/m*3 30.3 C 0 km/h
2105 10-06-2008 13:15:02 30.4 C 6.51 g/m*3 30.4 C 0 km/h
2106 10-06-2008 13:27:02 30.4 C 6.2 g/m*3 30.4 C 0 km/h
2107 10-06-2008 13:39:03 31.2 C 6.47 g/m*3 31.2 C 0 km/h
2108 10-06-2008 13:51:02 31.4 C 6.54 g/m*3 31.4 C 0 km/h
2109 10-06-2008 14:03:02 30 C 6.06 g/m*3 30 C 0 km/h
2110 10-06-2008 14:15:01 30 C 6.37 g/m*3 30 C 0 km/h
2111 10-06-2008 14:27:01 30 C 6.06 g/m*3 30 C 0 km/h
2112 10-06-2008 14:39:02 29.5 C 5.9 g/m*3 29.5 C 0 km/h
2113 10-06-2008 14:51:02 30.2 C 6.13 g/m*3 30.2 C 0 km/h
2114 10-06-2008 15:03:02 30.3 C 6.16 g/m*3 30.3 C 0 km/h
2115 10-06-2008 15:15:03 30.2 C 6.44 g/m*3 30.2 C 0 km/h
2116 10-06-2008 15:27:03 30.6 C 6.26 g/m*3 30.6 C 0 km/h
2117 10-06-2008 15:39:02 30.7 C 6.3 g/m*3 30.7 C 0 km/h
2118 10-06-2008 15:51:02 30.7 C 6.3 g/m*3 30.7 C 0 km/h
2119 10-06-2008 16:03:01 30.9 C 6.37 g/m*3 30.9 C 0 km/h
2120 10-06-2008 16:15:02 30.5 C 6.23 g/m*3 30.5 C 0 km/h
2121 10-06-2008 16:27:02 30.7 C 6.3 g/m*3 30.7 C 0 km/h
2122 10-06-2008 16:39:02 31 C 6.4 g/m*3 31 C 0 km/h
2123 10-06-2008 16:51:02 31.2 C 6.47 g/m*3 31.2 C 0 km/h
2124 10-06-2008 17:03:02 31 C 6.4 g/m*3 31 C 0 km/h
2125 10-06-2008 17:15:02 30.6 C 6.58 g/m*3 30.6 C 0 km/h
Sensor: Nr:Datum:Temp:Abs-Feuchte:Windchill:Wind:
Aussen-T/F 2126 10-06-2008 17:27:02 31 C 6.72 g/m*3 31 C 0 km/h
2127 10-06-2008 17:39:02 30.6 C 6.58 g/m*3 30.6 C 0 km/h
2128 10-06-2008 17:51:01 30.6 C 6.58 g/m*3 30.6 C 0 km/h
2129 10-06-2008 18:03:01 30.3 C 6.78 g/m*3 30.3 C 0 km/h
2130 10-06-2008 18:15:02 30.6 C 6.58 g/m*3 30.6 C 0 km/h
2131 10-06-2008 18:27:02 31.2 C 6.47 g/m*3 31.2 C 0 km/h
2132 10-06-2008 18:39:01 30.6 C 6.26 g/m*3 30.6 C 0 km/h
2133 10-06-2008 18:51:02 30.3 C 6.47 g/m*3 30.3 C 0 km/h
2134 10-06-2008 19:03:01 30.3 C 6.47 g/m*3 30.3 C 0 km/h
2135 10-06-2008 19:15:02 30.3 C 6.16 g/m*3 30.3 C 0 km/h
2136 10-06-2008 19:27:02 29.4 C 6.46 g/m*3 29.4 C 0 km/h
2137 10-06-2008 19:39:02 29.1 C 7.22 g/m*3 29.1 C 0 km/h
2138 10-06-2008 19:51:02 29.6 C 7.42 g/m*3 29.6 C 0 km/h
2139 10-06-2008 20:03:02 29.4 C 7.34 g/m*3 29.4 C 0 km/h
2140 10-06-2008 20:15:02 29 C 7.18 g/m*3 29 C 0 km/h
2141 10-06-2008 20:27:02 28.7 C 7.63 g/m*3 28.7 C 0 km/h
2142 10-06-2008 20:39:02 27.2 C 7.81 g/m*3 27.2 C 0 km/h
2143 10-06-2008 20:51:02 26.8 C 7.89 g/m*3 26.8 C 0 km/h
2144 10-06-2008 21:03:02 26.6 C 8.05 g/m*3 26.6 C 0 km/h
2145 10-06-2008 21:15:03 26.1 C 8.08 g/m*3 26.1 C 0 km/h
2146 10-06-2008 21:27:03 25.2 C 8.15 g/m*3 25.2 C 0 km/h
2147 10-06-2008 21:39:02 24.9 C 8.47 g/m*3 24.9 C 0 km/h
2148 10-06-2008 21:51:01 24.6 C 8.78 g/m*3 24.6 C 0 km/h
2149 10-06-2008 22:03:02 24.2 C 8.58 g/m*3 24.2 C 0 km/h
2150 10-06-2008 22:15:02 23.9 C 8.87 g/m*3 23.9 C 0 km/h
Sensor: Nr:Datum:Temp:Abs-Feuchte:Windchill:Wind:
Aussen-T/F 2151 10-06-2008 22:27:02 23.5 C 9.09 g/m*3 23.5 C 0 km/h
2152 10-06-2008 22:39:01 23.1 C 9.3 g/m*3 23.1 C 0 km/h
2153 10-06-2008 22:51:02 22.8 C 9.75 g/m*3 22.8 C 0 km/h
2154 10-06-2008 23:03:02 22.6 C 9.84 g/m*3 22.6 C 0 km/h
2155 10-06-2008 23:16:02 22.5 C 9.79 g/m*3 22.5 C 0 km/h
2156 10-06-2008 23:28:02 22.6 C 10.04 g/m*3 22.6 C 0 km/h
2157 10-06-2008 23:40:02 22 C 9.7 g/m*3 22 C 0 km/h
2158 10-06-2008 23:52:02 21.7 C 9.73 g/m*3 21.7 C 0 km/h
2159 11-06-2008 00:04:03 21.3 C 9.69 g/m*3 21.3 C 0 km/h
2160 11-06-2008 00:16:03 20.9 C 9.83 g/m*3 20.9 C 0 km/h
2161 11-06-2008 00:28:03 20.8 C 9.96 g/m*3 20.8 C 0 km/h
2162 11-06-2008 00:40:03 20.7 C 9.9 g/m*3 20.7 C 0 km/h
2163 11-06-2008 00:52:03 20.3 C 9.85 g/m*3 20.3 C 0 km/h
2164 11-06-2008 01:04:03 20 C 9.68 g/m*3 20 C 0 km/h
2165 11-06-2008 01:16:03 19.8 C 9.74 g/m*3 19.8 C 0 km/h
2166 11-06-2008 01:28:03 19.6 C 9.45 g/m*3 19.6 C 0 km/h
2167 11-06-2008 01:40:03 19.5 C 9.4 g/m*3 19.5 C 0 km/h
2168 11-06-2008 01:52:03 19.1 C 9.34 g/m*3 19.1 C 0 km/h
2169 11-06-2008 02:04:03 18.9 C 9.4 g/m*3 18.9 C 0 km/h
2170 11-06-2008 02:16:03 18.7 C 9.29 g/m*3 18.7 C 0 km/h
2171 11-06-2008 02:28:03 18.5 C 9.18 g/m*3 18.5 C 0 km/h
2172 11-06-2008 02:40:03 18.3 C 9.07 g/m*3 18.3 C 0 km/h
2173 11-06-2008 02:52:03 18.1 C 8.96 g/m*3 18.1 C 0 km/h
2174 11-06-2008 03:04:03 17.9 C 9.01 g/m*3 17.9 C 0 km/h
2175 11-06-2008 03:16:03 17.6 C 8.85 g/m*3 17.6 C 0 km/h
Sensor: Nr:Datum:Temp:Abs-Feuchte:Windchill:Wind:
Aussen-T/F 2176 11-06-2008 03:28:03 17.4 C 8.89 g/m*3 17.4 C 0 km/h
2177 11-06-2008 03:40:03 16.8 C 8.72 g/m*3 16.8 C 0 km/h
2178 11-06-2008 03:52:04 16.5 C 8.57 g/m*3 16.5 C 0 km/h
2179 11-06-2008 04:04:04 16.4 C 8.51 g/m*3 16.4 C 0 km/h
2180 11-06-2008 04:16:04 16.2 C 8.41 g/m*3 16.2 C 0 km/h
2181 11-06-2008 04:28:04 16.2 C 8.41 g/m*3 16.2 C 0 km/h
2182 11-06-2008 04:40:04 16 C 8.31 g/m*3 16 C 0 km/h
2183 11-06-2008 04:52:04 16.1 C 8.36 g/m*3 16.1 C 0 km/h
2184 11-06-2008 05:04:04 15.9 C 8.26 g/m*3 15.9 C 0 km/h
2185 11-06-2008 05:16:04 15.4 C 8.28 g/m*3 15.4 C 0 km/h
2186 11-06-2008 05:28:04 15 C 8.21 g/m*3 15 C 0 km/h
2187 11-06-2008 05:40:04 14.8 C 8.23 g/m*3 14.8 C 0 km/h
2188 11-06-2008 05:52:04 15 C 8.08 g/m*3 15 C 0 km/h
2189 11-06-2008 06:04:04 14.9 C 8.16 g/m*3 14.9 C 0 km/h
2190 11-06-2008 06:16:04 15 C 8.21 g/m*3 15 C 0 km/h
2191 11-06-2008 06:28:04 15 C 8.21 g/m*3 15 C 0 km/h
2192 11-06-2008 06:40:04 15 C 8.21 g/m*3 15 C 0 km/h
2193 11-06-2008 06:52:04 15 C 8.21 g/m*3 15 C 0 km/h
2194 11-06-2008 07:04:04 15.2 C 8.05 g/m*3 15.2 C 0 km/h
2195 11-06-2008 07:16:04 15.1 C 8 g/m*3 15.1 C 0 km/h
2196 11-06-2008 07:28:04 14.9 C 8.16 g/m*3 14.9 C 0 km/h
2197 11-06-2008 07:40:04 14.8 C 8.23 g/m*3 14.8 C 0 km/h
2198 11-06-2008 07:52:05 15.3 C 8.1 g/m*3 15.3 C 0 km/h
2199 11-06-2008 08:04:05 15.2 C 7.92 g/m*3 15.2 C 0 km/h
2200 11-06-2008 08:16:05 15.1 C 8 g/m*3 15.1 C 0 km/h
Sensor: Nr:Datum:Temp:Abs-Feuchte:Windchill:Wind:
Aussen-T/F 2201 11-06-2008 08:28:05 15.4 C 8.01 g/m*3 15.4 C 0 km/h
2202 11-06-2008 08:40:05 15.6 C 7.58 g/m*3 15.6 C 0 km/h
2203 11-06-2008 08:52:05 15.7 C 7.63 g/m*3 15.7 C 0 km/h
2204 11-06-2008 09:04:05 16 C 7.49 g/m*3 16 C 0 km/h
2205 11-06-2008 09:16:05 15.9 C 7.45 g/m*3 15.9 C 0 km/h
2206 11-06-2008 09:28:05 15.8 C 7.27 g/m*3 15.8 C 0 km/h
2207 11-06-2008 09:40:03 16.6 C 7.35 g/m*3 16.6 C 0 km/h
2208 11-06-2008 09:52:02 16.7 C 6.96 g/m*3 16.7 C 0 km/h
2209 11-06-2008 10:04:02 16.3 C 6.66 g/m*3 16.3 C 0 km/h
2210 11-06-2008 10:16:02 17 C 6.8 g/m*3 17 C 0 km/h
2211 11-06-2008 10:28:02 17.5 C 6.86 g/m*3 17.5 C 0 km/h
2212 11-06-2008 10:40:02 18.1 C 6.64 g/m*3 18.1 C 0 km/h
2213 11-06-2008 10:52:02 18.7 C 6.72 g/m*3 18.7 C 0 km/h
2214 11-06-2008 11:04:02 18.4 C 6.29 g/m*3 18.4 C 0 km/h
2215 11-06-2008 11:16:01 19.8 C 6.15 g/m*3 19.8 C 0 km/h
2216 11-06-2008 11:28:01 20.2 C 5.94 g/m*3 20.2 C 0 km/h
2217 11-06-2008 11:40:02 19.4 C 6.01 g/m*3 19.4 C 0 km/h
2218 11-06-2008 11:52:01 20.5 C 5.87 g/m*3 20.5 C 0 km/h
2219 11-06-2008 12:04:02 20.6 C 6.09 g/m*3 20.6 C 0 km/h
2220 11-06-2008 12:16:01 21 C 5.86 g/m*3 21 C 0 km/h
2221 11-06-2008 12:28:01 21.5 C 5.66 g/m*3 21.5 C 0 km/h
2222 11-06-2008 12:40:01 20.8 C 5.79 g/m*3 20.8 C 0 km/h
2223 11-06-2008 12:52:01 20.9 C 5.83 g/m*3 20.9 C 0 km/h
2224 11-06-2008 13:04:02 21 C 5.5 g/m*3 21 C 0 km/h
2225 11-06-2008 13:16:02 21.5 C 6.03 g/m*3 21.5 C 0 km/h
Sensor: Nr:Datum:Temp:Abs-Feuchte:Windchill:Wind:
Aussen-T/F 2226 11-06-2008 13:28:02 21.2 C 5.74 g/m*3 21.2 C 0 km/h
2227 11-06-2008 13:40:01 21.5 C 6.22 g/m*3 21.5 C 0 km/h
2228 11-06-2008 13:52:02 21.5 C 5.85 g/m*3 21.5 C 0 km/h
2229 11-06-2008 14:04:01 21.8 C 5.37 g/m*3 21.8 C 0 km/h
2230 11-06-2008 14:16:02 21.8 C 5.37 g/m*3 21.8 C 0 km/h
2231 11-06-2008 14:28:02 22.2 C 4.91 g/m*3 22.2 C 0 km/h
2232 11-06-2008 14:40:02 23.1 C 5.37 g/m*3 23.1 C 0 km/h
2233 11-06-2008 14:52:04 22 C 5.05 g/m*3 22 C 0 km/h
2234 11-06-2008 15:04:03 22.9 C 5.11 g/m*3 22.9 C 0 km/h
2235 11-06-2008 15:16:02 22.5 C 5.39 g/m*3 22.5 C 0 km/h
2236 11-06-2008 15:28:02 22.3 C 5.13 g/m*3 22.3 C 0 km/h
2237 11-06-2008 15:40:03 22.3 C 5.53 g/m*3 22.3 C 0 km/h
2238 11-06-2008 15:52:02 21.2 C 5.56 g/m*3 21.2 C 0 km/h
2239 11-06-2008 16:04:02 21.5 C 5.85 g/m*3 21.5 C 0 km/h
2240 11-06-2008 16:16:02 20.8 C 5.98 g/m*3 20.8 C 0 km/h
2241 11-06-2008 16:28:02 20.2 C 5.94 g/m*3 20.2 C 0 km/h
2242 11-06-2008 16:40:01 20.4 C 6.01 g/m*3 20.4 C 0 km/h
2243 11-06-2008 16:52:02 21.1 C 5.9 g/m*3 21.1 C 0 km/h
2244 11-06-2008 17:04:01 20.8 C 5.79 g/m*3 20.8 C 0 km/h
2245 11-06-2008 17:16:02 21.6 C 5.88 g/m*3 21.6 C 0 km/h
2246 11-06-2008 17:28:02 21 C 5.86 g/m*3 21 C 0 km/h
2247 11-06-2008 17:40:02 21.1 C 5.9 g/m*3 21.1 C 0 km/h
2248 11-06-2008 17:52:02 21.7 C 6.1 g/m*3 21.7 C 0 km/h
2249 11-06-2008 18:04:01 22.1 C 6.05 g/m*3 22.1 C 0 km/h
2250 11-06-2008 18:16:01 21.7 C 5.91 g/m*3 21.7 C 0 km/h
Sensor: Nr:Datum:Temp:Abs-Feuchte:Windchill:Wind:
Aussen-T/F 2251 11-06-2008 18:28:01 20.8 C 6.34 g/m*3 20.8 C 0 km/h
2252 11-06-2008 18:40:02 20.3 C 6.16 g/m*3 20.3 C 0 km/h
2253 11-06-2008 18:52:02 20 C 6.39 g/m*3 20 C 0 km/h
2254 11-06-2008 19:04:02 20.3 C 6.33 g/m*3 20.3 C 0 km/h
2255 11-06-2008 19:16:02 19.5 C 6.21 g/m*3 19.5 C 0 km/h
2256 11-06-2008 19:28:02 19.5 C 6.38 g/m*3 19.5 C 0 km/h
2257 11-06-2008 19:40:02 20.7 C 6.48 g/m*3 20.7 C 0 km/h
2258 11-06-2008 19:52:02 19.8 C 6.49 g/m*3 19.8 C 0 km/h
2259 11-06-2008 20:04:02 19.6 C 6.75 g/m*3 19.6 C 0 km/h
2260 11-06-2008 20:16:02 18.9 C 6.8 g/m*3 18.9 C 0 km/h
2261 11-06-2008 20:28:02 18.3 C 6.88 g/m*3 18.3 C 0 km/h
2262 11-06-2008 20:40:01 18.2 C 6.84 g/m*3 18.2 C 0 km/h
2263 11-06-2008 20:52:01 18.2 C 6.68 g/m*3 18.2 C 0 km/h
2264 11-06-2008 21:04:02 17.7 C 6.49 g/m*3 17.7 C 0 km/h
2265 11-06-2008 21:16:02 17.6 C 6.45 g/m*3 17.6 C 0 km/h
2266 11-06-2008 21:28:02 17.5 C 6.56 g/m*3 17.5 C 0 km/h
2267 11-06-2008 21:40:01 17.1 C 6.26 g/m*3 17.1 C 0 km/h
2268 11-06-2008 21:52:01 16.8 C 6.15 g/m*3 16.8 C 0 km/h
2269 11-06-2008 22:04:02 16.5 C 6.04 g/m*3 16.5 C 0 km/h
2270 11-06-2008 22:16:02 16.1 C 5.89 g/m*3 16.1 C 0 km/h
2271 11-06-2008 22:28:02 16 C 5.86 g/m*3 16 C 0 km/h
2272 11-06-2008 22:41:02 15.9 C 5.96 g/m*3 15.9 C 0 km/h
2273 11-06-2008 22:53:02 15.8 C 5.92 g/m*3 15.8 C 0 km/h
2274 11-06-2008 23:05:03 15.8 C 5.65 g/m*3 15.8 C 0 km/h
2275 11-06-2008 23:17:03 15.7 C 5.62 g/m*3 15.7 C 0 km/h
Sensor: Nr:Datum:Temp:Abs-Feuchte:Windchill:Wind:
Aussen-T/F 2276 11-06-2008 23:29:03 15.3 C 5.62 g/m*3 15.3 C 0 km/h
2277 11-06-2008 23:41:03 14.8 C 5.7 g/m*3 14.8 C 0 km/h
2278 11-06-2008 23:53:03 14.6 C 5.76 g/m*3 14.6 C 0 km/h
2279 12-06-2008 00:05:03 14.1 C 5.7 g/m*3 14.1 C 0 km/h
2280 12-06-2008 00:17:03 14.1 C 5.83 g/m*3 14.1 C 0 km/h
2281 12-06-2008 00:29:03 14 C 5.79 g/m*3 14 C 0 km/h
2282 12-06-2008 00:41:03 13.9 C 5.99 g/m*3 13.9 C 0 km/h
2283 12-06-2008 00:53:03 13.7 C 6.04 g/m*3 13.7 C 0 km/h
2284 12-06-2008 01:05:03 13.7 C 6.04 g/m*3 13.7 C 0 km/h
2285 12-06-2008 01:17:03 13.5 C 6.08 g/m*3 13.5 C 0 km/h
2286 12-06-2008 01:29:03 13.2 C 6.09 g/m*3 13.2 C 0 km/h
2287 12-06-2008 01:41:03 13.1 C 6.16 g/m*3 13.1 C 0 km/h
2288 12-06-2008 01:53:03 12.9 C 6.31 g/m*3 12.9 C 0 km/h
2289 12-06-2008 02:05:03 12.7 C 6.35 g/m*3 12.7 C 0 km/h
2290 12-06-2008 02:17:03 12.5 C 6.38 g/m*3 12.5 C 0 km/h
2291 12-06-2008 02:29:03 12.4 C 6.45 g/m*3 12.4 C 0 km/h
2292 12-06-2008 02:41:03 12.2 C 6.47 g/m*3 12.2 C 0 km/h
2293 12-06-2008 02:53:04 11.8 C 6.63 g/m*3 11.8 C 0 km/h
2294 12-06-2008 03:05:04 11.5 C 6.61 g/m*3 11.5 C 0 km/h
2295 12-06-2008 03:17:04 11.3 C 6.73 g/m*3 11.3 C 0 km/h
2296 12-06-2008 03:29:04 11.2 C 6.79 g/m*3 11.2 C 0 km/h
2297 12-06-2008 03:41:04 11 C 6.81 g/m*3 11 C 0 km/h
2298 12-06-2008 03:53:04 10.9 C 6.86 g/m*3 10.9 C 0 km/h
2299 12-06-2008 04:05:04 10.8 C 6.92 g/m*3 10.8 C 0 km/h
2300 12-06-2008 04:17:04 10.6 C 6.73 g/m*3 10.6 C 0 km/h
Sensor: Nr:Datum:Temp:Abs-Feuchte:Windchill:Wind:
Aussen-T/F 2301 12-06-2008 04:29:04 10.4 C 6.84 g/m*3 10.4 C 0 km/h
2302 12-06-2008 04:41:04 10.2 C 6.76 g/m*3 10.2 C 0 km/h
2303 12-06-2008 04:53:04 10 C 6.77 g/m*3 10 C 0 km/h
2304 12-06-2008 05:05:04 9.8 C 6.87 g/m*3 9.8 C 0 km/h
2305 12-06-2008 05:17:04 9.8 C 6.87 g/m*3 9.8 C 0 km/h
2306 12-06-2008 05:29:04 9.7 C 6.91 g/m*3 9.7 C 0 km/h
2307 12-06-2008 05:41:04 9.6 C 6.87 g/m*3 9.6 C 0 km/h
2308 12-06-2008 05:53:04 9.4 C 6.87 g/m*3 9.4 C 0 km/h
2309 12-06-2008 06:05:04 9.3 C 6.92 g/m*3 9.3 C 0 km/h
2310 12-06-2008 06:17:04 9.4 C 7.05 g/m*3 9.4 C 0 km/h
2311 12-06-2008 06:29:04 9.5 C 7.1 g/m*3 9.5 C 0 km/h
2312 12-06-2008 06:41:04 9.6 C 7.15 g/m*3 9.6 C 0 km/h
2313 12-06-2008 06:53:05 10 C 7.05 g/m*3 10 C 0 km/h
2314 12-06-2008 07:05:02 10 C 7.14 g/m*3 10 C 0 km/h
2315 12-06-2008 07:17:03 10.4 C 7.13 g/m*3 10.4 C 0 km/h
2316 12-06-2008 07:29:03 10.7 C 7.07 g/m*3 10.7 C 0 km/h
2317 12-06-2008 07:41:02 10.4 C 7.13 g/m*3 10.4 C 0 km/h
2318 12-06-2008 07:53:02 10.8 C 7.12 g/m*3 10.8 C 0 km/h
2319 12-06-2008 08:05:01 11.4 C 7.08 g/m*3 11.4 C 0 km/h
2320 12-06-2008 08:17:02 11.9 C 6.99 g/m*3 11.9 C 0 km/h
2321 12-06-2008 08:29:02 12.5 C 6.93 g/m*3 12.5 C 0 km/h
2322 12-06-2008 08:41:02 12.9 C 6.88 g/m*3 12.9 C 0 km/h
2323 12-06-2008 08:53:02 13.2 C 6.77 g/m*3 13.2 C 0 km/h
2324 12-06-2008 09:05:01 13.4 C 6.63 g/m*3 13.4 C 0 km/h
2325 12-06-2008 09:17:02 13.8 C 6.67 g/m*3 13.8 C 0 km/h
Sensor: Nr:Datum:Temp:Abs-Feuchte:Windchill:Wind:
Aussen-T/F 2326 12-06-2008 09:29:02 13.9 C 6.47 g/m*3 13.9 C 0 km/h
2327 12-06-2008 09:41:03 14.5 C 6.47 g/m*3 14.5 C 0 km/h
2328 12-06-2008 09:53:02 14.7 C 6.3 g/m*3 14.7 C 0 km/h
2329 12-06-2008 10:05:03 15.5 C 5.95 g/m*3 15.5 C 0 km/h
2330 12-06-2008 10:17:02 16.2 C 5.38 g/m*3 16.2 C 0 km/h
2331 12-06-2008 10:29:02 16.6 C 5.65 g/m*3 16.6 C 0 km/h
2332 12-06-2008 10:41:02 16.5 C 5.34 g/m*3 16.5 C 0 km/h
2333 12-06-2008 10:53:01 17.2 C 5.56 g/m*3 17.2 C 0 km/h
2334 12-06-2008 11:05:01 18.3 C 5.47 g/m*3 18.3 C 0 km/h
2335 12-06-2008 11:17:02 18.5 C 5.38 g/m*3 18.5 C 0 km/h
2336 12-06-2008 11:29:02 18.9 C 5.02 g/m*3 18.9 C 0 km/h
2337 12-06-2008 11:41:01 18.9 C 4.86 g/m*3 18.9 C 0 km/h
2338 12-06-2008 11:53:02 17.7 C 5.28 g/m*3 17.7 C 0 km/h
2339 12-06-2008 12:05:02 17.1 C 5.39 g/m*3 17.1 C 0 km/h
2340 12-06-2008 12:17:02 16.4 C 6.42 g/m*3 16.4 C 0 km/h
2341 12-06-2008 12:29:02 15.4 C 6.44 g/m*3 15.4 C 0 km/h
2342 12-06-2008 12:41:02 15.4 C 6.96 g/m*3 15.4 C 0 km/h
2343 12-06-2008 12:53:02 16.5 C 7.02 g/m*3 16.5 C 0 km/h
2344 12-06-2008 13:05:01 16.3 C 7.21 g/m*3 16.3 C 0 km/h
2345 12-06-2008 13:17:01 15.5 C 7.53 g/m*3 15.5 C 0 km/h
2346 12-06-2008 13:29:01 14.3 C 7.86 g/m*3 14.3 C 0 km/h
2347 12-06-2008 13:41:02 13.8 C 8.1 g/m*3 13.8 C 0 km/h
2348 12-06-2008 13:53:02 13.9 C 9.47 g/m*3 13.9 C 0 km/h
2349 12-06-2008 14:05:02 13.1 C 9.13 g/m*3 13.1 C 0 km/h
2350 12-06-2008 14:17:02 12.9 C 9.47 g/m*3 12.9 C 0 km/h
Sensor: Nr:Datum:Temp:Abs-Feuchte:Windchill:Wind:
Aussen-T/F 2351 12-06-2008 14:29:02 13.1 C 9.7 g/m*3 13.1 C 0 km/h
2352 12-06-2008 14:41:02 12.3 C 9.34 g/m*3 12.3 C 0 km/h
2353 12-06-2008 14:53:02 12.5 C 9.68 g/m*3 12.5 C 0 km/h
2354 12-06-2008 15:05:03 12.6 C 9.85 g/m*3 12.6 C 0 km/h
2355 12-06-2008 15:17:02 13 C 10.09 g/m*3 13 C 0 km/h
2356 12-06-2008 15:29:02 13.1 C 10.16 g/m*3 13.1 C 0 km/h
2357 12-06-2008 15:41:02 12.7 C 9.91 g/m*3 12.7 C 0 km/h
2358 12-06-2008 15:53:01 13 C 10.09 g/m*3 13 C 0 km/h
2359 12-06-2008 16:05:02 13.3 C 10.28 g/m*3 13.3 C 0 km/h
2360 12-06-2008 16:17:01 13.5 C 10.41 g/m*3 13.5 C 0 km/h
2361 12-06-2008 16:29:01 13.6 C 10.47 g/m*3 13.6 C 0 km/h
2362 12-06-2008 16:41:01 13.4 C 10.23 g/m*3 13.4 C 0 km/h
2363 12-06-2008 16:53:02 13 C 9.98 g/m*3 13 C 0 km/h
2364 12-06-2008 17:05:03 13.1 C 10.04 g/m*3 13.1 C 0 km/h
2365 12-06-2008 17:17:03 13.1 C 10.16 g/m*3 13.1 C 0 km/h
2366 12-06-2008 17:29:03 13.2 C 10.22 g/m*3 13.2 C 0 km/h
2367 12-06-2008 17:41:02 13.3 C 10.05 g/m*3 13.3 C 0 km/h
2368 12-06-2008 17:53:02 13.4 C 10 g/m*3 13.4 C 0 km/h
2369 12-06-2008 18:05:01 13.9 C 10.31 g/m*3 13.9 C 0 km/h
2370 12-06-2008 18:17:02 13.9 C 10.07 g/m*3 13.9 C 0 km/h
2371 12-06-2008 18:29:02 14 C 9.89 g/m*3 14 C 0 km/h
2372 12-06-2008 18:41:02 14.1 C 9.71 g/m*3 14.1 C 0 km/h
2373 12-06-2008 18:53:02 14.1 C 9.59 g/m*3 14.1 C 0 km/h
2374 12-06-2008 19:05:02 14.3 C 9.71 g/m*3 14.3 C 0 km/h
2375 12-06-2008 19:17:02 14.1 C 9.59 g/m*3 14.1 C 0 km/h
Sensor: Nr:Datum:Temp:Abs-Feuchte:Windchill:Wind:
Aussen-T/F 2376 12-06-2008 19:29:02 14 C 9.29 g/m*3 14 C 0 km/h
2377 12-06-2008 19:41:03 12.2 C 8.09 g/m*3 12.2 C 0 km/h
2378 12-06-2008 19:53:02 11.3 C 8.26 g/m*3 11.3 C 0 km/h
2379 12-06-2008 20:05:02 10.9 C 8.36 g/m*3 10.9 C 0 km/h
2380 12-06-2008 20:17:02 10.7 C 8.35 g/m*3 10.7 C 0 km/h
2381 12-06-2008 20:29:02 10.8 C 8.4 g/m*3 10.8 C 0 km/h
2382 12-06-2008 20:41:02 10.8 C 8.3 g/m*3 10.8 C 0 km/h
2383 12-06-2008 20:53:02 10.9 C 8.16 g/m*3 10.9 C 0 km/h
2384 12-06-2008 21:05:02 10.8 C 8.11 g/m*3 10.8 C 0 km/h
2385 12-06-2008 21:17:02 10.8 C 8.11 g/m*3 10.8 C 0 km/h
2386 12-06-2008 21:29:02 10.8 C 8.01 g/m*3 10.8 C 0 km/h
2387 12-06-2008 21:41:02 10.8 C 7.61 g/m*3 10.8 C 0 km/h
2388 12-06-2008 21:53:01 10.8 C 7.61 g/m*3 10.8 C 0 km/h
2389 12-06-2008 22:05:01 10.8 C 7.61 g/m*3 10.8 C 0 km/h
2390 12-06-2008 22:18:03 10.8 C 7.51 g/m*3 10.8 C 0 km/h
2391 12-06-2008 22:30:03 10.9 C 7.56 g/m*3 10.9 C 0 km/h
2392 12-06-2008 22:42:03 10.9 C 7.56 g/m*3 10.9 C 0 km/h
2393 12-06-2008 22:54:03 11 C 7.51 g/m*3 11 C 0 km/h
2394 12-06-2008 23:06:03 11 C 7.51 g/m*3 11 C 0 km/h
2395 12-06-2008 23:18:03 10.9 C 7.56 g/m*3 10.9 C 0 km/h
2396 12-06-2008 23:30:03 10.9 C 7.66 g/m*3 10.9 C 0 km/h
2397 12-06-2008 23:42:03 10.8 C 7.71 g/m*3 10.8 C 0 km/h
2398 12-06-2008 23:54:03 10.7 C 7.76 g/m*3 10.7 C 0 km/h
2399 13-06-2008 00:06:04 10.5 C 7.95 g/m*3 10.5 C 0 km/h
2400 13-06-2008 00:18:04 10.4 C 8 g/m*3 10.4 C 0 km/h
Sensor: Nr:Datum:Temp:Abs-Feuchte:Windchill:Wind:
Aussen-T/F 2401 13-06-2008 00:30:04 10.4 C 8.1 g/m*3 10.4 C 0 km/h
2402 13-06-2008 00:42:04 10.4 C 8.1 g/m*3 10.4 C 0 km/h
2403 13-06-2008 00:54:04 10.3 C 8.04 g/m*3 10.3 C 0 km/h
2404 13-06-2008 01:06:04 10.5 C 8.05 g/m*3 10.5 C 0 km/h
2405 13-06-2008 01:18:04 10.7 C 8.15 g/m*3 10.7 C 0 km/h
2406 13-06-2008 01:30:04 10.8 C 8.11 g/m*3 10.8 C 0 km/h
2407 13-06-2008 01:42:04 10.8 C 8.01 g/m*3 10.8 C 0 km/h
2408 13-06-2008 01:54:04 10.8 C 8.01 g/m*3 10.8 C 0 km/h
2409 13-06-2008 02:06:04 10.9 C 8.06 g/m*3 10.9 C 0 km/h
2410 13-06-2008 02:18:04 10.8 C 8.01 g/m*3 10.8 C 0 km/h
2411 13-06-2008 02:30:04 10.8 C 7.91 g/m*3 10.8 C 0 km/h
2412 13-06-2008 02:42:04 10.9 C 7.86 g/m*3 10.9 C 0 km/h
2413 13-06-2008 02:54:04 10.8 C 7.71 g/m*3 10.8 C 0 km/h
2414 13-06-2008 03:06:04 10.8 C 7.61 g/m*3 10.8 C 0 km/h
2415 13-06-2008 03:18:04 10.6 C 7.61 g/m*3 10.6 C 0 km/h
2416 13-06-2008 03:30:04 10.4 C 7.52 g/m*3 10.4 C 0 km/h
2417 13-06-2008 03:42:04 10.4 C 7.52 g/m*3 10.4 C 0 km/h
2418 13-06-2008 03:54:05 10.5 C 7.57 g/m*3 10.5 C 0 km/h
2419 13-06-2008 04:06:05 10.6 C 7.52 g/m*3 10.6 C 0 km/h
2420 13-06-2008 04:18:05 10.6 C 7.52 g/m*3 10.6 C 0 km/h
2421 13-06-2008 04:30:05 10.6 C 7.42 g/m*3 10.6 C 0 km/h
2422 13-06-2008 04:42:05 10.6 C 7.42 g/m*3 10.6 C 0 km/h
2423 13-06-2008 04:54:05 10.6 C 7.32 g/m*3 10.6 C 0 km/h
2424 13-06-2008 05:06:05 10.5 C 7.37 g/m*3 10.5 C 0 km/h
2425 13-06-2008 05:18:05 10.5 C 7.27 g/m*3 10.5 C 0 km/h
Sensor: Nr:Datum:Temp:Abs-Feuchte:Windchill:Wind:
Aussen-T/F 2426 13-06-2008 05:30:05 10.5 C 7.27 g/m*3 10.5 C 0 km/h
2427 13-06-2008 05:42:05 10.4 C 7.23 g/m*3 10.4 C 0 km/h
2428 13-06-2008 05:54:02 9.9 C 7.28 g/m*3 9.9 C 0 km/h
2429 13-06-2008 06:06:02 9.7 C 7.47 g/m*3 9.7 C 0 km/h
2430 13-06-2008 06:18:02 9.8 C 7.7 g/m*3 9.8 C 0 km/h
2431 13-06-2008 06:30:02 9.9 C 7.84 g/m*3 9.9 C 0 km/h
2432 13-06-2008 06:42:02 10.1 C 7.85 g/m*3 10.1 C 0 km/h
2433 13-06-2008 06:54:02 10.2 C 7.71 g/m*3 10.2 C 0 km/h
2434 13-06-2008 07:06:02 10.2 C 7.42 g/m*3 10.2 C 0 km/h
2435 13-06-2008 07:18:02 10.3 C 7.47 g/m*3 10.3 C 0 km/h
2436 13-06-2008 07:30:02 10.2 C 7.42 g/m*3 10.2 C 0 km/h
2437 13-06-2008 07:42:02 10.1 C 7.38 g/m*3 10.1 C 0 km/h
2438 13-06-2008 07:54:02 10.6 C 7.52 g/m*3 10.6 C 0 km/h
2439 13-06-2008 08:06:02 11.1 C 7.35 g/m*3 11.1 C 0 km/h
2440 13-06-2008 08:18:02 11.8 C 7.37 g/m*3 11.8 C 0 km/h
2441 13-06-2008 08:30:02 11.9 C 6.99 g/m*3 11.9 C 0 km/h
2442 13-06-2008 08:42:02 11.6 C 7.17 g/m*3 11.6 C 0 km/h
2443 13-06-2008 08:54:02 11.8 C 7.26 g/m*3 11.8 C 0 km/h
2444 13-06-2008 09:06:02 11.9 C 7.1 g/m*3 11.9 C 0 km/h
2445 13-06-2008 09:18:02 11.8 C 7.16 g/m*3 11.8 C 0 km/h
2446 13-06-2008 09:30:02 12.1 C 7.08 g/m*3 12.1 C 0 km/h
2447 13-06-2008 09:42:02 12.6 C 7.08 g/m*3 12.6 C 0 km/h
2448 13-06-2008 09:54:02 13.6 C 7.18 g/m*3 13.6 C 0 km/h
2449 13-06-2008 10:06:02 12 C 7.57 g/m*3 12 C 0 km/h
2450 13-06-2008 10:18:02 12.1 C 7.83 g/m*3 12.1 C 0 km/h
Sensor: Nr:Datum:Temp:Abs-Feuchte:Windchill:Wind:
Aussen-T/F 2451 13-06-2008 10:30:02 13.4 C 8.02 g/m*3 13.4 C 0 km/h
2452 13-06-2008 10:42:02 13.8 C 7.15 g/m*3 13.8 C 0 km/h
2453 13-06-2008 10:54:02 14.2 C 6.84 g/m*3 14.2 C 0 km/h
2454 13-06-2008 11:06:02 12.1 C 6.97 g/m*3 12.1 C 0 km/h
2455 13-06-2008 11:18:02 12 C 8.21 g/m*3 12 C 0 km/h
2456 13-06-2008 11:30:02 12.8 C 8.85 g/m*3 12.8 C 0 km/h
2457 13-06-2008 11:42:02 13.3 C 7.05 g/m*3 13.3 C 0 km/h
2458 13-06-2008 11:54:01 13.9 C 7.31 g/m*3 13.9 C 0 km/h
2459 13-06-2008 12:06:01 15.3 C 6.92 g/m*3 15.3 C 0 km/h
2460 13-06-2008 12:18:02 15.1 C 6.45 g/m*3 15.1 C 0 km/h
2461 13-06-2008 12:30:02 15.9 C 6.91 g/m*3 15.9 C 0 km/h
2462 13-06-2008 12:42:01 18.2 C 7.15 g/m*3 18.2 C 0 km/h
2463 13-06-2008 12:54:01 19.3 C 6.97 g/m*3 19.3 C 0 km/h
2464 13-06-2008 13:06:02 18.4 C 6.45 g/m*3 18.4 C 0 km/h
2465 13-06-2008 13:18:02 16.2 C 6.21 g/m*3 16.2 C 0 km/h
2466 13-06-2008 13:30:02 17.2 C 6.74 g/m*3 17.2 C 0 km/h
2467 13-06-2008 13:42:01 19.8 C 5.3 g/m*3 19.8 C 0 km/h
2468 13-06-2008 13:54:01 18.4 C 5.35 g/m*3 18.4 C 0 km/h
2469 13-06-2008 14:06:02 16.7 C 5.68 g/m*3 16.7 C 0 km/h
2470 13-06-2008 14:18:02 15.1 C 6.58 g/m*3 15.1 C 0 km/h
2471 13-06-2008 14:30:02 15.1 C 5.81 g/m*3 15.1 C 0 km/h
2472 13-06-2008 14:42:02 14.1 C 7.28 g/m*3 14.1 C 0 km/h
2473 13-06-2008 14:54:02 14.4 C 7.29 g/m*3 14.4 C 0 km/h
2474 13-06-2008 15:06:02 16 C 6.27 g/m*3 16 C 0 km/h
2475 13-06-2008 15:18:02 17.8 C 5.62 g/m*3 17.8 C 0 km/h
Sensor: Nr:Datum:Temp:Abs-Feuchte:Windchill:Wind:
Aussen-T/F 2476 13-06-2008 15:30:02 19.4 C 5.84 g/m*3 19.4 C 0 km/h
2477 13-06-2008 15:42:02 19.7 C 5.09 g/m*3 19.7 C 0 km/h
2478 13-06-2008 15:54:02 19.4 C 4.67 g/m*3 19.4 C 0 km/h
2479 13-06-2008 16:06:02 20.1 C 5.21 g/m*3 20.1 C 0 km/h
2480 13-06-2008 16:18:02 19.1 C 4.92 g/m*3 19.1 C 0 km/h
2481 13-06-2008 16:30:02 19.7 C 5.26 g/m*3 19.7 C 0 km/h
2482 13-06-2008 16:42:02 17.9 C 5.5 g/m*3 17.9 C 0 km/h
2483 13-06-2008 16:54:01 17.8 C 5.62 g/m*3 17.8 C 0 km/h
2484 13-06-2008 17:06:02 17.2 C 5.42 g/m*3 17.2 C 0 km/h
2485 13-06-2008 17:18:02 17.6 C 5.7 g/m*3 17.6 C 0 km/h
2486 13-06-2008 17:30:02 17.4 C 5.93 g/m*3 17.4 C 0 km/h
2487 13-06-2008 17:42:02 19.4 C 6.01 g/m*3 19.4 C 0 km/h
2488 13-06-2008 17:54:01 18.5 C 5.38 g/m*3 18.5 C 0 km/h
2489 13-06-2008 18:06:01 18.1 C 5.41 g/m*3 18.1 C 0 km/h
2490 13-06-2008 18:18:02 18 C 5.53 g/m*3 18 C 0 km/h
2491 13-06-2008 18:30:02 17.7 C 5.43 g/m*3 17.7 C 0 km/h
2492 13-06-2008 18:42:01 18.1 C 4.94 g/m*3 18.1 C 0 km/h
2493 13-06-2008 18:54:02 18.2 C 5.6 g/m*3 18.2 C 0 km/h
2494 13-06-2008 19:06:01 17.2 C 5.71 g/m*3 17.2 C 0 km/h
2495 13-06-2008 19:18:02 16.6 C 5.65 g/m*3 16.6 C 0 km/h
2496 13-06-2008 19:30:02 16.3 C 5.83 g/m*3 16.3 C 0 km/h
2497 13-06-2008 19:42:02 16.3 C 5.83 g/m*3 16.3 C 0 km/h
2498 13-06-2008 19:54:02 16.4 C 6 g/m*3 16.4 C 0 km/h
2499 13-06-2008 20:06:02 16.3 C 5.97 g/m*3 16.3 C 0 km/h
2500 13-06-2008 20:18:02 15.7 C 6.02 g/m*3 15.7 C 0 km/h
Sensor: Nr:Datum:Temp:Abs-Feuchte:Windchill:Wind:
Aussen-T/F 2501 13-06-2008 20:30:02 15.4 C 6.04 g/m*3 15.4 C 0 km/h
2502 13-06-2008 20:42:02 15.2 C 5.84 g/m*3 15.2 C 0 km/h
2503 13-06-2008 20:54:01 14.9 C 5.86 g/m*3 14.9 C 0 km/h
2504 13-06-2008 21:06:01 14.9 C 6.12 g/m*3 14.9 C 0 km/h
2505 13-06-2008 21:18:02 14.7 C 6.04 g/m*3 14.7 C 0 km/h
2506 13-06-2008 21:30:02 14.2 C 5.98 g/m*3 14.2 C 0 km/h
2507 13-06-2008 21:42:01 14 C 6.15 g/m*3 14 C 0 km/h
2508 13-06-2008 21:54:02 13.4 C 6.39 g/m*3 13.4 C 0 km/h
2509 13-06-2008 22:06:02 13.1 C 6.28 g/m*3 13.1 C 0 km/h
2510 13-06-2008 22:18:02 12.7 C 6.46 g/m*3 12.7 C 0 km/h
2511 13-06-2008 22:30:02 12.4 C 6.45 g/m*3 12.4 C 0 km/h
2512 13-06-2008 22:42:02 12.4 C 6.45 g/m*3 12.4 C 0 km/h
2513 13-06-2008 22:55:03 12.1 C 6.43 g/m*3 12.1 C 0 km/h
2514 13-06-2008 23:07:03 12.3 C 6.62 g/m*3 12.3 C 0 km/h
2515 13-06-2008 23:19:03 12.4 C 6.56 g/m*3 12.4 C 0 km/h
2516 13-06-2008 23:31:03 12.4 C 6.77 g/m*3 12.4 C 0 km/h
2517 13-06-2008 23:43:03 12.4 C 6.66 g/m*3 12.4 C 0 km/h
2518 13-06-2008 23:55:03 12.4 C 6.77 g/m*3 12.4 C 0 km/h
2519 14-06-2008 00:07:03 12.3 C 7.06 g/m*3 12.3 C 0 km/h
2520 14-06-2008 00:19:03 12.2 C 7.01 g/m*3 12.2 C 0 km/h
2521 14-06-2008 00:31:03 12.2 C 7.23 g/m*3 12.2 C 0 km/h
2522 14-06-2008 00:43:03 11.9 C 7.41 g/m*3 11.9 C 0 km/h
2523 14-06-2008 00:55:03 12 C 7.35 g/m*3 12 C 0 km/h
2524 14-06-2008 01:07:03 11.8 C 7.37 g/m*3 11.8 C 0 km/h
2525 14-06-2008 01:19:03 11.6 C 7.48 g/m*3 11.6 C 0 km/h
Sensor: Nr:Datum:Temp:Abs-Feuchte:Windchill:Wind:
Aussen-T/F 2526 14-06-2008 01:31:03 11.4 C 7.49 g/m*3 11.4 C 0 km/h
2527 14-06-2008 01:43:03 11.2 C 7.3 g/m*3 11.2 C 0 km/h
2528 14-06-2008 01:55:03 11 C 7.31 g/m*3 11 C 0 km/h
2529 14-06-2008 02:07:03 10.7 C 7.46 g/m*3 10.7 C 0 km/h
2530 14-06-2008 02:19:03 10.4 C 7.42 g/m*3 10.4 C 0 km/h
2531 14-06-2008 02:31:03 10.1 C 7.28 g/m*3 10.1 C 0 km/h
2532 14-06-2008 02:43:04 9.9 C 7.28 g/m*3 9.9 C 0 km/h
2533 14-06-2008 02:55:04 9.8 C 7.33 g/m*3 9.8 C 0 km/h
2534 14-06-2008 03:07:04 9.6 C 7.33 g/m*3 9.6 C 0 km/h
2535 14-06-2008 03:19:04 9.3 C 7.19 g/m*3 9.3 C 0 km/h
2536 14-06-2008 03:31:04 9.1 C 7.1 g/m*3 9.1 C 0 km/h
2537 14-06-2008 03:43:04 9 C 7.05 g/m*3 9 C 0 km/h
2538 14-06-2008 03:55:04 9 C 7.14 g/m*3 9 C 0 km/h
2539 14-06-2008 04:07:04 8.9 C 7.18 g/m*3 8.9 C 0 km/h
2540 14-06-2008 04:19:04 8.6 C 7.05 g/m*3 8.6 C 0 km/h
2541 14-06-2008 04:31:04 8.5 C 7 g/m*3 8.5 C 0 km/h
2542 14-06-2008 04:43:04 8.4 C 6.96 g/m*3 8.4 C 0 km/h
2543 14-06-2008 04:55:04 8.1 C 6.82 g/m*3 8.1 C 0 km/h
2544 14-06-2008 05:07:04 8.1 C 6.91 g/m*3 8.1 C 0 km/h
2545 14-06-2008 05:19:04 8 C 7.03 g/m*3 8 C 0 km/h
2546 14-06-2008 05:31:04 7.9 C 7.06 g/m*3 7.9 C 0 km/h
2547 14-06-2008 05:43:04 8 C 7.03 g/m*3 8 C 0 km/h
2548 14-06-2008 05:55:04 7.9 C 7.06 g/m*3 7.9 C 0 km/h
2549 14-06-2008 06:07:04 7.9 C 7.15 g/m*3 7.9 C 0 km/h
2550 14-06-2008 06:19:04 8.1 C 7.16 g/m*3 8.1 C 0 km/h
Sensor: Nr:Datum:Temp:Abs-Feuchte:Windchill:Wind:
Aussen-T/F 2551 14-06-2008 06:31:04 8.4 C 7.21 g/m*3 8.4 C 0 km/h
2552 14-06-2008 06:43:04 8.6 C 7.13 g/m*3 8.6 C 0 km/h
2553 14-06-2008 06:55:05 8.7 C 7.18 g/m*3 8.7 C 0 km/h
2554 14-06-2008 07:07:05 8.9 C 7.18 g/m*3 8.9 C 0 km/h
2555 14-06-2008 07:19:05 9 C 7.05 g/m*3 9 C 0 km/h
2556 14-06-2008 07:31:05 9.5 C 7.28 g/m*3 9.5 C 0 km/h
2557 14-06-2008 07:43:05 9.8 C 7.33 g/m*3 9.8 C 0 km/h
2558 14-06-2008 07:55:05 9.9 C 7.19 g/m*3 9.9 C 0 km/h
2559 14-06-2008 08:07:05 10.1 C 7.28 g/m*3 10.1 C 0 km/h
2560 14-06-2008 08:19:05 10.4 C 7.42 g/m*3 10.4 C 0 km/h
2561 14-06-2008 08:31:03 10.4 C 7.42 g/m*3 10.4 C 0 km/h
2562 14-06-2008 08:43:03 10.6 C 7.52 g/m*3 10.6 C 0 km/h
2563 14-06-2008 08:55:02 11 C 7.61 g/m*3 11 C 0 km/h
2564 14-06-2008 09:07:01 11.5 C 7.64 g/m*3 11.5 C 0 km/h
2565 14-06-2008 09:19:01 12.4 C 7.54 g/m*3 12.4 C 0 km/h
2566 14-06-2008 09:31:01 13.2 C 7.35 g/m*3 13.2 C 0 km/h
2567 14-06-2008 09:43:01 13.5 C 7.25 g/m*3 13.5 C 0 km/h
2568 14-06-2008 09:55:02 14 C 7.24 g/m*3 14 C 0 km/h
2569 14-06-2008 10:07:02 14.7 C 7.3 g/m*3 14.7 C 0 km/h
2570 14-06-2008 10:19:02 15.1 C 6.71 g/m*3 15.1 C 0 km/h
2571 14-06-2008 10:31:02 15.6 C 6.52 g/m*3 15.6 C 0 km/h
2572 14-06-2008 10:43:02 16.6 C 5.79 g/m*3 16.6 C 0 km/h
2573 14-06-2008 10:55:02 16.4 C 5.86 g/m*3 16.4 C 0 km/h
2574 14-06-2008 11:07:02 16.6 C 5.79 g/m*3 16.6 C 0 km/h
2575 14-06-2008 11:19:01 16.2 C 5.79 g/m*3 16.2 C 0 km/h
Sensor: Nr:Datum:Temp:Abs-Feuchte:Windchill:Wind:
Aussen-T/F 2576 14-06-2008 11:31:02 16.3 C 5.97 g/m*3 16.3 C 0 km/h
2577 14-06-2008 11:43:02 16.3 C 5.97 g/m*3 16.3 C 0 km/h
2578 14-06-2008 11:55:02 17.1 C 5.39 g/m*3 17.1 C 0 km/h
2579 14-06-2008 12:07:01 17.1 C 4.51 g/m*3 17.1 C 0 km/h
2580 14-06-2008 12:19:01 18.8 C 4.67 g/m*3 18.8 C 0 km/h
2581 14-06-2008 12:31:02 16.9 C 5.61 g/m*3 16.9 C 0 km/h
2582 14-06-2008 12:43:02 17 C 5.79 g/m*3 17 C 0 km/h
2583 14-06-2008 12:55:02 16.4 C 5.44 g/m*3 16.4 C 0 km/h
2584 14-06-2008 13:07:02 16.4 C 5.02 g/m*3 16.4 C 0 km/h
2585 14-06-2008 13:19:02 17 C 5.35 g/m*3 17 C 0 km/h
2586 14-06-2008 13:31:02 16.4 C 5.58 g/m*3 16.4 C 0 km/h
2587 14-06-2008 13:43:02 15.7 C 5.75 g/m*3 15.7 C 0 km/h
2588 14-06-2008 13:55:02 16 C 5.45 g/m*3 16 C 0 km/h
2589 14-06-2008 14:07:02 18 C 5.07 g/m*3 18 C 0 km/h
2590 14-06-2008 14:19:01 18.1 C 5.41 g/m*3 18.1 C 0 km/h
2591 14-06-2008 14:31:01 18.9 C 5.35 g/m*3 18.9 C 0 km/h
2592 14-06-2008 14:43:01 18.7 C 5.6 g/m*3 18.7 C 0 km/h
2593 14-06-2008 14:55:01 18 C 5.53 g/m*3 18 C 0 km/h
2594 14-06-2008 15:07:02 18.2 C 5.44 g/m*3 18.2 C 0 km/h
2595 14-06-2008 15:19:02 19.6 C 6.08 g/m*3 19.6 C 0 km/h
2596 14-06-2008 15:31:01 21.4 C 6 g/m*3 21.4 C 0 km/h
2597 14-06-2008 15:43:01 20.8 C 5.61 g/m*3 20.8 C 0 km/h
2598 14-06-2008 15:55:01 21.6 C 5.88 g/m*3 21.6 C 0 km/h
2599 14-06-2008 16:07:02 22 C 5.24 g/m*3 22 C 0 km/h
2600 14-06-2008 16:19:02 19.9 C 5.33 g/m*3 19.9 C 0 km/h
Sensor: Nr:Datum:Temp:Abs-Feuchte:Windchill:Wind:
Aussen-T/F 2601 14-06-2008 16:31:01 18.7 C 5.6 g/m*3 18.7 C 0 km/h
2602 14-06-2008 16:43:01 18.5 C 5.85 g/m*3 18.5 C 0 km/h
2603 14-06-2008 16:55:01 18.4 C 5.5 g/m*3 18.4 C 0 km/h
2604 14-06-2008 17:07:02 18.9 C 5.99 g/m*3 18.9 C 0 km/h
2605 14-06-2008 17:19:01 19.5 C 5.71 g/m*3 19.5 C 0 km/h
2606 14-06-2008 17:31:02 20.2 C 5.77 g/m*3 20.2 C 0 km/h
2607 14-06-2008 17:43:02 20.4 C 5.84 g/m*3 20.4 C 0 km/h
2608 14-06-2008 17:55:01 19.5 C 6.04 g/m*3 19.5 C 0 km/h
2609 14-06-2008 18:07:02 18.6 C 5.73 g/m*3 18.6 C 0 km/h
2610 14-06-2008 18:19:02 18.2 C 5.91 g/m*3 18.2 C 0 km/h
2611 14-06-2008 18:31:01 18.8 C 5.96 g/m*3 18.8 C 0 km/h
2612 14-06-2008 18:43:01 19.9 C 6.01 g/m*3 19.9 C 0 km/h
2613 14-06-2008 18:55:02 18.4 C 5.82 g/m*3 18.4 C 0 km/h
2614 14-06-2008 19:07:01 17.4 C 6.08 g/m*3 17.4 C 0 km/h
2615 14-06-2008 19:19:02 16.8 C 6.15 g/m*3 16.8 C 0 km/h
2616 14-06-2008 19:31:02 15.4 C 6.57 g/m*3 15.4 C 0 km/h
2617 14-06-2008 19:43:02 14.4 C 7.66 g/m*3 14.4 C 0 km/h
2618 14-06-2008 19:55:02 13.8 C 8.46 g/m*3 13.8 C 0 km/h
2619 14-06-2008 20:07:01 14.1 C 8.74 g/m*3 14.1 C 0 km/h
2620 14-06-2008 20:19:02 14.1 C 8.5 g/m*3 14.1 C 0 km/h
2621 14-06-2008 20:31:02 14 C 8.2 g/m*3 14 C 0 km/h
2622 14-06-2008 20:43:02 13.7 C 8.53 g/m*3 13.7 C 0 km/h
2623 14-06-2008 20:55:02 13.6 C 8.83 g/m*3 13.6 C 0 km/h
2624 14-06-2008 21:07:02 13.6 C 8.94 g/m*3 13.6 C 0 km/h
2625 14-06-2008 21:19:02 13.7 C 9.12 g/m*3 13.7 C 0 km/h
Sensor: Nr:Datum:Temp:Abs-Feuchte:Windchill:Wind:
Aussen-T/F 2626 14-06-2008 21:31:02 13.5 C 8.89 g/m*3 13.5 C 0 km/h
2627 14-06-2008 21:43:02 13.6 C 8.94 g/m*3 13.6 C 0 km/h
2628 14-06-2008 21:55:02 13.3 C 8.55 g/m*3 13.3 C 0 km/h
2629 14-06-2008 22:07:02 13 C 8.28 g/m*3 13 C 0 km/h
2630 14-06-2008 22:19:02 12.8 C 8.18 g/m*3 12.8 C 0 km/h
2631 14-06-2008 22:31:02 12.9 C 8.11 g/m*3 12.9 C 0 km/h
2632 14-06-2008 22:43:02 12.4 C 7.87 g/m*3 12.4 C 0 km/h
2633 14-06-2008 22:55:02 12.2 C 7.88 g/m*3 12.2 C 0 km/h
2634 14-06-2008 23:07:02 12.1 C 7.83 g/m*3 12.1 C 0 km/h
2635 14-06-2008 23:19:02 11.7 C 7.84 g/m*3 11.7 C 0 km/h
2636 14-06-2008 23:31:03 11.6 C 7.69 g/m*3 11.6 C 0 km/h
2637 14-06-2008 23:43:03 11.5 C 7.64 g/m*3 11.5 C 0 km/h
2638 14-06-2008 23:55:02 11.3 C 7.55 g/m*3 11.3 C 0 km/h
2639 15-06-2008 00:07:02 11.1 C 7.45 g/m*3 11.1 C 0 km/h
2640 15-06-2008 00:19:02 11.1 C 7.45 g/m*3 11.1 C 0 km/h
2641 15-06-2008 00:31:02 11 C 7.41 g/m*3 11 C 0 km/h
2642 15-06-2008 00:43:03 10.9 C 7.46 g/m*3 10.9 C 0 km/h
2643 15-06-2008 00:55:02 10.8 C 7.51 g/m*3 10.8 C 0 km/h
2644 15-06-2008 01:07:01 10.8 C 7.51 g/m*3 10.8 C 0 km/h
2645 15-06-2008 01:19:02 10.5 C 7.57 g/m*3 10.5 C 0 km/h
2646 15-06-2008 01:31:02 10.3 C 7.57 g/m*3 10.3 C 0 km/h
2647 15-06-2008 01:43:03 10.2 C 7.61 g/m*3 10.2 C 0 km/h
2648 15-06-2008 01:55:02 10.1 C 7.66 g/m*3 10.1 C 0 km/h
2649 15-06-2008 02:07:02 10.3 C 7.76 g/m*3 10.3 C 0 km/h
2650 15-06-2008 02:19:03 10.4 C 7.81 g/m*3 10.4 C 0 km/h
Sensor: Nr:Datum:Temp:Abs-Feuchte:Windchill:Wind:
Aussen-T/F 2651 15-06-2008 02:31:02 10.4 C 7.81 g/m*3 10.4 C 0 km/h
2652 15-06-2008 02:43:02 10.4 C 7.81 g/m*3 10.4 C 0 km/h
2653 15-06-2008 02:55:02 10.3 C 7.85 g/m*3 10.3 C 0 km/h
2654 15-06-2008 03:07:02 10.2 C 7.8 g/m*3 10.2 C 0 km/h
2655 15-06-2008 03:19:01 9.9 C 7.84 g/m*3 9.9 C 0 km/h
2656 15-06-2008 03:31:02 9.8 C 7.79 g/m*3 9.8 C 0 km/h
2657 15-06-2008 03:43:02 9.8 C 7.89 g/m*3 9.8 C 0 km/h
2658 15-06-2008 03:55:02 9.8 C 7.89 g/m*3 9.8 C 0 km/h
2659 15-06-2008 04:07:01 10 C 7.8 g/m*3 10 C 0 km/h
2660 15-06-2008 04:19:01 10 C 7.8 g/m*3 10 C 0 km/h
2661 15-06-2008 04:31:02 9.9 C 7.84 g/m*3 9.9 C 0 km/h
2662 15-06-2008 04:43:02 9.8 C 7.79 g/m*3 9.8 C 0 km/h
2663 15-06-2008 04:55:01 9.8 C 7.89 g/m*3 9.8 C 0 km/h
2664 15-06-2008 05:07:02 9.4 C 7.69 g/m*3 9.4 C 0 km/h
2665 15-06-2008 05:19:01 9.1 C 7.54 g/m*3 9.1 C 0 km/h
2666 15-06-2008 05:31:01 8.9 C 7.53 g/m*3 8.9 C 0 km/h
2667 15-06-2008 05:43:01 8.8 C 7.49 g/m*3 8.8 C 0 km/h
2668 15-06-2008 05:55:02 8.7 C 7.52 g/m*3 8.7 C 0 km/h
2669 15-06-2008 06:07:01 8.9 C 7.71 g/m*3 8.9 C 0 km/h
2670 15-06-2008 06:19:01 9 C 7.76 g/m*3 9 C 0 km/h
2671 15-06-2008 06:31:02 9 C 7.76 g/m*3 9 C 0 km/h
2672 15-06-2008 06:43:02 9.1 C 7.81 g/m*3 9.1 C 0 km/h
2673 15-06-2008 06:55:02 9.2 C 7.86 g/m*3 9.2 C 0 km/h
2674 15-06-2008 07:07:01 9.5 C 8.01 g/m*3 9.5 C 0 km/h
2675 15-06-2008 07:19:01 9.7 C 8.02 g/m*3 9.7 C 0 km/h
Sensor: Nr:Datum:Temp:Abs-Feuchte:Windchill:Wind:
Aussen-T/F 2676 15-06-2008 07:31:02 10 C 7.99 g/m*3 10 C 0 km/h
2677 15-06-2008 07:43:02 10.6 C 8 g/m*3 10.6 C 0 km/h
2678 15-06-2008 07:55:02 11 C 7.81 g/m*3 11 C 0 km/h
2679 15-06-2008 08:07:01 11.4 C 7.8 g/m*3 11.4 C 0 km/h
2680 15-06-2008 08:19:01 11.2 C 7.6 g/m*3 11.2 C 0 km/h
2681 15-06-2008 08:31:02 11.2 C 7.7 g/m*3 11.2 C 0 km/h
2682 15-06-2008 08:43:02 11.5 C 7.75 g/m*3 11.5 C 0 km/h
2683 15-06-2008 08:55:01 11.8 C 7.89 g/m*3 11.8 C 0 km/h
2684 15-06-2008 09:07:01 12.1 C 7.83 g/m*3 12.1 C 0 km/h
2685 15-06-2008 09:19:02 12.4 C 7.76 g/m*3 12.4 C 0 km/h
2686 15-06-2008 09:31:02 12.9 C 7.78 g/m*3 12.9 C 0 km/h
2687 15-06-2008 09:43:02 13.5 C 7.6 g/m*3 13.5 C 0 km/h
2688 15-06-2008 09:55:01 14.1 C 7.28 g/m*3 14.1 C 0 km/h
2689 15-06-2008 10:07:02 15.4 C 7.23 g/m*3 15.4 C 0 km/h
2690 15-06-2008 10:19:02 15.6 C 6.92 g/m*3 15.6 C 0 km/h
2691 15-06-2008 10:31:01 16.3 C 6.8 g/m*3 16.3 C 0 km/h
2692 15-06-2008 10:43:01 17.2 C 6.44 g/m*3 17.2 C 0 km/h
2693 15-06-2008 10:55:02 17.3 C 6.48 g/m*3 17.3 C 0 km/h
2694 15-06-2008 11:07:01 17.2 C 6.59 g/m*3 17.2 C 0 km/h
2695 15-06-2008 11:19:01 17.7 C 6.79 g/m*3 17.7 C 0 km/h
2696 15-06-2008 11:31:02 17.7 C 6.94 g/m*3 17.7 C 0 km/h
2697 15-06-2008 11:43:02 18.4 C 6.92 g/m*3 18.4 C 0 km/h
2698 15-06-2008 11:55:02 18.4 C 6.92 g/m*3 18.4 C 0 km/h
2699 15-06-2008 12:07:01 18.9 C 6.8 g/m*3 18.9 C 0 km/h
2700 15-06-2008 12:19:01 19.7 C 6.45 g/m*3 19.7 C 0 km/h
Sensor: Nr:Datum:Temp:Abs-Feuchte:Windchill:Wind:
Aussen-T/F 2701 15-06-2008 12:31:01 21.1 C 5.34 g/m*3 21.1 C 0 km/h
2702 15-06-2008 12:43:01 21.5 C 5.47 g/m*3 21.5 C 0 km/h
2703 15-06-2008 12:55:01 21.2 C 5 g/m*3 21.2 C 0 km/h
2704 15-06-2008 13:07:02 19.8 C 5.3 g/m*3 19.8 C 0 km/h
2705 15-06-2008 13:19:02 18.6 C 5.41 g/m*3 18.6 C 0 km/h
2706 15-06-2008 13:31:01 15.5 C 8.46 g/m*3 15.5 C 0 km/h
2707 15-06-2008 13:43:01 14.7 C 8.44 g/m*3 14.7 C 0 km/h
2708 15-06-2008 13:55:02 17.6 C 8.7 g/m*3 17.6 C 0 km/h
2709 15-06-2008 14:07:01 19.5 C 7.55 g/m*3 19.5 C 0 km/h
2710 15-06-2008 14:19:01 20.6 C 7.52 g/m*3 20.6 C 0 km/h
2711 15-06-2008 14:31:02 21 C 7.33 g/m*3 21 C 0 km/h
2712 15-06-2008 14:43:02 20.3 C 7.21 g/m*3 20.3 C 0 km/h
2713 15-06-2008 14:55:02 19.7 C 7.13 g/m*3 19.7 C 0 km/h
2714 15-06-2008 15:07:01 18.5 C 7.59 g/m*3 18.5 C 0 km/h
2715 15-06-2008 15:19:01 17.7 C 8.15 g/m*3 17.7 C 0 km/h
2716 15-06-2008 15:31:02 19.2 C 7.59 g/m*3 19.2 C 0 km/h
2717 15-06-2008 15:43:02 21.2 C 7.04 g/m*3 21.2 C 0 km/h
2718 15-06-2008 15:55:02 21.9 C 6.18 g/m*3 21.9 C 0 km/h
2719 15-06-2008 16:07:01 21.3 C 5.59 g/m*3 21.3 C 0 km/h
2720 15-06-2008 16:19:01 21.5 C 6.22 g/m*3 21.5 C 0 km/h
2721 15-06-2008 16:31:02 22.5 C 6.19 g/m*3 22.5 C 0 km/h
2722 15-06-2008 16:43:02 21.7 C 5.91 g/m*3 21.7 C 0 km/h
2723 15-06-2008 16:55:02 21.4 C 6 g/m*3 21.4 C 0 km/h
2724 15-06-2008 17:07:01 20.4 C 6.55 g/m*3 20.4 C 0 km/h
2725 15-06-2008 17:19:01 20.9 C 6.74 g/m*3 20.9 C 0 km/h
Sensor: Nr:Datum:Temp:Abs-Feuchte:Windchill:Wind:
Aussen-T/F 2726 15-06-2008 17:31:02 19.9 C 6.19 g/m*3 19.9 C 0 km/h
2727 15-06-2008 17:43:02 19.1 C 6.56 g/m*3 19.1 C 0 km/h
2728 15-06-2008 17:55:02 17.2 C 7.91 g/m*3 17.2 C 0 km/h
2729 15-06-2008 18:07:01 14.6 C 9.39 g/m*3 14.6 C 0 km/h
2730 15-06-2008 18:19:01 13.3 C 9.01 g/m*3 13.3 C 0 km/h
2731 15-06-2008 18:31:02 12.2 C 8.96 g/m*3 12.2 C 0 km/h
2732 15-06-2008 18:43:02 11.7 C 8.99 g/m*3 11.7 C 0 km/h
2733 15-06-2008 18:55:02 11.8 C 9.26 g/m*3 11.8 C 0 km/h
2734 15-06-2008 19:07:01 11.9 C 9.43 g/m*3 11.9 C 0 km/h
2735 15-06-2008 19:19:01 11.8 C 9.26 g/m*3 11.8 C 0 km/h
2736 15-06-2008 19:31:02 12.1 C 9.44 g/m*3 12.1 C 0 km/h
2737 15-06-2008 19:43:02 12.4 C 9.62 g/m*3 12.4 C 0 km/h
2738 15-06-2008 19:55:02 12.5 C 9.68 g/m*3 12.5 C 0 km/h
2739 15-06-2008 20:07:01 12.7 C 9.8 g/m*3 12.7 C 0 km/h
2740 15-06-2008 20:19:01 12.8 C 9.86 g/m*3 12.8 C 0 km/h
2741 15-06-2008 20:31:02 12.6 C 9.62 g/m*3 12.6 C 0 km/h
2742 15-06-2008 20:43:02 12.5 C 9.68 g/m*3 12.5 C 0 km/h
2743 15-06-2008 20:55:02 12.6 C 9.85 g/m*3 12.6 C 0 km/h
2744 15-06-2008 21:07:01 12.4 C 9.72 g/m*3 12.4 C 0 km/h
2745 15-06-2008 21:19:02 12.4 C 9.83 g/m*3 12.4 C 0 km/h
2746 15-06-2008 21:31:01 11.8 C 9.58 g/m*3 11.8 C 0 km/h
2747 15-06-2008 21:43:02 11.9 C 9.64 g/m*3 11.9 C 0 km/h
2748 15-06-2008 21:55:01 11.7 C 9.52 g/m*3 11.7 C 0 km/h
2749 15-06-2008 22:07:01 11.7 C 9.62 g/m*3 11.7 C 0 km/h
2750 15-06-2008 22:19:02 11.7 C 9.62 g/m*3 11.7 C 0 km/h
Sensor: Nr:Datum:Temp:Abs-Feuchte:Windchill:Wind:
Aussen-T/F 2751 15-06-2008 22:31:01 11.7 C 9.62 g/m*3 11.7 C 0 km/h
2752 15-06-2008 22:43:01 11.8 C 9.68 g/m*3 11.8 C 0 km/h
2753 15-06-2008 22:56:01 12 C 9.8 g/m*3 12 C 0 km/h
2754 15-06-2008 23:08:01 11.8 C 9.68 g/m*3 11.8 C 0 km/h
2755 15-06-2008 23:20:01 11.7 C 9.62 g/m*3 11.7 C 0 km/h
2756 15-06-2008 23:32:01 11.6 C 9.56 g/m*3 11.6 C 0 km/h
2757 15-06-2008 23:44:01 11.5 C 9.5 g/m*3 11.5 C 0 km/h
2758 15-06-2008 23:56:01 11.3 C 9.38 g/m*3 11.3 C 0 km/h
2759 16-06-2008 00:08:01 11.2 C 9.33 g/m*3 11.2 C 0 km/h
2760 16-06-2008 00:20:01 11.2 C 9.43 g/m*3 11.2 C 0 km/h
2761 16-06-2008 00:32:01 11.2 C 9.43 g/m*3 11.2 C 0 km/h
2762 16-06-2008 00:44:01 11.1 C 9.37 g/m*3 11.1 C 0 km/h
2763 16-06-2008 00:56:01 11.2 C 9.43 g/m*3 11.2 C 0 km/h
2764 16-06-2008 01:08:02 11.1 C 9.37 g/m*3 11.1 C 0 km/h
2765 16-06-2008 01:20:02 11.2 C 9.43 g/m*3 11.2 C 0 km/h
2766 16-06-2008 01:32:02 11.1 C 9.37 g/m*3 11.1 C 0 km/h
2767 16-06-2008 01:44:02 11 C 9.31 g/m*3 11 C 0 km/h
2768 16-06-2008 01:56:02 10.8 C 9.29 g/m*3 10.8 C 0 km/h
2769 16-06-2008 02:08:02 10.7 C 9.23 g/m*3 10.7 C 0 km/h
2770 16-06-2008 02:20:02 10.6 C 9.17 g/m*3 10.6 C 0 km/h
2771 16-06-2008 02:32:02 10.5 C 9.02 g/m*3 10.5 C 0 km/h
2772 16-06-2008 02:44:02 10.3 C 8.91 g/m*3 10.3 C 0 km/h
2773 16-06-2008 02:56:02 9.9 C 8.78 g/m*3 9.9 C 0 km/h
2774 16-06-2008 03:08:02 9.7 C 8.67 g/m*3 9.7 C 0 km/h
2775 16-06-2008 03:20:02 9.7 C 8.67 g/m*3 9.7 C 0 km/h
Sensor: Nr:Datum:Temp:Abs-Feuchte:Windchill:Wind:
Aussen-T/F 2776 16-06-2008 03:32:02 9.8 C 8.72 g/m*3 9.8 C 0 km/h
2777 16-06-2008 03:44:02 9.9 C 8.87 g/m*3 9.9 C 0 km/h
2778 16-06-2008 03:56:02 9.8 C 8.81 g/m*3 9.8 C 0 km/h
2779 16-06-2008 04:08:02 10.1 C 8.89 g/m*3 10.1 C 0 km/h
2780 16-06-2008 04:20:02 10.3 C 9 g/m*3 10.3 C 0 km/h
2781 16-06-2008 04:32:02 10.3 C 9 g/m*3 10.3 C 0 km/h
2782 16-06-2008 04:44:02 10.3 C 9 g/m*3 10.3 C 0 km/h
2783 16-06-2008 04:56:02 10.1 C 8.89 g/m*3 10.1 C 0 km/h
2784 16-06-2008 05:08:03 10 C 8.83 g/m*3 10 C 0 km/h
2785 16-06-2008 05:20:03 10.1 C 8.89 g/m*3 10.1 C 0 km/h
2786 16-06-2008 05:32:03 10 C 8.83 g/m*3 10 C 0 km/h
2787 16-06-2008 05:44:03 9.8 C 8.81 g/m*3 9.8 C 0 km/h
2788 16-06-2008 05:56:03 9.8 C 8.81 g/m*3 9.8 C 0 km/h
2789 16-06-2008 06:08:03 10.2 C 8.95 g/m*3 10.2 C 0 km/h
2790 16-06-2008 06:20:03 10.4 C 9.06 g/m*3 10.4 C 0 km/h
2791 16-06-2008 06:32:03 10.4 C 9.06 g/m*3 10.4 C 0 km/h
2792 16-06-2008 06:44:03 10.5 C 9.12 g/m*3 10.5 C 0 km/h
2793 16-06-2008 06:56:03 10.5 C 9.12 g/m*3 10.5 C 0 km/h
2794 16-06-2008 07:08:01 10.5 C 9.02 g/m*3 10.5 C 0 km/h
2795 16-06-2008 07:20:01 10.7 C 9.13 g/m*3 10.7 C 0 km/h
2796 16-06-2008 07:32:01 10.9 C 9.25 g/m*3 10.9 C 0 km/h
2797 16-06-2008 07:44:01 11 C 9.21 g/m*3 11 C 0 km/h
2798 16-06-2008 07:56:02 11 C 9.01 g/m*3 11 C 0 km/h
2799 16-06-2008 08:08:03 10.8 C 8.9 g/m*3 10.8 C 0 km/h
2800 16-06-2008 08:20:03 11.4 C 9.14 g/m*3 11.4 C 0 km/h
Sensor: Nr:Datum:Temp:Abs-Feuchte:Windchill:Wind:
Aussen-T/F 2801 16-06-2008 08:32:02 12.1 C 9.54 g/m*3 12.1 C 0 km/h
2802 16-06-2008 08:44:02 12.4 C 8.96 g/m*3 12.4 C 0 km/h
2803 16-06-2008 08:56:02 12.6 C 8.08 g/m*3 12.6 C 0 km/h
2804 16-06-2008 09:08:01 13.3 C 8.32 g/m*3 13.3 C 0 km/h
2805 16-06-2008 09:20:02 13.6 C 8 g/m*3 13.6 C 0 km/h
2806 16-06-2008 09:32:01 14 C 8.2 g/m*3 14 C 0 km/h
2807 16-06-2008 09:44:01 13.9 C 7.91 g/m*3 13.9 C 0 km/h
2808 16-06-2008 09:56:02 13.8 C 7.74 g/m*3 13.8 C 0 km/h
2809 16-06-2008 10:08:02 14.7 C 7.93 g/m*3 14.7 C 0 km/h
2810 16-06-2008 10:20:02 15.5 C 7.8 g/m*3 15.5 C 0 km/h
2811 16-06-2008 10:32:02 15.5 C 7.4 g/m*3 15.5 C 0 km/h
2812 16-06-2008 10:44:02 15.6 C 7.58 g/m*3 15.6 C 0 km/h
2813 16-06-2008 10:56:02 16.3 C 7.35 g/m*3 16.3 C 0 km/h
2814 16-06-2008 11:08:03 17.1 C 7.13 g/m*3 17.1 C 0 km/h
2815 16-06-2008 11:20:02 16.9 C 7.34 g/m*3 16.9 C 0 km/h
2816 16-06-2008 11:32:02 17.5 C 7.45 g/m*3 17.5 C 0 km/h
2817 16-06-2008 11:44:02 17.2 C 6.3 g/m*3 17.2 C 0 km/h
2818 16-06-2008 11:56:01 17.9 C 6.41 g/m*3 17.9 C 0 km/h
2819 16-06-2008 12:08:02 18.5 C 6.01 g/m*3 18.5 C 0 km/h
2820 16-06-2008 12:20:01 20.7 C 6.3 g/m*3 20.7 C 0 km/h
2821 16-06-2008 12:32:01 19.5 C 5.37 g/m*3 19.5 C 0 km/h
2822 16-06-2008 12:44:01 20.5 C 5.34 g/m*3 20.5 C 0 km/h
2823 16-06-2008 12:56:01 21.2 C 5 g/m*3 21.2 C 0 km/h
2824 16-06-2008 13:08:02 22.2 C 4.12 g/m*3 22.2 C 0 km/h
2825 16-06-2008 13:20:01 23.5 C 4.23 g/m*3 23.5 C 0 km/h
Sensor: Nr:Datum:Temp:Abs-Feuchte:Windchill:Wind:
Aussen-T/F 2826 16-06-2008 13:32:01 22.1 C 3.9 g/m*3 22.1 C 0 km/h
2827 16-06-2008 13:44:01 22.8 C 4.06 g/m*3 22.8 C 0 km/h
2828 16-06-2008 13:56:02 23.1 C 4.13 g/m*3 23.1 C 0 km/h
2829 16-06-2008 14:08:02 23.6 C 4.47 g/m*3 23.6 C 0 km/h
2830 16-06-2008 14:20:02 22.2 C 3.93 g/m*3 22.2 C 0 km/h
2831 16-06-2008 14:32:03 22.3 C 3.95 g/m*3 22.3 C 0 km/h
2832 16-06-2008 14:44:03 21.2 C 4.08 g/m*3 21.2 C 0 km/h
2833 16-06-2008 14:56:02 21.7 C 4.2 g/m*3 21.7 C 0 km/h
2834 16-06-2008 15:08:02 22 C 4.27 g/m*3 22 C 0 km/h
2835 16-06-2008 15:20:02 22.9 C 4.09 g/m*3 22.9 C 0 km/h
2836 16-06-2008 15:32:02 24 C 4.35 g/m*3 24 C 0 km/h
2837 16-06-2008 15:44:02 22.8 C 4.06 g/m*3 22.8 C 0 km/h
2838 16-06-2008 15:56:02 24 C 4.35 g/m*3 24 C 0 km/h
2839 16-06-2008 16:08:02 25.3 C 4.68 g/m*3 25.3 C 0 km/h
2840 16-06-2008 16:20:01 24.2 C 4.4 g/m*3 24.2 C 0 km/h
2841 16-06-2008 16:32:02 24.3 C 4.43 g/m*3 24.3 C 0 km/h
2842 16-06-2008 16:44:02 22.4 C 3.97 g/m*3 22.4 C 0 km/h
2843 16-06-2008 16:56:02 21.6 C 4.36 g/m*3 21.6 C 0 km/h
2844 16-06-2008 17:08:02 22.7 C 4.04 g/m*3 22.7 C 0 km/h
2845 16-06-2008 17:20:02 23.7 C 4.28 g/m*3 23.7 C 0 km/h
2846 16-06-2008 17:32:02 25 C 4.6 g/m*3 25 C 0 km/h
2847 16-06-2008 17:44:02 24.5 C 4.48 g/m*3 24.5 C 0 km/h
2848 16-06-2008 17:56:02 24.8 C 4.55 g/m*3 24.8 C 0 km/h
2849 16-06-2008 18:08:01 22.7 C 4.04 g/m*3 22.7 C 0 km/h
2850 16-06-2008 18:20:02 22.3 C 4.15 g/m*3 22.3 C 0 km/h
Sensor: Nr:Datum:Temp:Abs-Feuchte:Windchill:Wind:
Aussen-T/F 2851 16-06-2008 18:32:02 22.5 C 4.19 g/m*3 22.5 C 0 km/h
2852 16-06-2008 18:44:02 22.6 C 4.02 g/m*3 22.6 C 0 km/h
2853 16-06-2008 18:56:02 23.9 C 4.33 g/m*3 23.9 C 0 km/h
2854 16-06-2008 19:08:02 22.4 C 3.97 g/m*3 22.4 C 0 km/h
2855 16-06-2008 19:20:02 22.1 C 3.9 g/m*3 22.1 C 0 km/h
2856 16-06-2008 19:32:02 22.7 C 4.04 g/m*3 22.7 C 0 km/h
2857 16-06-2008 19:44:02 22 C 3.88 g/m*3 22 C 0 km/h
2858 16-06-2008 19:56:02 22.5 C 3.99 g/m*3 22.5 C 0 km/h
2859 16-06-2008 20:08:01 22 C 4.08 g/m*3 22 C 0 km/h
2860 16-06-2008 20:20:02 21.1 C 4.05 g/m*3 21.1 C 0 km/h
2861 16-06-2008 20:32:01 20.5 C 4.45 g/m*3 20.5 C 0 km/h
2862 16-06-2008 20:44:01 19.5 C 4.53 g/m*3 19.5 C 0 km/h
2863 16-06-2008 20:56:02 19.1 C 4.59 g/m*3 19.1 C 0 km/h
2864 16-06-2008 21:08:02 18.4 C 4.72 g/m*3 18.4 C 0 km/h
2865 16-06-2008 21:20:01 17.8 C 5.31 g/m*3 17.8 C 0 km/h
2866 16-06-2008 21:32:02 17.2 C 5.71 g/m*3 17.2 C 0 km/h
2867 16-06-2008 21:44:02 16.4 C 5.58 g/m*3 16.4 C 0 km/h
2868 16-06-2008 21:56:02 16 C 5.45 g/m*3 16 C 0 km/h
2869 16-06-2008 22:08:01 15.5 C 5.29 g/m*3 15.5 C 0 km/h
2870 16-06-2008 22:20:01 15.2 C 5.45 g/m*3 15.2 C 0 km/h
2871 16-06-2008 22:32:02 14.7 C 5.67 g/m*3 14.7 C 0 km/h
2872 16-06-2008 22:44:02 14.6 C 5.63 g/m*3 14.6 C 0 km/h
2873 16-06-2008 22:57:02 14.5 C 5.6 g/m*3 14.5 C 0 km/h
2874 16-06-2008 23:09:02 14.1 C 5.7 g/m*3 14.1 C 0 km/h
2875 16-06-2008 23:21:02 13.9 C 5.87 g/m*3 13.9 C 0 km/h
Sensor: Nr:Datum:Temp:Abs-Feuchte:Windchill:Wind:
Aussen-T/F 2876 16-06-2008 23:33:02 13.7 C 6.39 g/m*3 13.7 C 0 km/h
2877 16-06-2008 23:45:02 13.5 C 6.55 g/m*3 13.5 C 0 km/h
2878 16-06-2008 23:57:02 13.6 C 6.59 g/m*3 13.6 C 0 km/h
2879 17-06-2008 00:09:02 13.4 C 6.63 g/m*3 13.4 C 0 km/h
2880 17-06-2008 00:21:02 13 C 6.69 g/m*3 13 C 0 km/h
2881 17-06-2008 00:33:02 12.8 C 6.61 g/m*3 12.8 C 0 km/h
2882 17-06-2008 00:45:02 12.6 C 6.31 g/m*3 12.6 C 0 km/h
2883 17-06-2008 00:57:03 12.3 C 6.52 g/m*3 12.3 C 0 km/h
2884 17-06-2008 01:09:03 12.4 C 6.77 g/m*3 12.4 C 0 km/h
2885 17-06-2008 01:21:03 12.4 C 6.66 g/m*3 12.4 C 0 km/h
2886 17-06-2008 01:33:03 12.2 C 6.58 g/m*3 12.2 C 0 km/h
2887 17-06-2008 01:45:03 11.9 C 6.57 g/m*3 11.9 C 0 km/h
2888 17-06-2008 01:57:03 11.8 C 6.74 g/m*3 11.8 C 0 km/h
2889 17-06-2008 02:09:03 11.6 C 6.65 g/m*3 11.6 C 0 km/h
2890 17-06-2008 02:21:03 11.3 C 6.63 g/m*3 11.3 C 0 km/h
2891 17-06-2008 02:33:03 10.9 C 6.96 g/m*3 10.9 C 0 km/h
2892 17-06-2008 02:45:03 10.7 C 6.97 g/m*3 10.7 C 0 km/h
2893 17-06-2008 02:57:03 10.6 C 6.83 g/m*3 10.6 C 0 km/h
2894 17-06-2008 03:09:03 10.5 C 6.98 g/m*3 10.5 C 0 km/h
2895 17-06-2008 03:21:03 10.4 C 7.04 g/m*3 10.4 C 0 km/h
2896 17-06-2008 03:33:03 10.3 C 7.09 g/m*3 10.3 C 0 km/h
2897 17-06-2008 03:45:03 10.1 C 6.9 g/m*3 10.1 C 0 km/h
2898 17-06-2008 03:57:03 10.1 C 6.81 g/m*3 10.1 C 0 km/h
2899 17-06-2008 04:09:03 10 C 6.77 g/m*3 10 C 0 km/h
2900 17-06-2008 04:21:03 9.7 C 6.82 g/m*3 9.7 C 0 km/h
Sensor: Nr:Datum:Temp:Abs-Feuchte:Windchill:Wind:
Aussen-T/F 2901 17-06-2008 04:33:03 9.5 C 6.83 g/m*3 9.5 C 0 km/h
2902 17-06-2008 04:45:03 9.5 C 6.92 g/m*3 9.5 C 0 km/h
2903 17-06-2008 04:57:04 9.3 C 6.92 g/m*3 9.3 C 0 km/h
2904 17-06-2008 05:09:04 9.1 C 6.92 g/m*3 9.1 C 0 km/h
2905 17-06-2008 05:21:04 8.9 C 7.01 g/m*3 8.9 C 0 km/h
2906 17-06-2008 05:33:04 8.9 C 7.1 g/m*3 8.9 C 0 km/h
2907 17-06-2008 05:45:04 8.8 C 7.14 g/m*3 8.8 C 0 km/h
2908 17-06-2008 05:57:04 8.9 C 7.18 g/m*3 8.9 C 0 km/h
2909 17-06-2008 06:09:04 8.9 C 7.18 g/m*3 8.9 C 0 km/h
2910 17-06-2008 06:21:04 8.9 C 7.27 g/m*3 8.9 C 0 km/h
2911 17-06-2008 06:33:04 9.1 C 7.19 g/m*3 9.1 C 0 km/h
2912 17-06-2008 06:45:04 9.2 C 7.23 g/m*3 9.2 C 0 km/h
2913 17-06-2008 06:57:04 9.3 C 7.28 g/m*3 9.3 C 0 km/h
2914 17-06-2008 07:09:03 9.3 C 7.28 g/m*3 9.3 C 0 km/h
2915 17-06-2008 07:21:03 9.5 C 7.37 g/m*3 9.5 C 0 km/h
2916 17-06-2008 07:33:03 9.6 C 7.42 g/m*3 9.6 C 0 km/h
2917 17-06-2008 07:45:02 9.9 C 7.47 g/m*3 9.9 C 0 km/h
2918 17-06-2008 07:57:03 10.2 C 7.33 g/m*3 10.2 C 0 km/h
2919 17-06-2008 08:09:02 10.7 C 7.46 g/m*3 10.7 C 0 km/h
2920 17-06-2008 08:21:02 11.3 C 7.45 g/m*3 11.3 C 0 km/h
2921 17-06-2008 08:33:02 11.5 C 7.44 g/m*3 11.5 C 0 km/h
2922 17-06-2008 08:45:01 11.9 C 7.52 g/m*3 11.9 C 0 km/h
2923 17-06-2008 08:57:01 12.4 C 7.65 g/m*3 12.4 C 0 km/h
2924 17-06-2008 09:09:01 12.7 C 7.68 g/m*3 12.7 C 0 km/h
2925 17-06-2008 09:21:02 13.6 C 7.53 g/m*3 13.6 C 0 km/h
Sensor: Nr:Datum:Temp:Abs-Feuchte:Windchill:Wind:
Aussen-T/F 2926 17-06-2008 09:33:01 14.6 C 7.38 g/m*3 14.6 C 0 km/h
2927 17-06-2008 09:45:02 15.6 C 7.18 g/m*3 15.6 C 0 km/h
2928 17-06-2008 09:57:02 16.2 C 7.03 g/m*3 16.2 C 0 km/h
2929 17-06-2008 10:09:01 16.8 C 7.01 g/m*3 16.8 C 0 km/h
2930 17-06-2008 10:21:02 17.4 C 7.11 g/m*3 17.4 C 0 km/h
2931 17-06-2008 10:33:02 18.4 C 7.08 g/m*3 18.4 C 0 km/h
2932 17-06-2008 10:45:02 18.7 C 6.88 g/m*3 18.7 C 0 km/h
2933 17-06-2008 10:57:02 19.1 C 6.88 g/m*3 19.1 C 0 km/h
2934 17-06-2008 11:09:01 19.2 C 6.76 g/m*3 19.2 C 0 km/h
2935 17-06-2008 11:21:02 20 C 7.09 g/m*3 20 C 0 km/h
2936 17-06-2008 11:33:02 20.5 C 6.94 g/m*3 20.5 C 0 km/h
2937 17-06-2008 11:45:02 21.6 C 6.83 g/m*3 21.6 C 0 km/h
2938 17-06-2008 11:57:02 21.9 C 6.56 g/m*3 21.9 C 0 km/h
2939 17-06-2008 12:09:02 21.3 C 6.52 g/m*3 21.3 C 0 km/h
2940 17-06-2008 12:21:02 20.9 C 6.37 g/m*3 20.9 C 0 km/h
2941 17-06-2008 12:33:03 20.1 C 6.26 g/m*3 20.1 C 0 km/h
2942 17-06-2008 12:45:03 20.2 C 5.77 g/m*3 20.2 C 0 km/h
2943 17-06-2008 12:57:03 20.1 C 6.95 g/m*3 20.1 C 0 km/h
2944 17-06-2008 13:09:02 20.2 C 7.34 g/m*3 20.2 C 0 km/h
2945 17-06-2008 13:21:02 20.4 C 7.43 g/m*3 20.4 C 0 km/h
2946 17-06-2008 13:33:02 21.3 C 7.08 g/m*3 21.3 C 0 km/h
2947 17-06-2008 13:45:01 22 C 5.24 g/m*3 22 C 0 km/h
2948 17-06-2008 13:57:01 23.2 C 4.99 g/m*3 23.2 C 0 km/h
2949 17-06-2008 14:09:02 23.2 C 4.57 g/m*3 23.2 C 0 km/h
2950 17-06-2008 14:21:02 23.8 C 5.38 g/m*3 23.8 C 0 km/h
Sensor: Nr:Datum:Temp:Abs-Feuchte:Windchill:Wind:
Aussen-T/F 2951 17-06-2008 14:33:02 24.1 C 5.47 g/m*3 24.1 C 0 km/h
2952 17-06-2008 14:45:02 24.5 C 4.7 g/m*3 24.5 C 0 km/h
2953 17-06-2008 14:57:02 24.9 C 4.81 g/m*3 24.9 C 0 km/h
2954 17-06-2008 15:09:02 25.1 C 4.86 g/m*3 25.1 C 0 km/h
2955 17-06-2008 15:21:02 25.2 C 4.66 g/m*3 25.2 C 0 km/h
2956 17-06-2008 15:33:02 26.6 C 5.03 g/m*3 26.6 C 0 km/h
2957 17-06-2008 15:45:02 27.1 C 5.18 g/m*3 27.1 C 0 km/h
2958 17-06-2008 15:57:02 25.8 C 4.82 g/m*3 25.8 C 0 km/h
2959 17-06-2008 16:09:02 25.4 C 4.71 g/m*3 25.4 C 0 km/h
2960 17-06-2008 16:21:02 25.7 C 4.79 g/m*3 25.7 C 0 km/h
2961 17-06-2008 16:33:03 26.9 C 5.12 g/m*3 26.9 C 0 km/h
2962 17-06-2008 16:45:02 28.8 C 5.68 g/m*3 28.8 C 0 km/h
2963 17-06-2008 16:57:02 29 C 5.74 g/m*3 29 C 0 km/h
2964 17-06-2008 17:09:02 28 C 5.44 g/m*3 28 C 0 km/h
2965 17-06-2008 17:21:02 25.7 C 4.79 g/m*3 25.7 C 0 km/h
2966 17-06-2008 17:33:02 25.4 C 5.89 g/m*3 25.4 C 0 km/h
2967 17-06-2008 17:45:02 25.2 C 6.29 g/m*3 25.2 C 0 km/h
2968 17-06-2008 17:57:02 24.9 C 5.95 g/m*3 24.9 C 0 km/h
2969 17-06-2008 18:09:02 26.7 C 5.06 g/m*3 26.7 C 0 km/h
2970 17-06-2008 18:21:02 28.5 C 5.59 g/m*3 28.5 C 0 km/h
2971 17-06-2008 18:33:02 27 C 5.15 g/m*3 27 C 0 km/h
2972 17-06-2008 18:45:02 25.5 C 6.39 g/m*3 25.5 C 0 km/h
2973 17-06-2008 18:57:02 24.3 C 6.64 g/m*3 24.3 C 0 km/h
2974 17-06-2008 19:09:02 23.4 C 6.73 g/m*3 23.4 C 0 km/h
2975 17-06-2008 19:21:03 23.1 C 6.82 g/m*3 23.1 C 0 km/h
Sensor: Nr:Datum:Temp:Abs-Feuchte:Windchill:Wind:
Aussen-T/F 2976 17-06-2008 19:33:02 22.5 C 7.19 g/m*3 22.5 C 0 km/h
2977 17-06-2008 19:45:02 21.9 C 7.14 g/m*3 21.9 C 0 km/h
2978 17-06-2008 19:57:03 21.5 C 6.98 g/m*3 21.5 C 0 km/h
2979 17-06-2008 20:09:01 21.2 C 7.23 g/m*3 21.2 C 0 km/h
2980 17-06-2008 20:21:01 20.8 C 7.06 g/m*3 20.8 C 0 km/h
2981 17-06-2008 20:33:02 20.5 C 6.76 g/m*3 20.5 C 0 km/h
2982 17-06-2008 20:45:02 20.2 C 6.12 g/m*3 20.2 C 0 km/h
2983 17-06-2008 20:57:02 20 C 6.22 g/m*3 20 C 0 km/h
2984 17-06-2008 21:09:02 19.8 C 6.49 g/m*3 19.8 C 0 km/h
2985 17-06-2008 21:21:02 19.4 C 6.34 g/m*3 19.4 C 0 km/h
2986 17-06-2008 21:33:02 19 C 6.36 g/m*3 19 C 0 km/h
2987 17-06-2008 21:45:02 18.7 C 6.4 g/m*3 18.7 C 0 km/h
2988 17-06-2008 21:57:02 18.2 C 6.68 g/m*3 18.2 C 0 km/h
2989 17-06-2008 22:09:02 17.7 C 6.79 g/m*3 17.7 C 0 km/h
2990 17-06-2008 22:21:02 17.8 C 6.98 g/m*3 17.8 C 0 km/h
2991 17-06-2008 22:34:02 17.4 C 6.82 g/m*3 17.4 C 0 km/h
2992 17-06-2008 22:46:02 17.2 C 7.03 g/m*3 17.2 C 0 km/h
2993 17-06-2008 22:58:02 17.2 C 7.18 g/m*3 17.2 C 0 km/h
2994 17-06-2008 23:10:02 17.3 C 7.22 g/m*3 17.3 C 0 km/h
2995 17-06-2008 23:22:02 17.2 C 7.47 g/m*3 17.2 C 0 km/h
2996 17-06-2008 23:34:02 17.1 C 7.42 g/m*3 17.1 C 0 km/h
2997 17-06-2008 23:46:02 16.7 C 7.39 g/m*3 16.7 C 0 km/h
2998 17-06-2008 23:58:02 16.5 C 7.72 g/m*3 16.5 C 0 km/h
2999 18-06-2008 00:10:03 16.3 C 7.91 g/m*3 16.3 C 0 km/h
3000 18-06-2008 00:22:03 16.3 C 8.05 g/m*3 16.3 C 0 km/h
Sensor: Nr:Datum:Temp:Abs-Feuchte:Windchill:Wind:
Aussen-T/F 3001 18-06-2008 00:34:03 16.4 C 8.1 g/m*3 16.4 C 0 km/h
3002 18-06-2008 00:46:03 16.6 C 8.05 g/m*3 16.6 C 0 km/h
3003 18-06-2008 00:58:03 16.7 C 8.1 g/m*3 16.7 C 0 km/h
3004 18-06-2008 01:10:03 16.2 C 8.27 g/m*3 16.2 C 0 km/h
3005 18-06-2008 01:22:03 16 C 8.45 g/m*3 16 C 0 km/h
3006 18-06-2008 01:34:03 15.7 C 8.3 g/m*3 15.7 C 0 km/h
3007 18-06-2008 01:46:03 15.5 C 8.2 g/m*3 15.5 C 0 km/h
3008 18-06-2008 01:58:03 15.4 C 8.41 g/m*3 15.4 C 0 km/h
3009 18-06-2008 02:10:03 15.6 C 8.51 g/m*3 15.6 C 0 km/h
3010 18-06-2008 02:22:03 15.3 C 8.49 g/m*3 15.3 C 0 km/h
3011 18-06-2008 02:34:03 15.2 C 8.57 g/m*3 15.2 C 0 km/h
3012 18-06-2008 02:46:03 15.1 C 8.64 g/m*3 15.1 C 0 km/h
3013 18-06-2008 02:58:03 15.1 C 8.77 g/m*3 15.1 C 0 km/h
3014 18-06-2008 03:10:03 15.1 C 8.77 g/m*3 15.1 C 0 km/h
3015 18-06-2008 03:22:03 15 C 8.59 g/m*3 15 C 0 km/h
3016 18-06-2008 03:34:03 14.7 C 8.81 g/m*3 14.7 C 0 km/h
3017 18-06-2008 03:46:03 14.4 C 8.78 g/m*3 14.4 C 0 km/h
3018 18-06-2008 03:58:03 14 C 8.56 g/m*3 14 C 0 km/h
3019 18-06-2008 04:10:04 13.8 C 8.7 g/m*3 13.8 C 0 km/h
3020 18-06-2008 04:22:04 13.6 C 8.83 g/m*3 13.6 C 0 km/h
3021 18-06-2008 04:34:04 13.4 C 8.6 g/m*3 13.4 C 0 km/h
3022 18-06-2008 04:46:04 13.2 C 8.84 g/m*3 13.2 C 0 km/h
3023 18-06-2008 04:58:04 13 C 8.85 g/m*3 13 C 0 km/h
3024 18-06-2008 05:10:04 12.8 C 8.85 g/m*3 12.8 C 0 km/h
3025 18-06-2008 05:22:04 12.6 C 8.85 g/m*3 12.6 C 0 km/h
Sensor: Nr:Datum:Temp:Abs-Feuchte:Windchill:Wind:
Aussen-T/F 3026 18-06-2008 05:34:04 12.5 C 8.91 g/m*3 12.5 C 0 km/h
3027 18-06-2008 05:46:04 12.4 C 8.74 g/m*3 12.4 C 0 km/h
3028 18-06-2008 05:58:04 12.3 C 8.8 g/m*3 12.3 C 0 km/h
3029 18-06-2008 06:10:04 12.3 C 8.8 g/m*3 12.3 C 0 km/h
3030 18-06-2008 06:22:04 12.4 C 8.85 g/m*3 12.4 C 0 km/h
3031 18-06-2008 06:34:04 12.5 C 8.91 g/m*3 12.5 C 0 km/h
3032 18-06-2008 06:46:04 12.5 C 8.91 g/m*3 12.5 C 0 km/h
3033 18-06-2008 06:58:04 12.5 C 8.8 g/m*3 12.5 C 0 km/h
3034 18-06-2008 07:10:03 12.6 C 8.85 g/m*3 12.6 C 0 km/h
3035 18-06-2008 07:22:02 12.8 C 8.96 g/m*3 12.8 C 0 km/h
3036 18-06-2008 07:34:02 12.8 C 8.96 g/m*3 12.8 C 0 km/h
3037 18-06-2008 07:46:02 13.1 C 9.01 g/m*3 13.1 C 0 km/h
3038 18-06-2008 07:58:02 13.4 C 9.18 g/m*3 13.4 C 0 km/h
3039 18-06-2008 08:10:01 13.8 C 9.17 g/m*3 13.8 C 0 km/h
3040 18-06-2008 08:22:01 14.1 C 9.1 g/m*3 14.1 C 0 km/h
3041 18-06-2008 08:34:02 14.5 C 9.08 g/m*3 14.5 C 0 km/h
3042 18-06-2008 08:46:02 14.9 C 9.18 g/m*3 14.9 C 0 km/h
3043 18-06-2008 08:58:02 15.4 C 9.07 g/m*3 15.4 C 0 km/h
3044 18-06-2008 09:10:02 16.1 C 9.05 g/m*3 16.1 C 0 km/h
3045 18-06-2008 09:22:02 16.7 C 8.81 g/m*3 16.7 C 0 km/h
3046 18-06-2008 09:34:02 17.4 C 8.6 g/m*3 17.4 C 0 km/h
3047 18-06-2008 09:46:02 18 C 8.45 g/m*3 18 C 0 km/h
3048 18-06-2008 09:58:03 18.7 C 8.49 g/m*3 18.7 C 0 km/h
3049 18-06-2008 10:10:01 18.9 C 7.61 g/m*3 18.9 C 0 km/h
3050 18-06-2008 10:22:02 19.7 C 7.3 g/m*3 19.7 C 0 km/h
Sensor: Nr:Datum:Temp:Abs-Feuchte:Windchill:Wind:
Aussen-T/F 3051 18-06-2008 10:34:02 20 C 6.39 g/m*3 20 C 0 km/h
3052 18-06-2008 10:46:02 20.5 C 6.58 g/m*3 20.5 C 0 km/h
3053 18-06-2008 10:58:02 21.4 C 6 g/m*3 21.4 C 0 km/h
3054 18-06-2008 11:10:02 21.9 C 5.79 g/m*3 21.9 C 0 km/h
3055 18-06-2008 11:22:02 22.1 C 4.88 g/m*3 22.1 C 0 km/h
3056 18-06-2008 11:34:02 23.3 C 5.02 g/m*3 23.3 C 0 km/h
3057 18-06-2008 11:46:02 23.4 C 4.42 g/m*3 23.4 C 0 km/h
3058 18-06-2008 11:58:02 23.6 C 4.68 g/m*3 23.6 C 0 km/h
3059 18-06-2008 12:10:01 23.7 C 4.92 g/m*3 23.7 C 0 km/h
3060 18-06-2008 12:22:01 24.3 C 4.65 g/m*3 24.3 C 0 km/h
3061 18-06-2008 12:34:02 25.3 C 4.68 g/m*3 25.3 C 0 km/h
3062 18-06-2008 12:46:02 25.3 C 4.68 g/m*3 25.3 C 0 km/h
3063 18-06-2008 12:58:02 24 C 4.57 g/m*3 24 C 0 km/h
3064 18-06-2008 13:10:02 25.4 C 4.71 g/m*3 25.4 C 0 km/h
3065 18-06-2008 13:22:02 27 C 5.15 g/m*3 27 C 0 km/h
3066 18-06-2008 13:34:03 26.3 C 4.95 g/m*3 26.3 C 0 km/h
3067 18-06-2008 13:46:01 26.1 C 4.9 g/m*3 26.1 C 0 km/h
3068 18-06-2008 13:58:01 26.6 C 5.03 g/m*3 26.6 C 0 km/h
3069 18-06-2008 14:10:02 26.1 C 4.9 g/m*3 26.1 C 0 km/h
3070 18-06-2008 14:22:02 25.6 C 4.76 g/m*3 25.6 C 0 km/h
3071 18-06-2008 14:34:02 26.4 C 4.98 g/m*3 26.4 C 0 km/h
3072 18-06-2008 14:46:02 27.2 C 5.2 g/m*3 27.2 C 0 km/h
3073 18-06-2008 14:58:02 26.8 C 5.09 g/m*3 26.8 C 0 km/h
3074 18-06-2008 15:10:02 27.4 C 5.26 g/m*3 27.4 C 0 km/h
3075 18-06-2008 15:22:02 27.2 C 5.2 g/m*3 27.2 C 0 km/h
Sensor: Nr:Datum:Temp:Abs-Feuchte:Windchill:Wind:
Aussen-T/F 3076 18-06-2008 15:34:02 27.6 C 5.32 g/m*3 27.6 C 0 km/h
3077 18-06-2008 15:46:02 26.8 C 5.09 g/m*3 26.8 C 0 km/h
3078 18-06-2008 15:58:02 27.3 C 5.23 g/m*3 27.3 C 0 km/h
3079 18-06-2008 16:10:02 27.7 C 5.35 g/m*3 27.7 C 0 km/h
3080 18-06-2008 16:22:03 28.4 C 5.56 g/m*3 28.4 C 0 km/h
3081 18-06-2008 16:34:02 28.2 C 5.5 g/m*3 28.2 C 0 km/h
3082 18-06-2008 16:46:02 27.8 C 5.38 g/m*3 27.8 C 0 km/h
3083 18-06-2008 16:58:02 27.3 C 5.23 g/m*3 27.3 C 0 km/h
3084 18-06-2008 17:10:02 26.4 C 4.98 g/m*3 26.4 C 0 km/h
3085 18-06-2008 17:22:02 27.9 C 5.41 g/m*3 27.9 C 0 km/h
3086 18-06-2008 17:34:02 27.6 C 5.32 g/m*3 27.6 C 0 km/h
3087 18-06-2008 17:46:03 26.4 C 5.23 g/m*3 26.4 C 0 km/h
3088 18-06-2008 17:58:03 27.9 C 5.41 g/m*3 27.9 C 0 km/h
3089 18-06-2008 18:10:02 27 C 5.15 g/m*3 27 C 0 km/h
3090 18-06-2008 18:22:02 26.9 C 5.12 g/m*3 26.9 C 0 km/h
3091 18-06-2008 18:34:02 27.2 C 5.2 g/m*3 27.2 C 0 km/h
3092 18-06-2008 18:46:02 27.6 C 5.32 g/m*3 27.6 C 0 km/h
3093 18-06-2008 18:58:02 27.3 C 5.23 g/m*3 27.3 C 0 km/h
3094 18-06-2008 19:10:02 27.1 C 5.18 g/m*3 27.1 C 0 km/h
3095 18-06-2008 19:22:02 26.1 C 5.14 g/m*3 26.1 C 0 km/h
3096 18-06-2008 19:34:02 25.9 C 5.81 g/m*3 25.9 C 0 km/h
3097 18-06-2008 19:46:01 26.3 C 6.19 g/m*3 26.3 C 0 km/h
3098 18-06-2008 19:58:01 27.4 C 5.53 g/m*3 27.4 C 0 km/h
3099 18-06-2008 20:10:01 26.5 C 6.01 g/m*3 26.5 C 0 km/h
3100 18-06-2008 20:22:02 25.8 C 6.26 g/m*3 25.8 C 0 km/h
Sensor: Nr:Datum:Temp:Abs-Feuchte:Windchill:Wind:
Aussen-T/F 3101 18-06-2008 20:34:01 24.4 C 6.23 g/m*3 24.4 C 0 km/h
3102 18-06-2008 20:46:02 23.5 C 6.56 g/m*3 23.5 C 0 km/h
3103 18-06-2008 20:58:02 22.7 C 6.47 g/m*3 22.7 C 0 km/h
3104 18-06-2008 21:10:02 22.6 C 6.83 g/m*3 22.6 C 0 km/h
3105 18-06-2008 21:22:01 22.2 C 6.87 g/m*3 22.2 C 0 km/h
3106 18-06-2008 21:34:02 21.5 C 6.98 g/m*3 21.5 C 0 km/h
3107 18-06-2008 21:46:02 21 C 6.78 g/m*3 21 C 0 km/h
3108 18-06-2008 21:58:02 20.7 C 7.2 g/m*3 20.7 C 0 km/h
3109 18-06-2008 22:11:03 20.1 C 6.95 g/m*3 20.1 C 0 km/h
3110 18-06-2008 22:23:03 20.2 C 6.99 g/m*3 20.2 C 0 km/h
3111 18-06-2008 22:35:03 20 C 6.91 g/m*3 20 C 0 km/h
3112 18-06-2008 22:47:03 20.1 C 6.61 g/m*3 20.1 C 0 km/h
3113 18-06-2008 22:59:03 20 C 6.57 g/m*3 20 C 0 km/h
3114 18-06-2008 23:11:03 19.9 C 6.7 g/m*3 19.9 C 0 km/h
3115 18-06-2008 23:23:03 19.8 C 7 g/m*3 19.8 C 0 km/h
3116 18-06-2008 23:35:03 19.5 C 7.05 g/m*3 19.5 C 0 km/h
3117 18-06-2008 23:47:03 19.1 C 7.05 g/m*3 19.1 C 0 km/h
3118 18-06-2008 23:59:04 18.8 C 7.25 g/m*3 18.8 C 0 km/h
3119 19-06-2008 00:11:04 18.6 C 7.16 g/m*3 18.6 C 0 km/h
3120 19-06-2008 00:23:04 18.5 C 7.12 g/m*3 18.5 C 0 km/h
3121 19-06-2008 00:35:04 18.3 C 7.35 g/m*3 18.3 C 0 km/h
3122 19-06-2008 00:47:04 18.2 C 7.15 g/m*3 18.2 C 0 km/h
3123 19-06-2008 00:59:04 17.9 C 7.33 g/m*3 17.9 C 0 km/h
3124 19-06-2008 01:11:04 17.6 C 7.35 g/m*3 17.6 C 0 km/h
3125 19-06-2008 01:23:04 17.5 C 7.31 g/m*3 17.5 C 0 km/h
Sensor: Nr:Datum:Temp:Abs-Feuchte:Windchill:Wind:
Aussen-T/F 3126 19-06-2008 01:35:04 17.5 C 7.6 g/m*3 17.5 C 0 km/h
3127 19-06-2008 01:47:04 16.9 C 7.77 g/m*3 16.9 C 0 km/h
3128 19-06-2008 01:59:04 17 C 7.38 g/m*3 17 C 0 km/h
3129 19-06-2008 02:11:04 16.9 C 7.48 g/m*3 16.9 C 0 km/h
3130 19-06-2008 02:23:04 17 C 7.38 g/m*3 17 C 0 km/h
3131 19-06-2008 02:35:04 16.8 C 7.72 g/m*3 16.8 C 0 km/h
3132 19-06-2008 02:47:04 16.5 C 7.86 g/m*3 16.5 C 0 km/h
3133 19-06-2008 02:59:04 16.5 C 7.86 g/m*3 16.5 C 0 km/h
3134 19-06-2008 03:11:04 16.3 C 7.91 g/m*3 16.3 C 0 km/h
3135 19-06-2008 03:23:04 16.2 C 7.86 g/m*3 16.2 C 0 km/h
3136 19-06-2008 03:35:04 16.2 C 7.72 g/m*3 16.2 C 0 km/h
3137 19-06-2008 03:47:04 16.3 C 7.63 g/m*3 16.3 C 0 km/h
3138 19-06-2008 03:59:05 15.9 C 8.26 g/m*3 15.9 C 0 km/h
3139 19-06-2008 04:11:05 15.6 C 8.38 g/m*3 15.6 C 0 km/h
3140 19-06-2008 04:23:05 15.7 C 8.43 g/m*3 15.7 C 0 km/h
3141 19-06-2008 04:35:05 15.6 C 8.38 g/m*3 15.6 C 0 km/h
3142 19-06-2008 04:47:05 15.7 C 8.16 g/m*3 15.7 C 0 km/h
3143 19-06-2008 04:59:05 16 C 7.63 g/m*3 16 C 0 km/h
3144 19-06-2008 05:11:05 16 C 7.77 g/m*3 16 C 0 km/h
3145 19-06-2008 05:23:05 16 C 7.9 g/m*3 16 C 0 km/h
3146 19-06-2008 05:35:05 16 C 7.9 g/m*3 16 C 0 km/h
3147 19-06-2008 05:47:05 15.6 C 8.11 g/m*3 15.6 C 0 km/h
3148 19-06-2008 05:59:05 15.5 C 8.2 g/m*3 15.5 C 0 km/h
3149 19-06-2008 06:11:05 15.6 C 8.25 g/m*3 15.6 C 0 km/h
3150 19-06-2008 06:23:05 15.8 C 8.35 g/m*3 15.8 C 0 km/h
Sensor: Nr:Datum:Temp:Abs-Feuchte:Windchill:Wind:
Aussen-T/F 3151 19-06-2008 06:35:05 15.8 C 8.21 g/m*3 15.8 C 0 km/h
3152 19-06-2008 06:47:05 15.9 C 8.26 g/m*3 15.9 C 0 km/h
3153 19-06-2008 06:59:05 15.9 C 8.4 g/m*3 15.9 C 0 km/h
3154 19-06-2008 07:11:02 16 C 8.31 g/m*3 16 C 0 km/h
3155 19-06-2008 07:23:02 16.2 C 8.41 g/m*3 16.2 C 0 km/h
3156 19-06-2008 07:35:02 16.3 C 8.46 g/m*3 16.3 C 0 km/h
3157 19-06-2008 07:47:02 16.5 C 8.57 g/m*3 16.5 C 0 km/h
3158 19-06-2008 07:59:02 16.7 C 8.67 g/m*3 16.7 C 0 km/h
3159 19-06-2008 08:11:02 17.6 C 8.55 g/m*3 17.6 C 0 km/h
3160 19-06-2008 08:23:01 17.8 C 8.35 g/m*3 17.8 C 0 km/h
3161 19-06-2008 08:35:02 18.2 C 8.39 g/m*3 18.2 C 0 km/h
3162 19-06-2008 08:47:02 18.8 C 8.54 g/m*3 18.8 C 0 km/h
3163 19-06-2008 08:59:02 19 C 7.99 g/m*3 19 C 0 km/h
3164 19-06-2008 09:11:02 18.7 C 7.2 g/m*3 18.7 C 0 km/h
3165 19-06-2008 09:23:02 18.5 C 7.12 g/m*3 18.5 C 0 km/h
3166 19-06-2008 09:35:02 19 C 6.84 g/m*3 19 C 0 km/h
3167 19-06-2008 09:47:02 18.8 C 6.93 g/m*3 18.8 C 0 km/h
3168 19-06-2008 09:59:03 19.2 C 7.09 g/m*3 19.2 C 0 km/h
3169 19-06-2008 10:11:01 19.5 C 6.88 g/m*3 19.5 C 0 km/h
3170 19-06-2008 10:23:02 19.8 C 7.17 g/m*3 19.8 C 0 km/h
3171 19-06-2008 10:35:02 20.5 C 6.94 g/m*3 20.5 C 0 km/h
3172 19-06-2008 10:47:02 21.2 C 6.86 g/m*3 21.2 C 0 km/h
3173 19-06-2008 10:59:02 21.5 C 6.79 g/m*3 21.5 C 0 km/h
3174 19-06-2008 11:11:02 22.1 C 6.25 g/m*3 22.1 C 0 km/h
3175 19-06-2008 11:23:02 22.9 C 6.54 g/m*3 22.9 C 0 km/h
Sensor: Nr:Datum:Temp:Abs-Feuchte:Windchill:Wind:
Aussen-T/F 3176 19-06-2008 11:35:02 23.2 C 6.03 g/m*3 23.2 C 0 km/h
3177 19-06-2008 11:47:02 23.6 C 5.74 g/m*3 23.6 C 0 km/h
3178 19-06-2008 11:59:02 23.9 C 5.62 g/m*3 23.9 C 0 km/h
3179 19-06-2008 12:11:02 25.1 C 5.09 g/m*3 25.1 C 0 km/h
3180 19-06-2008 12:23:03 23.8 C 5.38 g/m*3 23.8 C 0 km/h
3181 19-06-2008 12:35:02 23.7 C 5.56 g/m*3 23.7 C 0 km/h
3182 19-06-2008 12:47:02 23.9 C 5.84 g/m*3 23.9 C 0 km/h
3183 19-06-2008 12:59:02 24.5 C 5.6 g/m*3 24.5 C 0 km/h
3184 19-06-2008 13:11:01 24.5 C 5.6 g/m*3 24.5 C 0 km/h
3185 19-06-2008 13:23:02 26.2 C 5.17 g/m*3 26.2 C 0 km/h
3186 19-06-2008 13:35:02 25.9 C 5.57 g/m*3 25.9 C 0 km/h
3187 19-06-2008 13:47:02 25.7 C 5.75 g/m*3 25.7 C 0 km/h
3188 19-06-2008 13:59:02 25.8 C 5.54 g/m*3 25.8 C 0 km/h
3189 19-06-2008 14:11:02 25.8 C 5.54 g/m*3 25.8 C 0 km/h
3190 19-06-2008 14:23:02 25.6 C 5.48 g/m*3 25.6 C 0 km/h
3191 19-06-2008 14:35:03 25.3 C 5.15 g/m*3 25.3 C 0 km/h
3192 19-06-2008 14:47:02 25.1 C 5.09 g/m*3 25.1 C 0 km/h
3193 19-06-2008 14:59:02 25.7 C 5.51 g/m*3 25.7 C 0 km/h
3194 19-06-2008 15:11:02 25.7 C 5.75 g/m*3 25.7 C 0 km/h
3195 19-06-2008 15:23:02 25.9 C 6.05 g/m*3 25.9 C 0 km/h
3196 19-06-2008 15:35:01 26.1 C 5.88 g/m*3 26.1 C 0 km/h
3197 19-06-2008 15:47:02 26.7 C 5.82 g/m*3 26.7 C 0 km/h
3198 19-06-2008 15:59:02 26.1 C 5.88 g/m*3 26.1 C 0 km/h
3199 19-06-2008 16:11:02 25.2 C 6.05 g/m*3 25.2 C 0 km/h
3200 19-06-2008 16:23:02 26.4 C 6.22 g/m*3 26.4 C 0 km/h
Sensor: Nr:Datum:Temp:Abs-Feuchte:Windchill:Wind:
Aussen-T/F 3201 19-06-2008 16:35:02 26.5 C 6.26 g/m*3 26.5 C 0 km/h
3202 19-06-2008 16:47:02 26.4 C 6.22 g/m*3 26.4 C 0 km/h
3203 19-06-2008 16:59:02 26.1 C 6.12 g/m*3 26.1 C 0 km/h
3204 19-06-2008 17:11:03 26.5 C 6.26 g/m*3 26.5 C 0 km/h
3205 19-06-2008 17:23:02 26.3 C 6.44 g/m*3 26.3 C 0 km/h
3206 19-06-2008 17:35:02 25.9 C 6.78 g/m*3 25.9 C 0 km/h
3207 19-06-2008 17:47:02 26.1 C 7.1 g/m*3 26.1 C 0 km/h
3208 19-06-2008 17:59:02 25.7 C 7.18 g/m*3 25.7 C 0 km/h
3209 19-06-2008 18:11:02 24.8 C 7.06 g/m*3 24.8 C 0 km/h
3210 19-06-2008 18:23:02 24.7 C 7.02 g/m*3 24.7 C 0 km/h
3211 19-06-2008 18:35:02 24.6 C 7.2 g/m*3 24.6 C 0 km/h
3212 19-06-2008 18:47:02 25.6 C 7.14 g/m*3 25.6 C 0 km/h
3213 19-06-2008 18:59:02 26.3 C 7.18 g/m*3 26.3 C 0 km/h
3214 19-06-2008 19:11:01 25.7 C 7.18 g/m*3 25.7 C 0 km/h
3215 19-06-2008 19:23:01 24.2 C 7.26 g/m*3 24.2 C 0 km/h
3216 19-06-2008 19:35:02 23.9 C 7.79 g/m*3 23.9 C 0 km/h
3217 19-06-2008 19:47:01 23.6 C 7.66 g/m*3 23.6 C 0 km/h
3218 19-06-2008 19:59:01 23.3 C 7.74 g/m*3 23.3 C 0 km/h
3219 19-06-2008 20:11:02 23.2 C 7.69 g/m*3 23.2 C 0 km/h
3220 19-06-2008 20:23:01 23 C 7.81 g/m*3 23 C 0 km/h
3221 19-06-2008 20:35:01 22.6 C 8.04 g/m*3 22.6 C 0 km/h
3222 19-06-2008 20:47:03 22.3 C 8.1 g/m*3 22.3 C